<?xml version="1.0" encoding="UTF-8" standalone="no" ?>
<gpx xmlns="http://www.topografix.com/GPX/1/1" xmlns:xsi="http://www.w3.org/2001/XMLSchema-instance" xsi:schemaLocation="http://www.topografix.com/GPX/1/1 http://www.topografix.com/GPX/1/1/gpx.xsd" version="1.1" creator="VisuGPX - https://www.visugpx.com">
  <metadata>
    <name>Cabanne de Banios</name>
    <desc><![CDATA[27/01/2022, G2 Uzos, grand beau temps. Prévoir une navette entre le départ et l'arrivée]]></desc>
  </metadata>
  <trk>
    <name><![CDATA[Tracé actuel: 27 JAN 2022 09:33]]></name>
    <trkseg>
      <trkpt lat="42.99473" lon="0.21561">
        <ele>634.13</ele>
        <time>2022-01-27T08:33:03Z</time>
      </trkpt>
      <trkpt lat="42.99476" lon="0.21555">
        <ele>638.93</ele>
        <time>2022-01-27T08:33:14Z</time>
      </trkpt>
      <trkpt lat="42.99477" lon="0.21555">
        <ele>643.26</ele>
        <time>2022-01-27T08:33:15Z</time>
      </trkpt>
      <trkpt lat="42.99476" lon="0.21554">
        <ele>647.59</ele>
        <time>2022-01-27T08:33:16Z</time>
      </trkpt>
      <trkpt lat="42.99477" lon="0.21554">
        <ele>651.43</ele>
        <time>2022-01-27T08:33:17Z</time>
      </trkpt>
      <trkpt lat="42.99477" lon="0.21554">
        <ele>655.76</ele>
        <time>2022-01-27T08:33:18Z</time>
      </trkpt>
      <trkpt lat="42.99478" lon="0.21555">
        <ele>659.6</ele>
        <time>2022-01-27T08:33:19Z</time>
      </trkpt>
      <trkpt lat="42.99479" lon="0.21554">
        <ele>662.49</ele>
        <time>2022-01-27T08:33:20Z</time>
      </trkpt>
      <trkpt lat="42.9948" lon="0.21557">
        <ele>668.25</ele>
        <time>2022-01-27T08:33:22Z</time>
      </trkpt>
      <trkpt lat="42.99482" lon="0.21559">
        <ele>672.1</ele>
        <time>2022-01-27T08:33:23Z</time>
      </trkpt>
      <trkpt lat="42.99486" lon="0.21564">
        <ele>677.87</ele>
        <time>2022-01-27T08:33:25Z</time>
      </trkpt>
      <trkpt lat="42.99488" lon="0.21569">
        <ele>683.15</ele>
        <time>2022-01-27T08:33:27Z</time>
      </trkpt>
      <trkpt lat="42.9949" lon="0.21573">
        <ele>687.96</ele>
        <time>2022-01-27T08:33:29Z</time>
      </trkpt>
      <trkpt lat="42.99492" lon="0.21577">
        <ele>693.73</ele>
        <time>2022-01-27T08:33:32Z</time>
      </trkpt>
      <trkpt lat="42.99494" lon="0.21581">
        <ele>697.57</ele>
        <time>2022-01-27T08:33:34Z</time>
      </trkpt>
      <trkpt lat="42.99495" lon="0.21582">
        <ele>699.98</ele>
        <time>2022-01-27T08:33:35Z</time>
      </trkpt>
      <trkpt lat="42.99496" lon="0.21588">
        <ele>704.78</ele>
        <time>2022-01-27T08:33:38Z</time>
      </trkpt>
      <trkpt lat="42.99497" lon="0.21591">
        <ele>708.15</ele>
        <time>2022-01-27T08:33:40Z</time>
      </trkpt>
      <trkpt lat="42.99498" lon="0.21595">
        <ele>711.03</ele>
        <time>2022-01-27T08:33:42Z</time>
      </trkpt>
      <trkpt lat="42.99501" lon="0.21599">
        <ele>714.4</ele>
        <time>2022-01-27T08:33:45Z</time>
      </trkpt>
      <trkpt lat="42.99504" lon="0.21604">
        <ele>717.76</ele>
        <time>2022-01-27T08:33:48Z</time>
      </trkpt>
      <trkpt lat="42.99506" lon="0.2161">
        <ele>721.13</ele>
        <time>2022-01-27T08:33:52Z</time>
      </trkpt>
      <trkpt lat="42.9951" lon="0.21617">
        <ele>724.49</ele>
        <time>2022-01-27T08:33:56Z</time>
      </trkpt>
      <trkpt lat="42.99511" lon="0.21618">
        <ele>724.49</ele>
        <time>2022-01-27T08:33:57Z</time>
      </trkpt>
      <trkpt lat="42.99513" lon="0.21623">
        <ele>728.34</ele>
        <time>2022-01-27T08:34:01Z</time>
      </trkpt>
      <trkpt lat="42.99516" lon="0.21622">
        <ele>730.26</ele>
        <time>2022-01-27T08:34:06Z</time>
      </trkpt>
      <trkpt lat="42.99517" lon="0.21622">
        <ele>731.7</ele>
        <time>2022-01-27T08:34:08Z</time>
      </trkpt>
      <trkpt lat="42.99519" lon="0.21622">
        <ele>734.1</ele>
        <time>2022-01-27T08:34:11Z</time>
      </trkpt>
      <trkpt lat="42.9952" lon="0.21621">
        <ele>736.99</ele>
        <time>2022-01-27T08:34:18Z</time>
      </trkpt>
      <trkpt lat="42.99517" lon="0.21621">
        <ele>737.95</ele>
        <time>2022-01-27T08:34:20Z</time>
      </trkpt>
      <trkpt lat="42.99517" lon="0.2162">
        <ele>740.83</ele>
        <time>2022-01-27T08:34:26Z</time>
      </trkpt>
      <trkpt lat="42.99517" lon="0.21618">
        <ele>743.72</ele>
        <time>2022-01-27T08:34:31Z</time>
      </trkpt>
      <trkpt lat="42.99516" lon="0.21614">
        <ele>747.56</ele>
        <time>2022-01-27T08:34:40Z</time>
      </trkpt>
      <trkpt lat="42.99519" lon="0.2161">
        <ele>750.45</ele>
        <time>2022-01-27T08:34:47Z</time>
      </trkpt>
      <trkpt lat="42.99521" lon="0.21609">
        <ele>751.89</ele>
        <time>2022-01-27T08:34:50Z</time>
      </trkpt>
      <trkpt lat="42.99522" lon="0.21607">
        <ele>752.85</ele>
        <time>2022-01-27T08:34:53Z</time>
      </trkpt>
      <trkpt lat="42.99524" lon="0.21608">
        <ele>755.73</ele>
        <time>2022-01-27T08:35:05Z</time>
      </trkpt>
      <trkpt lat="42.99533" lon="0.21602">
        <ele>758.14</ele>
        <time>2022-01-27T08:35:16Z</time>
      </trkpt>
      <trkpt lat="42.99541" lon="0.21601">
        <ele>759.1</ele>
        <time>2022-01-27T08:35:28Z</time>
      </trkpt>
      <trkpt lat="42.99551" lon="0.21597">
        <ele>759.58</ele>
        <time>2022-01-27T08:35:40Z</time>
      </trkpt>
      <trkpt lat="42.9956" lon="0.21596">
        <ele>760.54</ele>
        <time>2022-01-27T08:35:51Z</time>
      </trkpt>
      <trkpt lat="42.99568" lon="0.21589">
        <ele>761.98</ele>
        <time>2022-01-27T08:36:05Z</time>
      </trkpt>
      <trkpt lat="42.9957" lon="0.21582">
        <ele>763.42</ele>
        <time>2022-01-27T08:36:17Z</time>
      </trkpt>
      <trkpt lat="42.99571" lon="0.21573">
        <ele>764.87</ele>
        <time>2022-01-27T08:36:29Z</time>
      </trkpt>
      <trkpt lat="42.99569" lon="0.21564">
        <ele>766.31</ele>
        <time>2022-01-27T08:36:43Z</time>
      </trkpt>
      <trkpt lat="42.9957" lon="0.21553">
        <ele>768.23</ele>
        <time>2022-01-27T08:36:58Z</time>
      </trkpt>
      <trkpt lat="42.99568" lon="0.21542">
        <ele>770.15</ele>
        <time>2022-01-27T08:37:11Z</time>
      </trkpt>
      <trkpt lat="42.99569" lon="0.21535">
        <ele>771.6</ele>
        <time>2022-01-27T08:37:24Z</time>
      </trkpt>
      <trkpt lat="42.9957" lon="0.21526">
        <ele>774.48</ele>
        <time>2022-01-27T08:37:39Z</time>
      </trkpt>
      <trkpt lat="42.99575" lon="0.21514">
        <ele>775.44</ele>
        <time>2022-01-27T08:37:53Z</time>
      </trkpt>
      <trkpt lat="42.99579" lon="0.21508">
        <ele>776.88</ele>
        <time>2022-01-27T08:38:04Z</time>
      </trkpt>
      <trkpt lat="42.99581" lon="0.21504">
        <ele>778.81</ele>
        <time>2022-01-27T08:38:15Z</time>
      </trkpt>
      <trkpt lat="42.99586" lon="0.21495">
        <ele>781.21</ele>
        <time>2022-01-27T08:38:32Z</time>
      </trkpt>
      <trkpt lat="42.99592" lon="0.21488">
        <ele>781.21</ele>
        <time>2022-01-27T08:38:45Z</time>
      </trkpt>
      <trkpt lat="42.99597" lon="0.21482">
        <ele>783.13</ele>
        <time>2022-01-27T08:38:57Z</time>
      </trkpt>
      <trkpt lat="42.99602" lon="0.21478">
        <ele>785.05</ele>
        <time>2022-01-27T08:39:12Z</time>
      </trkpt>
      <trkpt lat="42.99603" lon="0.21475">
        <ele>785.53</ele>
        <time>2022-01-27T08:39:16Z</time>
      </trkpt>
      <trkpt lat="42.99607" lon="0.2147">
        <ele>786.5</ele>
        <time>2022-01-27T08:39:27Z</time>
      </trkpt>
      <trkpt lat="42.99612" lon="0.21463">
        <ele>788.42</ele>
        <time>2022-01-27T08:39:41Z</time>
      </trkpt>
      <trkpt lat="42.99616" lon="0.2146">
        <ele>789.38</ele>
        <time>2022-01-27T08:39:53Z</time>
      </trkpt>
      <trkpt lat="42.99618" lon="0.21456">
        <ele>790.82</ele>
        <time>2022-01-27T08:40:03Z</time>
      </trkpt>
      <trkpt lat="42.99624" lon="0.21452">
        <ele>792.26</ele>
        <time>2022-01-27T08:40:17Z</time>
      </trkpt>
      <trkpt lat="42.99629" lon="0.21447">
        <ele>794.67</ele>
        <time>2022-01-27T08:40:34Z</time>
      </trkpt>
      <trkpt lat="42.99635" lon="0.21441">
        <ele>796.11</ele>
        <time>2022-01-27T08:40:50Z</time>
      </trkpt>
      <trkpt lat="42.99639" lon="0.21434">
        <ele>796.59</ele>
        <time>2022-01-27T08:41:04Z</time>
      </trkpt>
      <trkpt lat="42.99642" lon="0.21426">
        <ele>799.47</ele>
        <time>2022-01-27T08:41:16Z</time>
      </trkpt>
      <trkpt lat="42.99646" lon="0.21422">
        <ele>800.44</ele>
        <time>2022-01-27T08:41:28Z</time>
      </trkpt>
      <trkpt lat="42.99649" lon="0.21416">
        <ele>802.36</ele>
        <time>2022-01-27T08:41:41Z</time>
      </trkpt>
      <trkpt lat="42.99655" lon="0.21411">
        <ele>803.8</ele>
        <time>2022-01-27T08:41:55Z</time>
      </trkpt>
      <trkpt lat="42.9966" lon="0.21406">
        <ele>805.72</ele>
        <time>2022-01-27T08:42:13Z</time>
      </trkpt>
      <trkpt lat="42.99665" lon="0.21408">
        <ele>807.64</ele>
        <time>2022-01-27T08:42:27Z</time>
      </trkpt>
      <trkpt lat="42.99668" lon="0.21404">
        <ele>809.09</ele>
        <time>2022-01-27T08:42:39Z</time>
      </trkpt>
      <trkpt lat="42.99669" lon="0.21399">
        <ele>811.01</ele>
        <time>2022-01-27T08:42:53Z</time>
      </trkpt>
      <trkpt lat="42.99673" lon="0.21395">
        <ele>812.93</ele>
        <time>2022-01-27T08:43:09Z</time>
      </trkpt>
      <trkpt lat="42.9968" lon="0.21392">
        <ele>814.37</ele>
        <time>2022-01-27T08:43:23Z</time>
      </trkpt>
      <trkpt lat="42.99687" lon="0.2139">
        <ele>815.82</ele>
        <time>2022-01-27T08:43:39Z</time>
      </trkpt>
      <trkpt lat="42.99694" lon="0.21385">
        <ele>818.7</ele>
        <time>2022-01-27T08:44:00Z</time>
      </trkpt>
      <trkpt lat="42.99699" lon="0.2138">
        <ele>820.14</ele>
        <time>2022-01-27T08:44:15Z</time>
      </trkpt>
      <trkpt lat="42.99706" lon="0.21376">
        <ele>821.58</ele>
        <time>2022-01-27T08:44:32Z</time>
      </trkpt>
      <trkpt lat="42.99708" lon="0.21373">
        <ele>823.99</ele>
        <time>2022-01-27T08:44:45Z</time>
      </trkpt>
      <trkpt lat="42.99714" lon="0.21369">
        <ele>825.91</ele>
        <time>2022-01-27T08:45:03Z</time>
      </trkpt>
      <trkpt lat="42.9972" lon="0.21364">
        <ele>827.35</ele>
        <time>2022-01-27T08:45:18Z</time>
      </trkpt>
      <trkpt lat="42.99724" lon="0.21365">
        <ele>829.27</ele>
        <time>2022-01-27T08:45:34Z</time>
      </trkpt>
      <trkpt lat="42.99727" lon="0.2137">
        <ele>830.72</ele>
        <time>2022-01-27T08:45:45Z</time>
      </trkpt>
      <trkpt lat="42.99728" lon="0.21379">
        <ele>832.64</ele>
        <time>2022-01-27T08:45:59Z</time>
      </trkpt>
      <trkpt lat="42.99726" lon="0.21389">
        <ele>833.6</ele>
        <time>2022-01-27T08:46:14Z</time>
      </trkpt>
      <trkpt lat="42.99724" lon="0.21396">
        <ele>836</ele>
        <time>2022-01-27T08:46:29Z</time>
      </trkpt>
      <trkpt lat="42.99724" lon="0.214">
        <ele>836.48</ele>
        <time>2022-01-27T08:46:41Z</time>
      </trkpt>
      <trkpt lat="42.99721" lon="0.21409">
        <ele>838.89</ele>
        <time>2022-01-27T08:46:58Z</time>
      </trkpt>
      <trkpt lat="42.99721" lon="0.21415">
        <ele>839.85</ele>
        <time>2022-01-27T08:47:09Z</time>
      </trkpt>
      <trkpt lat="42.99719" lon="0.21422">
        <ele>841.29</ele>
        <time>2022-01-27T08:47:24Z</time>
      </trkpt>
      <trkpt lat="42.99721" lon="0.2143">
        <ele>843.21</ele>
        <time>2022-01-27T08:47:39Z</time>
      </trkpt>
      <trkpt lat="42.9972" lon="0.2144">
        <ele>845.14</ele>
        <time>2022-01-27T08:47:55Z</time>
      </trkpt>
      <trkpt lat="42.99719" lon="0.21449">
        <ele>846.58</ele>
        <time>2022-01-27T08:48:09Z</time>
      </trkpt>
      <trkpt lat="42.99719" lon="0.21458">
        <ele>848.02</ele>
        <time>2022-01-27T08:48:29Z</time>
      </trkpt>
      <trkpt lat="42.9972" lon="0.21466">
        <ele>849.94</ele>
        <time>2022-01-27T08:48:42Z</time>
      </trkpt>
      <trkpt lat="42.99719" lon="0.21474">
        <ele>852.35</ele>
        <time>2022-01-27T08:48:56Z</time>
      </trkpt>
      <trkpt lat="42.9972" lon="0.21485">
        <ele>852.83</ele>
        <time>2022-01-27T08:49:15Z</time>
      </trkpt>
      <trkpt lat="42.99721" lon="0.21493">
        <ele>854.27</ele>
        <time>2022-01-27T08:49:30Z</time>
      </trkpt>
      <trkpt lat="42.99724" lon="0.21502">
        <ele>855.71</ele>
        <time>2022-01-27T08:49:46Z</time>
      </trkpt>
      <trkpt lat="42.99725" lon="0.2151">
        <ele>858.11</ele>
        <time>2022-01-27T08:49:59Z</time>
      </trkpt>
      <trkpt lat="42.99725" lon="0.21517">
        <ele>860.52</ele>
        <time>2022-01-27T08:50:15Z</time>
      </trkpt>
      <trkpt lat="42.99727" lon="0.21526">
        <ele>861.96</ele>
        <time>2022-01-27T08:50:31Z</time>
      </trkpt>
      <trkpt lat="42.99729" lon="0.21534">
        <ele>864.36</ele>
        <time>2022-01-27T08:50:46Z</time>
      </trkpt>
      <trkpt lat="42.99731" lon="0.21536">
        <ele>864.84</ele>
        <time>2022-01-27T08:51:01Z</time>
      </trkpt>
      <trkpt lat="42.99731" lon="0.21545">
        <ele>867.25</ele>
        <time>2022-01-27T08:51:14Z</time>
      </trkpt>
      <trkpt lat="42.99732" lon="0.21553">
        <ele>868.69</ele>
        <time>2022-01-27T08:51:28Z</time>
      </trkpt>
      <trkpt lat="42.99733" lon="0.2156">
        <ele>870.13</ele>
        <time>2022-01-27T08:51:44Z</time>
      </trkpt>
      <trkpt lat="42.99733" lon="0.21562">
        <ele>871.57</ele>
        <time>2022-01-27T08:51:50Z</time>
      </trkpt>
      <trkpt lat="42.99731" lon="0.21571">
        <ele>872.53</ele>
        <time>2022-01-27T08:52:02Z</time>
      </trkpt>
      <trkpt lat="42.99732" lon="0.2158">
        <ele>874.46</ele>
        <time>2022-01-27T08:52:19Z</time>
      </trkpt>
      <trkpt lat="42.9973" lon="0.21585">
        <ele>874.46</ele>
        <time>2022-01-27T08:52:34Z</time>
      </trkpt>
      <trkpt lat="42.99729" lon="0.21584">
        <ele>873.01</ele>
        <time>2022-01-27T08:52:43Z</time>
      </trkpt>
      <trkpt lat="42.9973" lon="0.2159">
        <ele>863.88</ele>
        <time>2022-01-27T08:53:04Z</time>
      </trkpt>
      <trkpt lat="42.9973" lon="0.21589">
        <ele>873.5</ele>
        <time>2022-01-27T08:53:05Z</time>
      </trkpt>
      <trkpt lat="42.99731" lon="0.21585">
        <ele>874.94</ele>
        <time>2022-01-27T08:53:28Z</time>
      </trkpt>
      <trkpt lat="42.99731" lon="0.21585">
        <ele>871.57</ele>
        <time>2022-01-27T08:53:30Z</time>
      </trkpt>
      <trkpt lat="42.99731" lon="0.21585">
        <ele>874.94</ele>
        <time>2022-01-27T08:53:31Z</time>
      </trkpt>
      <trkpt lat="42.99731" lon="0.21585">
        <ele>872.05</ele>
        <time>2022-01-27T08:53:33Z</time>
      </trkpt>
      <trkpt lat="42.99731" lon="0.21585">
        <ele>875.9</ele>
        <time>2022-01-27T08:53:35Z</time>
      </trkpt>
      <trkpt lat="42.99732" lon="0.21584">
        <ele>873.98</ele>
        <time>2022-01-27T08:54:02Z</time>
      </trkpt>
      <trkpt lat="42.99727" lon="0.21578">
        <ele>873.5</ele>
        <time>2022-01-27T08:54:32Z</time>
      </trkpt>
      <trkpt lat="42.99727" lon="0.21583">
        <ele>873.5</ele>
        <time>2022-01-27T08:55:00Z</time>
      </trkpt>
      <trkpt lat="42.99726" lon="0.2158">
        <ele>873.98</ele>
        <time>2022-01-27T08:55:24Z</time>
      </trkpt>
      <trkpt lat="42.99728" lon="0.21586">
        <ele>875.42</ele>
        <time>2022-01-27T08:55:36Z</time>
      </trkpt>
      <trkpt lat="42.9973" lon="0.21599">
        <ele>877.34</ele>
        <time>2022-01-27T08:55:49Z</time>
      </trkpt>
      <trkpt lat="42.99729" lon="0.21608">
        <ele>879.26</ele>
        <time>2022-01-27T08:56:02Z</time>
      </trkpt>
      <trkpt lat="42.99729" lon="0.21619">
        <ele>881.19</ele>
        <time>2022-01-27T08:56:18Z</time>
      </trkpt>
      <trkpt lat="42.99731" lon="0.21626">
        <ele>884.07</ele>
        <time>2022-01-27T08:56:30Z</time>
      </trkpt>
      <trkpt lat="42.99732" lon="0.21634">
        <ele>885.51</ele>
        <time>2022-01-27T08:56:43Z</time>
      </trkpt>
      <trkpt lat="42.99734" lon="0.21641">
        <ele>886.95</ele>
        <time>2022-01-27T08:56:56Z</time>
      </trkpt>
      <trkpt lat="42.99736" lon="0.21649">
        <ele>889.84</ele>
        <time>2022-01-27T08:57:09Z</time>
      </trkpt>
      <trkpt lat="42.99738" lon="0.21658">
        <ele>892.24</ele>
        <time>2022-01-27T08:57:22Z</time>
      </trkpt>
      <trkpt lat="42.99738" lon="0.21668">
        <ele>894.16</ele>
        <time>2022-01-27T08:57:36Z</time>
      </trkpt>
      <trkpt lat="42.99738" lon="0.21676">
        <ele>895.61</ele>
        <time>2022-01-27T08:57:50Z</time>
      </trkpt>
      <trkpt lat="42.99737" lon="0.21683">
        <ele>898.01</ele>
        <time>2022-01-27T08:58:04Z</time>
      </trkpt>
      <trkpt lat="42.99738" lon="0.21694">
        <ele>900.89</ele>
        <time>2022-01-27T08:58:20Z</time>
      </trkpt>
      <trkpt lat="42.99735" lon="0.21701">
        <ele>902.82</ele>
        <time>2022-01-27T08:58:33Z</time>
      </trkpt>
      <trkpt lat="42.99734" lon="0.21708">
        <ele>904.74</ele>
        <time>2022-01-27T08:58:47Z</time>
      </trkpt>
      <trkpt lat="42.99733" lon="0.21714">
        <ele>907.14</ele>
        <time>2022-01-27T08:59:00Z</time>
      </trkpt>
      <trkpt lat="42.99731" lon="0.21721">
        <ele>909.06</ele>
        <time>2022-01-27T08:59:13Z</time>
      </trkpt>
      <trkpt lat="42.99731" lon="0.21723">
        <ele>910.03</ele>
        <time>2022-01-27T08:59:17Z</time>
      </trkpt>
      <trkpt lat="42.9973" lon="0.21729">
        <ele>911.47</ele>
        <time>2022-01-27T08:59:29Z</time>
      </trkpt>
      <trkpt lat="42.99726" lon="0.21735">
        <ele>911.95</ele>
        <time>2022-01-27T08:59:41Z</time>
      </trkpt>
      <trkpt lat="42.99726" lon="0.21735">
        <ele>912.91</ele>
        <time>2022-01-27T08:59:57Z</time>
      </trkpt>
      <trkpt lat="42.99724" lon="0.21736">
        <ele>912.91</ele>
        <time>2022-01-27T09:00:29Z</time>
      </trkpt>
      <trkpt lat="42.99725" lon="0.21739">
        <ele>912.91</ele>
        <time>2022-01-27T09:01:05Z</time>
      </trkpt>
      <trkpt lat="42.99727" lon="0.21736">
        <ele>912.91</ele>
        <time>2022-01-27T09:01:31Z</time>
      </trkpt>
      <trkpt lat="42.99728" lon="0.21738">
        <ele>910.99</ele>
        <time>2022-01-27T09:01:48Z</time>
      </trkpt>
      <trkpt lat="42.9973" lon="0.21737">
        <ele>910.99</ele>
        <time>2022-01-27T09:02:20Z</time>
      </trkpt>
      <trkpt lat="42.99727" lon="0.21736">
        <ele>912.43</ele>
        <time>2022-01-27T09:02:30Z</time>
      </trkpt>
      <trkpt lat="42.99727" lon="0.21737">
        <ele>911.95</ele>
        <time>2022-01-27T09:02:50Z</time>
      </trkpt>
      <trkpt lat="42.99725" lon="0.21734">
        <ele>912.43</ele>
        <time>2022-01-27T09:03:13Z</time>
      </trkpt>
      <trkpt lat="42.99727" lon="0.21736">
        <ele>912.43</ele>
        <time>2022-01-27T09:03:36Z</time>
      </trkpt>
      <trkpt lat="42.99728" lon="0.21735">
        <ele>911.95</ele>
        <time>2022-01-27T09:04:00Z</time>
      </trkpt>
      <trkpt lat="42.99727" lon="0.21735">
        <ele>912.43</ele>
        <time>2022-01-27T09:04:30Z</time>
      </trkpt>
      <trkpt lat="42.99727" lon="0.21734">
        <ele>912.43</ele>
        <time>2022-01-27T09:04:45Z</time>
      </trkpt>
      <trkpt lat="42.99725" lon="0.21738">
        <ele>911.95</ele>
        <time>2022-01-27T09:04:58Z</time>
      </trkpt>
      <trkpt lat="42.99725" lon="0.2174">
        <ele>911.95</ele>
        <time>2022-01-27T09:05:00Z</time>
      </trkpt>
      <trkpt lat="42.99724" lon="0.21744">
        <ele>911.95</ele>
        <time>2022-01-27T09:05:03Z</time>
      </trkpt>
      <trkpt lat="42.99722" lon="0.21745">
        <ele>912.43</ele>
        <time>2022-01-27T09:05:05Z</time>
      </trkpt>
      <trkpt lat="42.9972" lon="0.21753">
        <ele>912.91</ele>
        <time>2022-01-27T09:05:11Z</time>
      </trkpt>
      <trkpt lat="42.99712" lon="0.21773">
        <ele>913.39</ele>
        <time>2022-01-27T09:05:27Z</time>
      </trkpt>
      <trkpt lat="42.9971" lon="0.21788">
        <ele>915.31</ele>
        <time>2022-01-27T09:05:41Z</time>
      </trkpt>
      <trkpt lat="42.99708" lon="0.21799">
        <ele>916.27</ele>
        <time>2022-01-27T09:05:52Z</time>
      </trkpt>
      <trkpt lat="42.99706" lon="0.21812">
        <ele>917.72</ele>
        <time>2022-01-27T09:06:06Z</time>
      </trkpt>
      <trkpt lat="42.99705" lon="0.2182">
        <ele>919.16</ele>
        <time>2022-01-27T09:06:16Z</time>
      </trkpt>
      <trkpt lat="42.99702" lon="0.2183">
        <ele>920.12</ele>
        <time>2022-01-27T09:06:29Z</time>
      </trkpt>
      <trkpt lat="42.997" lon="0.21839">
        <ele>921.56</ele>
        <time>2022-01-27T09:06:43Z</time>
      </trkpt>
      <trkpt lat="42.99699" lon="0.2185">
        <ele>924.45</ele>
        <time>2022-01-27T09:06:56Z</time>
      </trkpt>
      <trkpt lat="42.99699" lon="0.21861">
        <ele>925.41</ele>
        <time>2022-01-27T09:07:11Z</time>
      </trkpt>
      <trkpt lat="42.99697" lon="0.21869">
        <ele>926.37</ele>
        <time>2022-01-27T09:07:23Z</time>
      </trkpt>
      <trkpt lat="42.99695" lon="0.21878">
        <ele>927.33</ele>
        <time>2022-01-27T09:07:34Z</time>
      </trkpt>
      <trkpt lat="42.99693" lon="0.21889">
        <ele>928.77</ele>
        <time>2022-01-27T09:07:48Z</time>
      </trkpt>
      <trkpt lat="42.99692" lon="0.21899">
        <ele>930.21</ele>
        <time>2022-01-27T09:08:02Z</time>
      </trkpt>
      <trkpt lat="42.99691" lon="0.21909">
        <ele>931.17</ele>
        <time>2022-01-27T09:08:16Z</time>
      </trkpt>
      <trkpt lat="42.99689" lon="0.21917">
        <ele>933.1</ele>
        <time>2022-01-27T09:08:30Z</time>
      </trkpt>
      <trkpt lat="42.99687" lon="0.21924">
        <ele>934.54</ele>
        <time>2022-01-27T09:08:43Z</time>
      </trkpt>
      <trkpt lat="42.99686" lon="0.21933">
        <ele>935.02</ele>
        <time>2022-01-27T09:08:57Z</time>
      </trkpt>
      <trkpt lat="42.99684" lon="0.21941">
        <ele>937.42</ele>
        <time>2022-01-27T09:09:10Z</time>
      </trkpt>
      <trkpt lat="42.99684" lon="0.2195">
        <ele>938.38</ele>
        <time>2022-01-27T09:09:27Z</time>
      </trkpt>
      <trkpt lat="42.99685" lon="0.21955">
        <ele>940.79</ele>
        <time>2022-01-27T09:09:41Z</time>
      </trkpt>
      <trkpt lat="42.99684" lon="0.21963">
        <ele>941.75</ele>
        <time>2022-01-27T09:09:55Z</time>
      </trkpt>
      <trkpt lat="42.99683" lon="0.21969">
        <ele>943.19</ele>
        <time>2022-01-27T09:10:09Z</time>
      </trkpt>
      <trkpt lat="42.99684" lon="0.21974">
        <ele>944.63</ele>
        <time>2022-01-27T09:10:21Z</time>
      </trkpt>
      <trkpt lat="42.99684" lon="0.21979">
        <ele>946.07</ele>
        <time>2022-01-27T09:10:32Z</time>
      </trkpt>
      <trkpt lat="42.99685" lon="0.21984">
        <ele>947.52</ele>
        <time>2022-01-27T09:10:43Z</time>
      </trkpt>
      <trkpt lat="42.99684" lon="0.21991">
        <ele>948.48</ele>
        <time>2022-01-27T09:10:58Z</time>
      </trkpt>
      <trkpt lat="42.99685" lon="0.21999">
        <ele>950.4</ele>
        <time>2022-01-27T09:11:12Z</time>
      </trkpt>
      <trkpt lat="42.99685" lon="0.22005">
        <ele>951.36</ele>
        <time>2022-01-27T09:11:24Z</time>
      </trkpt>
      <trkpt lat="42.99684" lon="0.22012">
        <ele>952.32</ele>
        <time>2022-01-27T09:11:36Z</time>
      </trkpt>
      <trkpt lat="42.99685" lon="0.2202">
        <ele>953.77</ele>
        <time>2022-01-27T09:11:50Z</time>
      </trkpt>
      <trkpt lat="42.99685" lon="0.22024">
        <ele>954.73</ele>
        <time>2022-01-27T09:12:01Z</time>
      </trkpt>
      <trkpt lat="42.99686" lon="0.22028">
        <ele>956.17</ele>
        <time>2022-01-27T09:12:15Z</time>
      </trkpt>
      <trkpt lat="42.99688" lon="0.22033">
        <ele>957.13</ele>
        <time>2022-01-27T09:12:26Z</time>
      </trkpt>
      <trkpt lat="42.99688" lon="0.22037">
        <ele>958.57</ele>
        <time>2022-01-27T09:12:34Z</time>
      </trkpt>
      <trkpt lat="42.99688" lon="0.22043">
        <ele>959.53</ele>
        <time>2022-01-27T09:12:47Z</time>
      </trkpt>
      <trkpt lat="42.99687" lon="0.22046">
        <ele>960.49</ele>
        <time>2022-01-27T09:13:00Z</time>
      </trkpt>
      <trkpt lat="42.99689" lon="0.22052">
        <ele>962.9</ele>
        <time>2022-01-27T09:13:15Z</time>
      </trkpt>
      <trkpt lat="42.99688" lon="0.22059">
        <ele>963.86</ele>
        <time>2022-01-27T09:13:28Z</time>
      </trkpt>
      <trkpt lat="42.99689" lon="0.22068">
        <ele>965.3</ele>
        <time>2022-01-27T09:13:45Z</time>
      </trkpt>
      <trkpt lat="42.9969" lon="0.22075">
        <ele>967.22</ele>
        <time>2022-01-27T09:14:01Z</time>
      </trkpt>
      <trkpt lat="42.99692" lon="0.22081">
        <ele>968.18</ele>
        <time>2022-01-27T09:14:16Z</time>
      </trkpt>
      <trkpt lat="42.99693" lon="0.22088">
        <ele>969.63</ele>
        <time>2022-01-27T09:14:30Z</time>
      </trkpt>
      <trkpt lat="42.99693" lon="0.22098">
        <ele>970.59</ele>
        <time>2022-01-27T09:14:47Z</time>
      </trkpt>
      <trkpt lat="42.99691" lon="0.22104">
        <ele>972.51</ele>
        <time>2022-01-27T09:14:58Z</time>
      </trkpt>
      <trkpt lat="42.99691" lon="0.22111">
        <ele>973.47</ele>
        <time>2022-01-27T09:15:11Z</time>
      </trkpt>
      <trkpt lat="42.99688" lon="0.2212">
        <ele>974.43</ele>
        <time>2022-01-27T09:15:25Z</time>
      </trkpt>
      <trkpt lat="42.99688" lon="0.22132">
        <ele>975.39</ele>
        <time>2022-01-27T09:15:39Z</time>
      </trkpt>
      <trkpt lat="42.99688" lon="0.22139">
        <ele>976.84</ele>
        <time>2022-01-27T09:15:53Z</time>
      </trkpt>
      <trkpt lat="42.99686" lon="0.22145">
        <ele>977.32</ele>
        <time>2022-01-27T09:16:04Z</time>
      </trkpt>
      <trkpt lat="42.99686" lon="0.22144">
        <ele>977.32</ele>
        <time>2022-01-27T09:16:05Z</time>
      </trkpt>
      <trkpt lat="42.99688" lon="0.22146">
        <ele>975.88</ele>
        <time>2022-01-27T09:16:15Z</time>
      </trkpt>
      <trkpt lat="42.99688" lon="0.22143">
        <ele>976.36</ele>
        <time>2022-01-27T09:16:44Z</time>
      </trkpt>
      <trkpt lat="42.9969" lon="0.22144">
        <ele>978.28</ele>
        <time>2022-01-27T09:17:08Z</time>
      </trkpt>
      <trkpt lat="42.99687" lon="0.22144">
        <ele>976.84</ele>
        <time>2022-01-27T09:17:22Z</time>
      </trkpt>
      <trkpt lat="42.99687" lon="0.22147">
        <ele>977.32</ele>
        <time>2022-01-27T09:17:36Z</time>
      </trkpt>
      <trkpt lat="42.99686" lon="0.2215">
        <ele>977.32</ele>
        <time>2022-01-27T09:17:43Z</time>
      </trkpt>
      <trkpt lat="42.99682" lon="0.22165">
        <ele>980.2</ele>
        <time>2022-01-27T09:17:57Z</time>
      </trkpt>
      <trkpt lat="42.99679" lon="0.22176">
        <ele>982.12</ele>
        <time>2022-01-27T09:18:09Z</time>
      </trkpt>
      <trkpt lat="42.99678" lon="0.22188">
        <ele>984.53</ele>
        <time>2022-01-27T09:18:22Z</time>
      </trkpt>
      <trkpt lat="42.99676" lon="0.22198">
        <ele>986.93</ele>
        <time>2022-01-27T09:18:36Z</time>
      </trkpt>
      <trkpt lat="42.99674" lon="0.22203">
        <ele>987.89</ele>
        <time>2022-01-27T09:18:48Z</time>
      </trkpt>
      <trkpt lat="42.9967" lon="0.22217">
        <ele>989.33</ele>
        <time>2022-01-27T09:19:02Z</time>
      </trkpt>
      <trkpt lat="42.99669" lon="0.22228">
        <ele>991.74</ele>
        <time>2022-01-27T09:19:17Z</time>
      </trkpt>
      <trkpt lat="42.9967" lon="0.2223">
        <ele>991.74</ele>
        <time>2022-01-27T09:19:36Z</time>
      </trkpt>
      <trkpt lat="42.99669" lon="0.22243">
        <ele>994.62</ele>
        <time>2022-01-27T09:19:49Z</time>
      </trkpt>
      <trkpt lat="42.99667" lon="0.22254">
        <ele>995.58</ele>
        <time>2022-01-27T09:20:01Z</time>
      </trkpt>
      <trkpt lat="42.99667" lon="0.22264">
        <ele>997.02</ele>
        <time>2022-01-27T09:20:14Z</time>
      </trkpt>
      <trkpt lat="42.99668" lon="0.22271">
        <ele>999.43</ele>
        <time>2022-01-27T09:20:26Z</time>
      </trkpt>
      <trkpt lat="42.9967" lon="0.22277">
        <ele>1001.35</ele>
        <time>2022-01-27T09:20:40Z</time>
      </trkpt>
      <trkpt lat="42.99671" lon="0.22276">
        <ele>1001.83</ele>
        <time>2022-01-27T09:20:55Z</time>
      </trkpt>
      <trkpt lat="42.99671" lon="0.22276">
        <ele>1001.35</ele>
        <time>2022-01-27T09:21:14Z</time>
      </trkpt>
      <trkpt lat="42.99672" lon="0.22276">
        <ele>1000.87</ele>
        <time>2022-01-27T09:21:29Z</time>
      </trkpt>
      <trkpt lat="42.9967" lon="0.22276">
        <ele>1001.83</ele>
        <time>2022-01-27T09:21:46Z</time>
      </trkpt>
      <trkpt lat="42.99669" lon="0.22277">
        <ele>1001.35</ele>
        <time>2022-01-27T09:22:02Z</time>
      </trkpt>
      <trkpt lat="42.99668" lon="0.22282">
        <ele>1001.83</ele>
        <time>2022-01-27T09:22:20Z</time>
      </trkpt>
      <trkpt lat="42.99671" lon="0.22292">
        <ele>1003.27</ele>
        <time>2022-01-27T09:22:32Z</time>
      </trkpt>
      <trkpt lat="42.99674" lon="0.22299">
        <ele>1005.68</ele>
        <time>2022-01-27T09:22:47Z</time>
      </trkpt>
      <trkpt lat="42.99676" lon="0.22312">
        <ele>1007.12</ele>
        <time>2022-01-27T09:23:01Z</time>
      </trkpt>
      <trkpt lat="42.99678" lon="0.22321">
        <ele>1009.04</ele>
        <time>2022-01-27T09:23:19Z</time>
      </trkpt>
      <trkpt lat="42.99676" lon="0.22331">
        <ele>1010</ele>
        <time>2022-01-27T09:23:35Z</time>
      </trkpt>
      <trkpt lat="42.99673" lon="0.22339">
        <ele>1011.44</ele>
        <time>2022-01-27T09:23:52Z</time>
      </trkpt>
      <trkpt lat="42.99672" lon="0.22346">
        <ele>1013.37</ele>
        <time>2022-01-27T09:24:07Z</time>
      </trkpt>
      <trkpt lat="42.99672" lon="0.22354">
        <ele>1014.81</ele>
        <time>2022-01-27T09:24:22Z</time>
      </trkpt>
      <trkpt lat="42.99672" lon="0.22359">
        <ele>1016.73</ele>
        <time>2022-01-27T09:24:34Z</time>
      </trkpt>
      <trkpt lat="42.99674" lon="0.22363">
        <ele>1018.17</ele>
        <time>2022-01-27T09:24:49Z</time>
      </trkpt>
      <trkpt lat="42.99668" lon="0.22369">
        <ele>1019.62</ele>
        <time>2022-01-27T09:25:07Z</time>
      </trkpt>
      <trkpt lat="42.99664" lon="0.22376">
        <ele>1021.06</ele>
        <time>2022-01-27T09:25:22Z</time>
      </trkpt>
      <trkpt lat="42.99661" lon="0.22382">
        <ele>1022.02</ele>
        <time>2022-01-27T09:25:37Z</time>
      </trkpt>
      <trkpt lat="42.99657" lon="0.22387">
        <ele>1023.94</ele>
        <time>2022-01-27T09:25:51Z</time>
      </trkpt>
      <trkpt lat="42.99654" lon="0.22392">
        <ele>1025.38</ele>
        <time>2022-01-27T09:26:05Z</time>
      </trkpt>
      <trkpt lat="42.9965" lon="0.22398">
        <ele>1026.83</ele>
        <time>2022-01-27T09:26:22Z</time>
      </trkpt>
      <trkpt lat="42.99646" lon="0.22402">
        <ele>1027.79</ele>
        <time>2022-01-27T09:26:38Z</time>
      </trkpt>
      <trkpt lat="42.99644" lon="0.22406">
        <ele>1028.27</ele>
        <time>2022-01-27T09:26:50Z</time>
      </trkpt>
      <trkpt lat="42.99641" lon="0.2241">
        <ele>1030.19</ele>
        <time>2022-01-27T09:27:06Z</time>
      </trkpt>
      <trkpt lat="42.99637" lon="0.22414">
        <ele>1032.59</ele>
        <time>2022-01-27T09:27:19Z</time>
      </trkpt>
      <trkpt lat="42.99633" lon="0.22421">
        <ele>1032.11</ele>
        <time>2022-01-27T09:27:34Z</time>
      </trkpt>
      <trkpt lat="42.99629" lon="0.22426">
        <ele>1034.04</ele>
        <time>2022-01-27T09:27:49Z</time>
      </trkpt>
      <trkpt lat="42.99626" lon="0.2243">
        <ele>1034.52</ele>
        <time>2022-01-27T09:28:03Z</time>
      </trkpt>
      <trkpt lat="42.99622" lon="0.2244">
        <ele>1037.4</ele>
        <time>2022-01-27T09:28:21Z</time>
      </trkpt>
      <trkpt lat="42.9962" lon="0.22446">
        <ele>1038.36</ele>
        <time>2022-01-27T09:28:35Z</time>
      </trkpt>
      <trkpt lat="42.99619" lon="0.22451">
        <ele>1040.28</ele>
        <time>2022-01-27T09:28:51Z</time>
      </trkpt>
      <trkpt lat="42.99618" lon="0.22459">
        <ele>1041.73</ele>
        <time>2022-01-27T09:29:08Z</time>
      </trkpt>
      <trkpt lat="42.99615" lon="0.22467">
        <ele>1043.65</ele>
        <time>2022-01-27T09:29:25Z</time>
      </trkpt>
      <trkpt lat="42.99614" lon="0.22474">
        <ele>1045.57</ele>
        <time>2022-01-27T09:29:40Z</time>
      </trkpt>
      <trkpt lat="42.99613" lon="0.2248">
        <ele>1047.01</ele>
        <time>2022-01-27T09:29:55Z</time>
      </trkpt>
      <trkpt lat="42.99612" lon="0.22487">
        <ele>1047.49</ele>
        <time>2022-01-27T09:30:08Z</time>
      </trkpt>
      <trkpt lat="42.99613" lon="0.22488">
        <ele>1049.42</ele>
        <time>2022-01-27T09:30:25Z</time>
      </trkpt>
      <trkpt lat="42.99611" lon="0.22485">
        <ele>1048.45</ele>
        <time>2022-01-27T09:30:47Z</time>
      </trkpt>
      <trkpt lat="42.99613" lon="0.22491">
        <ele>1049.42</ele>
        <time>2022-01-27T09:31:09Z</time>
      </trkpt>
      <trkpt lat="42.99613" lon="0.225">
        <ele>1051.34</ele>
        <time>2022-01-27T09:31:23Z</time>
      </trkpt>
      <trkpt lat="42.99614" lon="0.22509">
        <ele>1053.74</ele>
        <time>2022-01-27T09:31:37Z</time>
      </trkpt>
      <trkpt lat="42.99615" lon="0.22517">
        <ele>1056.15</ele>
        <time>2022-01-27T09:31:52Z</time>
      </trkpt>
      <trkpt lat="42.99615" lon="0.22527">
        <ele>1058.55</ele>
        <time>2022-01-27T09:32:07Z</time>
      </trkpt>
      <trkpt lat="42.99614" lon="0.22533">
        <ele>1059.99</ele>
        <time>2022-01-27T09:32:21Z</time>
      </trkpt>
      <trkpt lat="42.99613" lon="0.2254">
        <ele>1061.91</ele>
        <time>2022-01-27T09:32:39Z</time>
      </trkpt>
      <trkpt lat="42.99613" lon="0.22544">
        <ele>1062.87</ele>
        <time>2022-01-27T09:32:50Z</time>
      </trkpt>
      <trkpt lat="42.9961" lon="0.22553">
        <ele>1063.84</ele>
        <time>2022-01-27T09:33:03Z</time>
      </trkpt>
      <trkpt lat="42.99604" lon="0.22552">
        <ele>1065.28</ele>
        <time>2022-01-27T09:33:18Z</time>
      </trkpt>
      <trkpt lat="42.99602" lon="0.2255">
        <ele>1064.8</ele>
        <time>2022-01-27T09:33:34Z</time>
      </trkpt>
      <trkpt lat="42.99604" lon="0.2255">
        <ele>1065.28</ele>
        <time>2022-01-27T09:33:56Z</time>
      </trkpt>
      <trkpt lat="42.99602" lon="0.22551">
        <ele>1065.76</ele>
        <time>2022-01-27T09:34:10Z</time>
      </trkpt>
      <trkpt lat="42.99601" lon="0.22549">
        <ele>1065.28</ele>
        <time>2022-01-27T09:34:31Z</time>
      </trkpt>
      <trkpt lat="42.99601" lon="0.22551">
        <ele>1064.8</ele>
        <time>2022-01-27T09:34:47Z</time>
      </trkpt>
      <trkpt lat="42.99603" lon="0.22551">
        <ele>1064.8</ele>
        <time>2022-01-27T09:35:12Z</time>
      </trkpt>
      <trkpt lat="42.99603" lon="0.2255">
        <ele>1064.8</ele>
        <time>2022-01-27T09:35:46Z</time>
      </trkpt>
      <trkpt lat="42.996" lon="0.22555">
        <ele>1065.28</ele>
        <time>2022-01-27T09:35:57Z</time>
      </trkpt>
      <trkpt lat="42.99597" lon="0.22565">
        <ele>1066.24</ele>
        <time>2022-01-27T09:36:09Z</time>
      </trkpt>
      <trkpt lat="42.99594" lon="0.22575">
        <ele>1068.16</ele>
        <time>2022-01-27T09:36:21Z</time>
      </trkpt>
      <trkpt lat="42.99591" lon="0.22585">
        <ele>1069.12</ele>
        <time>2022-01-27T09:36:32Z</time>
      </trkpt>
      <trkpt lat="42.99588" lon="0.226">
        <ele>1071.05</ele>
        <time>2022-01-27T09:36:45Z</time>
      </trkpt>
      <trkpt lat="42.99587" lon="0.22612">
        <ele>1072.97</ele>
        <time>2022-01-27T09:37:01Z</time>
      </trkpt>
      <trkpt lat="42.99587" lon="0.22621">
        <ele>1074.41</ele>
        <time>2022-01-27T09:37:16Z</time>
      </trkpt>
      <trkpt lat="42.99586" lon="0.22628">
        <ele>1075.85</ele>
        <time>2022-01-27T09:37:28Z</time>
      </trkpt>
      <trkpt lat="42.99587" lon="0.22638">
        <ele>1076.81</ele>
        <time>2022-01-27T09:37:42Z</time>
      </trkpt>
      <trkpt lat="42.99586" lon="0.22647">
        <ele>1077.78</ele>
        <time>2022-01-27T09:37:57Z</time>
      </trkpt>
      <trkpt lat="42.99588" lon="0.22656">
        <ele>1079.7</ele>
        <time>2022-01-27T09:38:12Z</time>
      </trkpt>
      <trkpt lat="42.99594" lon="0.22667">
        <ele>1081.14</ele>
        <time>2022-01-27T09:38:25Z</time>
      </trkpt>
      <trkpt lat="42.99596" lon="0.22659">
        <ele>1082.58</ele>
        <time>2022-01-27T09:38:38Z</time>
      </trkpt>
      <trkpt lat="42.99597" lon="0.22654">
        <ele>1083.54</ele>
        <time>2022-01-27T09:38:52Z</time>
      </trkpt>
      <trkpt lat="42.99596" lon="0.2265">
        <ele>1084.99</ele>
        <time>2022-01-27T09:39:05Z</time>
      </trkpt>
      <trkpt lat="42.99599" lon="0.22644">
        <ele>1086.43</ele>
        <time>2022-01-27T09:39:22Z</time>
      </trkpt>
      <trkpt lat="42.99604" lon="0.22635">
        <ele>1088.83</ele>
        <time>2022-01-27T09:39:39Z</time>
      </trkpt>
      <trkpt lat="42.99606" lon="0.22632">
        <ele>1089.79</ele>
        <time>2022-01-27T09:39:55Z</time>
      </trkpt>
      <trkpt lat="42.99608" lon="0.22627">
        <ele>1090.75</ele>
        <time>2022-01-27T09:40:08Z</time>
      </trkpt>
      <trkpt lat="42.9961" lon="0.22623">
        <ele>1092.2</ele>
        <time>2022-01-27T09:40:21Z</time>
      </trkpt>
      <trkpt lat="42.99612" lon="0.22619">
        <ele>1093.64</ele>
        <time>2022-01-27T09:40:33Z</time>
      </trkpt>
      <trkpt lat="42.99615" lon="0.22612">
        <ele>1095.08</ele>
        <time>2022-01-27T09:40:47Z</time>
      </trkpt>
      <trkpt lat="42.99614" lon="0.22607">
        <ele>1095.56</ele>
        <time>2022-01-27T09:41:00Z</time>
      </trkpt>
      <trkpt lat="42.99617" lon="0.22601">
        <ele>1097.96</ele>
        <time>2022-01-27T09:41:18Z</time>
      </trkpt>
      <trkpt lat="42.99617" lon="0.22595">
        <ele>1099.89</ele>
        <time>2022-01-27T09:41:33Z</time>
      </trkpt>
      <trkpt lat="42.99622" lon="0.22598">
        <ele>1100.37</ele>
        <time>2022-01-27T09:41:46Z</time>
      </trkpt>
      <trkpt lat="42.99622" lon="0.226">
        <ele>1101.81</ele>
        <time>2022-01-27T09:41:50Z</time>
      </trkpt>
      <trkpt lat="42.99622" lon="0.22604">
        <ele>1102.77</ele>
        <time>2022-01-27T09:41:57Z</time>
      </trkpt>
      <trkpt lat="42.99623" lon="0.22614">
        <ele>1103.73</ele>
        <time>2022-01-27T09:42:13Z</time>
      </trkpt>
      <trkpt lat="42.99623" lon="0.22621">
        <ele>1105.17</ele>
        <time>2022-01-27T09:42:29Z</time>
      </trkpt>
      <trkpt lat="42.99624" lon="0.22628">
        <ele>1106.13</ele>
        <time>2022-01-27T09:42:45Z</time>
      </trkpt>
      <trkpt lat="42.99628" lon="0.22634">
        <ele>1108.06</ele>
        <time>2022-01-27T09:42:57Z</time>
      </trkpt>
      <trkpt lat="42.99627" lon="0.22641">
        <ele>1110.46</ele>
        <time>2022-01-27T09:43:12Z</time>
      </trkpt>
      <trkpt lat="42.99627" lon="0.22649">
        <ele>1110.94</ele>
        <time>2022-01-27T09:43:26Z</time>
      </trkpt>
      <trkpt lat="42.99628" lon="0.22655">
        <ele>1111.42</ele>
        <time>2022-01-27T09:43:44Z</time>
      </trkpt>
      <trkpt lat="42.99629" lon="0.22661">
        <ele>1112.38</ele>
        <time>2022-01-27T09:43:56Z</time>
      </trkpt>
      <trkpt lat="42.99628" lon="0.22667">
        <ele>1113.34</ele>
        <time>2022-01-27T09:44:09Z</time>
      </trkpt>
      <trkpt lat="42.99632" lon="0.22677">
        <ele>1113.82</ele>
        <time>2022-01-27T09:44:23Z</time>
      </trkpt>
      <trkpt lat="42.99634" lon="0.22683">
        <ele>1114.79</ele>
        <time>2022-01-27T09:44:35Z</time>
      </trkpt>
      <trkpt lat="42.99639" lon="0.2269">
        <ele>1116.71</ele>
        <time>2022-01-27T09:44:51Z</time>
      </trkpt>
      <trkpt lat="42.99641" lon="0.22697">
        <ele>1119.11</ele>
        <time>2022-01-27T09:45:09Z</time>
      </trkpt>
      <trkpt lat="42.99642" lon="0.22703">
        <ele>1120.07</ele>
        <time>2022-01-27T09:45:22Z</time>
      </trkpt>
      <trkpt lat="42.99642" lon="0.22707">
        <ele>1121.03</ele>
        <time>2022-01-27T09:45:35Z</time>
      </trkpt>
      <trkpt lat="42.99642" lon="0.22713">
        <ele>1122.48</ele>
        <time>2022-01-27T09:45:46Z</time>
      </trkpt>
      <trkpt lat="42.9964" lon="0.22718">
        <ele>1123.44</ele>
        <time>2022-01-27T09:45:58Z</time>
      </trkpt>
      <trkpt lat="42.99639" lon="0.22725">
        <ele>1124.88</ele>
        <time>2022-01-27T09:46:11Z</time>
      </trkpt>
      <trkpt lat="42.99639" lon="0.2273">
        <ele>1125.84</ele>
        <time>2022-01-27T09:46:22Z</time>
      </trkpt>
      <trkpt lat="42.99639" lon="0.2274">
        <ele>1127.28</ele>
        <time>2022-01-27T09:46:40Z</time>
      </trkpt>
      <trkpt lat="42.99638" lon="0.2275">
        <ele>1128.73</ele>
        <time>2022-01-27T09:46:53Z</time>
      </trkpt>
      <trkpt lat="42.99639" lon="0.22761">
        <ele>1131.13</ele>
        <time>2022-01-27T09:47:10Z</time>
      </trkpt>
      <trkpt lat="42.99639" lon="0.22769">
        <ele>1132.09</ele>
        <time>2022-01-27T09:47:24Z</time>
      </trkpt>
      <trkpt lat="42.9964" lon="0.22772">
        <ele>1133.05</ele>
        <time>2022-01-27T09:47:37Z</time>
      </trkpt>
      <trkpt lat="42.99639" lon="0.22776">
        <ele>1134.49</ele>
        <time>2022-01-27T09:47:49Z</time>
      </trkpt>
      <trkpt lat="42.99639" lon="0.22775">
        <ele>1134.49</ele>
        <time>2022-01-27T09:48:10Z</time>
      </trkpt>
      <trkpt lat="42.99639" lon="0.22783">
        <ele>1135.45</ele>
        <time>2022-01-27T09:48:23Z</time>
      </trkpt>
      <trkpt lat="42.99639" lon="0.22786">
        <ele>1135.94</ele>
        <time>2022-01-27T09:48:35Z</time>
      </trkpt>
      <trkpt lat="42.99639" lon="0.22791">
        <ele>1137.86</ele>
        <time>2022-01-27T09:48:53Z</time>
      </trkpt>
      <trkpt lat="42.99637" lon="0.22798">
        <ele>1139.3</ele>
        <time>2022-01-27T09:49:06Z</time>
      </trkpt>
      <trkpt lat="42.99638" lon="0.22806">
        <ele>1140.26</ele>
        <time>2022-01-27T09:49:21Z</time>
      </trkpt>
      <trkpt lat="42.99641" lon="0.2281">
        <ele>1142.18</ele>
        <time>2022-01-27T09:49:38Z</time>
      </trkpt>
      <trkpt lat="42.99644" lon="0.22817">
        <ele>1143.63</ele>
        <time>2022-01-27T09:49:54Z</time>
      </trkpt>
      <trkpt lat="42.99643" lon="0.22822">
        <ele>1144.59</ele>
        <time>2022-01-27T09:50:08Z</time>
      </trkpt>
      <trkpt lat="42.99648" lon="0.22826">
        <ele>1146.99</ele>
        <time>2022-01-27T09:50:21Z</time>
      </trkpt>
      <trkpt lat="42.99653" lon="0.22831">
        <ele>1147.47</ele>
        <time>2022-01-27T09:50:35Z</time>
      </trkpt>
      <trkpt lat="42.99655" lon="0.22838">
        <ele>1148.91</ele>
        <time>2022-01-27T09:50:53Z</time>
      </trkpt>
      <trkpt lat="42.99656" lon="0.22838">
        <ele>1149.39</ele>
        <time>2022-01-27T09:51:11Z</time>
      </trkpt>
      <trkpt lat="42.99658" lon="0.22842">
        <ele>1150.35</ele>
        <time>2022-01-27T09:51:33Z</time>
      </trkpt>
      <trkpt lat="42.99661" lon="0.22846">
        <ele>1152.28</ele>
        <time>2022-01-27T09:51:47Z</time>
      </trkpt>
      <trkpt lat="42.99662" lon="0.22853">
        <ele>1153.72</ele>
        <time>2022-01-27T09:52:01Z</time>
      </trkpt>
      <trkpt lat="42.99665" lon="0.22859">
        <ele>1156.12</ele>
        <time>2022-01-27T09:52:16Z</time>
      </trkpt>
      <trkpt lat="42.99663" lon="0.22864">
        <ele>1157.08</ele>
        <time>2022-01-27T09:52:30Z</time>
      </trkpt>
      <trkpt lat="42.99663" lon="0.22867">
        <ele>1157.56</ele>
        <time>2022-01-27T09:52:44Z</time>
      </trkpt>
      <trkpt lat="42.99662" lon="0.22872">
        <ele>1158.53</ele>
        <time>2022-01-27T09:53:07Z</time>
      </trkpt>
      <trkpt lat="42.99664" lon="0.2288">
        <ele>1160.93</ele>
        <time>2022-01-27T09:53:22Z</time>
      </trkpt>
      <trkpt lat="42.99668" lon="0.22884">
        <ele>1161.89</ele>
        <time>2022-01-27T09:53:36Z</time>
      </trkpt>
      <trkpt lat="42.99668" lon="0.22889">
        <ele>1163.81</ele>
        <time>2022-01-27T09:53:48Z</time>
      </trkpt>
      <trkpt lat="42.99668" lon="0.22895">
        <ele>1164.29</ele>
        <time>2022-01-27T09:53:59Z</time>
      </trkpt>
      <trkpt lat="42.99669" lon="0.22901">
        <ele>1166.22</ele>
        <time>2022-01-27T09:54:12Z</time>
      </trkpt>
      <trkpt lat="42.99669" lon="0.22911">
        <ele>1167.18</ele>
        <time>2022-01-27T09:54:26Z</time>
      </trkpt>
      <trkpt lat="42.99671" lon="0.22919">
        <ele>1167.66</ele>
        <time>2022-01-27T09:54:40Z</time>
      </trkpt>
      <trkpt lat="42.99673" lon="0.22926">
        <ele>1168.14</ele>
        <time>2022-01-27T09:54:55Z</time>
      </trkpt>
      <trkpt lat="42.99674" lon="0.22929">
        <ele>1169.58</ele>
        <time>2022-01-27T09:55:02Z</time>
      </trkpt>
      <trkpt lat="42.99673" lon="0.22936">
        <ele>1171.02</ele>
        <time>2022-01-27T09:55:16Z</time>
      </trkpt>
      <trkpt lat="42.99677" lon="0.22941">
        <ele>1172.95</ele>
        <time>2022-01-27T09:55:31Z</time>
      </trkpt>
      <trkpt lat="42.99676" lon="0.22946">
        <ele>1173.43</ele>
        <time>2022-01-27T09:55:43Z</time>
      </trkpt>
      <trkpt lat="42.99675" lon="0.2295">
        <ele>1174.39</ele>
        <time>2022-01-27T09:56:01Z</time>
      </trkpt>
      <trkpt lat="42.99679" lon="0.22954">
        <ele>1175.83</ele>
        <time>2022-01-27T09:56:14Z</time>
      </trkpt>
      <trkpt lat="42.99675" lon="0.22956">
        <ele>1176.31</ele>
        <time>2022-01-27T09:56:28Z</time>
      </trkpt>
      <trkpt lat="42.99675" lon="0.22957">
        <ele>1176.79</ele>
        <time>2022-01-27T09:56:46Z</time>
      </trkpt>
      <trkpt lat="42.99675" lon="0.22965">
        <ele>1178.71</ele>
        <time>2022-01-27T09:57:00Z</time>
      </trkpt>
      <trkpt lat="42.99674" lon="0.22972">
        <ele>1180.16</ele>
        <time>2022-01-27T09:57:14Z</time>
      </trkpt>
      <trkpt lat="42.99672" lon="0.22978">
        <ele>1181.12</ele>
        <time>2022-01-27T09:57:27Z</time>
      </trkpt>
      <trkpt lat="42.99672" lon="0.22982">
        <ele>1182.56</ele>
        <time>2022-01-27T09:57:40Z</time>
      </trkpt>
      <trkpt lat="42.9967" lon="0.22988">
        <ele>1184.48</ele>
        <time>2022-01-27T09:57:53Z</time>
      </trkpt>
      <trkpt lat="42.99672" lon="0.22989">
        <ele>1184.96</ele>
        <time>2022-01-27T09:58:09Z</time>
      </trkpt>
      <trkpt lat="42.99672" lon="0.22988">
        <ele>1185.44</ele>
        <time>2022-01-27T09:58:40Z</time>
      </trkpt>
      <trkpt lat="42.99672" lon="0.22988">
        <ele>1184.48</ele>
        <time>2022-01-27T09:59:01Z</time>
      </trkpt>
      <trkpt lat="42.99673" lon="0.22989">
        <ele>1185.92</ele>
        <time>2022-01-27T09:59:11Z</time>
      </trkpt>
      <trkpt lat="42.99682" lon="0.22985">
        <ele>1188.33</ele>
        <time>2022-01-27T09:59:26Z</time>
      </trkpt>
      <trkpt lat="42.99687" lon="0.22981">
        <ele>1190.73</ele>
        <time>2022-01-27T09:59:38Z</time>
      </trkpt>
      <trkpt lat="42.99694" lon="0.22977">
        <ele>1191.69</ele>
        <time>2022-01-27T09:59:51Z</time>
      </trkpt>
      <trkpt lat="42.99697" lon="0.22976">
        <ele>1193.13</ele>
        <time>2022-01-27T10:00:05Z</time>
      </trkpt>
      <trkpt lat="42.99702" lon="0.22974">
        <ele>1193.61</ele>
        <time>2022-01-27T10:00:21Z</time>
      </trkpt>
      <trkpt lat="42.99705" lon="0.22971">
        <ele>1195.54</ele>
        <time>2022-01-27T10:00:34Z</time>
      </trkpt>
      <trkpt lat="42.99712" lon="0.22965">
        <ele>1196.98</ele>
        <time>2022-01-27T10:00:52Z</time>
      </trkpt>
      <trkpt lat="42.99716" lon="0.22966">
        <ele>1198.9</ele>
        <time>2022-01-27T10:01:06Z</time>
      </trkpt>
      <trkpt lat="42.99715" lon="0.22971">
        <ele>1200.34</ele>
        <time>2022-01-27T10:01:18Z</time>
      </trkpt>
      <trkpt lat="42.99715" lon="0.22972">
        <ele>1200.34</ele>
        <time>2022-01-27T10:01:30Z</time>
      </trkpt>
      <trkpt lat="42.99714" lon="0.22975">
        <ele>1199.86</ele>
        <time>2022-01-27T10:01:53Z</time>
      </trkpt>
      <trkpt lat="42.99713" lon="0.22975">
        <ele>1200.34</ele>
        <time>2022-01-27T10:02:25Z</time>
      </trkpt>
      <trkpt lat="42.99713" lon="0.22977">
        <ele>1200.82</ele>
        <time>2022-01-27T10:02:35Z</time>
      </trkpt>
      <trkpt lat="42.99713" lon="0.22978">
        <ele>1200.82</ele>
        <time>2022-01-27T10:02:37Z</time>
      </trkpt>
      <trkpt lat="42.99713" lon="0.22988">
        <ele>1204.67</ele>
        <time>2022-01-27T10:02:50Z</time>
      </trkpt>
      <trkpt lat="42.99711" lon="0.22995">
        <ele>1206.59</ele>
        <time>2022-01-27T10:03:02Z</time>
      </trkpt>
      <trkpt lat="42.99712" lon="0.23">
        <ele>1208.03</ele>
        <time>2022-01-27T10:03:13Z</time>
      </trkpt>
      <trkpt lat="42.99709" lon="0.23009">
        <ele>1209.96</ele>
        <time>2022-01-27T10:03:30Z</time>
      </trkpt>
      <trkpt lat="42.99707" lon="0.23015">
        <ele>1210.44</ele>
        <time>2022-01-27T10:03:42Z</time>
      </trkpt>
      <trkpt lat="42.99704" lon="0.23021">
        <ele>1211.88</ele>
        <time>2022-01-27T10:03:57Z</time>
      </trkpt>
      <trkpt lat="42.99705" lon="0.23022">
        <ele>1212.36</ele>
        <time>2022-01-27T10:04:12Z</time>
      </trkpt>
      <trkpt lat="42.99703" lon="0.23024">
        <ele>1212.84</ele>
        <time>2022-01-27T10:04:37Z</time>
      </trkpt>
      <trkpt lat="42.99703" lon="0.23023">
        <ele>1212.36</ele>
        <time>2022-01-27T10:04:59Z</time>
      </trkpt>
      <trkpt lat="42.99699" lon="0.23032">
        <ele>1214.28</ele>
        <time>2022-01-27T10:05:13Z</time>
      </trkpt>
      <trkpt lat="42.99697" lon="0.23039">
        <ele>1216.21</ele>
        <time>2022-01-27T10:05:26Z</time>
      </trkpt>
      <trkpt lat="42.99697" lon="0.23043">
        <ele>1217.65</ele>
        <time>2022-01-27T10:05:39Z</time>
      </trkpt>
      <trkpt lat="42.99696" lon="0.23046">
        <ele>1218.13</ele>
        <time>2022-01-27T10:05:51Z</time>
      </trkpt>
      <trkpt lat="42.99695" lon="0.2305">
        <ele>1220.05</ele>
        <time>2022-01-27T10:06:05Z</time>
      </trkpt>
      <trkpt lat="42.99694" lon="0.2305">
        <ele>1220.53</ele>
        <time>2022-01-27T10:06:32Z</time>
      </trkpt>
      <trkpt lat="42.99694" lon="0.23053">
        <ele>1220.53</ele>
        <time>2022-01-27T10:06:53Z</time>
      </trkpt>
      <trkpt lat="42.9969" lon="0.23058">
        <ele>1221.97</ele>
        <time>2022-01-27T10:07:09Z</time>
      </trkpt>
      <trkpt lat="42.99688" lon="0.23065">
        <ele>1223.42</ele>
        <time>2022-01-27T10:07:21Z</time>
      </trkpt>
      <trkpt lat="42.99686" lon="0.23069">
        <ele>1224.86</ele>
        <time>2022-01-27T10:07:36Z</time>
      </trkpt>
      <trkpt lat="42.99685" lon="0.23076">
        <ele>1226.3</ele>
        <time>2022-01-27T10:07:53Z</time>
      </trkpt>
      <trkpt lat="42.99683" lon="0.23079">
        <ele>1227.26</ele>
        <time>2022-01-27T10:08:02Z</time>
      </trkpt>
      <trkpt lat="42.99683" lon="0.23085">
        <ele>1228.7</ele>
        <time>2022-01-27T10:08:18Z</time>
      </trkpt>
      <trkpt lat="42.99678" lon="0.23092">
        <ele>1230.62</ele>
        <time>2022-01-27T10:08:31Z</time>
      </trkpt>
      <trkpt lat="42.99676" lon="0.23097">
        <ele>1231.59</ele>
        <time>2022-01-27T10:08:43Z</time>
      </trkpt>
      <trkpt lat="42.99673" lon="0.23101">
        <ele>1233.03</ele>
        <time>2022-01-27T10:08:56Z</time>
      </trkpt>
      <trkpt lat="42.99672" lon="0.23104">
        <ele>1233.99</ele>
        <time>2022-01-27T10:09:09Z</time>
      </trkpt>
      <trkpt lat="42.9967" lon="0.23108">
        <ele>1233.51</ele>
        <time>2022-01-27T10:09:28Z</time>
      </trkpt>
      <trkpt lat="42.99668" lon="0.23113">
        <ele>1235.43</ele>
        <time>2022-01-27T10:09:42Z</time>
      </trkpt>
      <trkpt lat="42.99667" lon="0.23119">
        <ele>1236.87</ele>
        <time>2022-01-27T10:09:57Z</time>
      </trkpt>
      <trkpt lat="42.99665" lon="0.23125">
        <ele>1238.8</ele>
        <time>2022-01-27T10:10:09Z</time>
      </trkpt>
      <trkpt lat="42.99663" lon="0.23128">
        <ele>1239.28</ele>
        <time>2022-01-27T10:10:22Z</time>
      </trkpt>
      <trkpt lat="42.99662" lon="0.23128">
        <ele>1239.28</ele>
        <time>2022-01-27T10:10:46Z</time>
      </trkpt>
      <trkpt lat="42.99662" lon="0.23133">
        <ele>1239.76</ele>
        <time>2022-01-27T10:11:07Z</time>
      </trkpt>
      <trkpt lat="42.9966" lon="0.23142">
        <ele>1243.12</ele>
        <time>2022-01-27T10:11:22Z</time>
      </trkpt>
      <trkpt lat="42.99657" lon="0.23148">
        <ele>1243.6</ele>
        <time>2022-01-27T10:11:37Z</time>
      </trkpt>
      <trkpt lat="42.99654" lon="0.23156">
        <ele>1245.53</ele>
        <time>2022-01-27T10:11:51Z</time>
      </trkpt>
      <trkpt lat="42.99652" lon="0.23163">
        <ele>1246.49</ele>
        <time>2022-01-27T10:12:03Z</time>
      </trkpt>
      <trkpt lat="42.99646" lon="0.23171">
        <ele>1246.97</ele>
        <time>2022-01-27T10:12:18Z</time>
      </trkpt>
      <trkpt lat="42.99643" lon="0.23179">
        <ele>1248.89</ele>
        <time>2022-01-27T10:12:34Z</time>
      </trkpt>
      <trkpt lat="42.99642" lon="0.23186">
        <ele>1249.85</ele>
        <time>2022-01-27T10:12:50Z</time>
      </trkpt>
      <trkpt lat="42.99639" lon="0.23192">
        <ele>1251.77</ele>
        <time>2022-01-27T10:13:04Z</time>
      </trkpt>
      <trkpt lat="42.99636" lon="0.23201">
        <ele>1252.25</ele>
        <time>2022-01-27T10:13:17Z</time>
      </trkpt>
      <trkpt lat="42.99632" lon="0.23209">
        <ele>1253.7</ele>
        <time>2022-01-27T10:13:32Z</time>
      </trkpt>
      <trkpt lat="42.99628" lon="0.23216">
        <ele>1254.66</ele>
        <time>2022-01-27T10:13:45Z</time>
      </trkpt>
      <trkpt lat="42.99626" lon="0.23222">
        <ele>1255.62</ele>
        <time>2022-01-27T10:14:02Z</time>
      </trkpt>
      <trkpt lat="42.99625" lon="0.23225">
        <ele>1256.58</ele>
        <time>2022-01-27T10:14:17Z</time>
      </trkpt>
      <trkpt lat="42.99625" lon="0.23232">
        <ele>1258.02</ele>
        <time>2022-01-27T10:14:31Z</time>
      </trkpt>
      <trkpt lat="42.99624" lon="0.2324">
        <ele>1258.98</ele>
        <time>2022-01-27T10:14:44Z</time>
      </trkpt>
      <trkpt lat="42.99623" lon="0.23247">
        <ele>1261.39</ele>
        <time>2022-01-27T10:14:58Z</time>
      </trkpt>
      <trkpt lat="42.99621" lon="0.2326">
        <ele>1262.83</ele>
        <time>2022-01-27T10:15:17Z</time>
      </trkpt>
      <trkpt lat="42.9962" lon="0.23272">
        <ele>1264.27</ele>
        <time>2022-01-27T10:15:31Z</time>
      </trkpt>
      <trkpt lat="42.99621" lon="0.2328">
        <ele>1265.71</ele>
        <time>2022-01-27T10:15:45Z</time>
      </trkpt>
      <trkpt lat="42.9962" lon="0.23287">
        <ele>1266.67</ele>
        <time>2022-01-27T10:16:00Z</time>
      </trkpt>
      <trkpt lat="42.99621" lon="0.23297">
        <ele>1267.16</ele>
        <time>2022-01-27T10:16:14Z</time>
      </trkpt>
      <trkpt lat="42.99623" lon="0.23299">
        <ele>1268.12</ele>
        <time>2022-01-27T10:16:26Z</time>
      </trkpt>
      <trkpt lat="42.99622" lon="0.23299">
        <ele>1268.6</ele>
        <time>2022-01-27T10:16:52Z</time>
      </trkpt>
      <trkpt lat="42.99624" lon="0.233">
        <ele>1268.12</ele>
        <time>2022-01-27T10:17:17Z</time>
      </trkpt>
      <trkpt lat="42.9962" lon="0.23299">
        <ele>1268.6</ele>
        <time>2022-01-27T10:17:39Z</time>
      </trkpt>
      <trkpt lat="42.99622" lon="0.23304">
        <ele>1268.6</ele>
        <time>2022-01-27T10:17:54Z</time>
      </trkpt>
      <trkpt lat="42.99623" lon="0.23316">
        <ele>1269.08</ele>
        <time>2022-01-27T10:18:06Z</time>
      </trkpt>
      <trkpt lat="42.99627" lon="0.23333">
        <ele>1270.04</ele>
        <time>2022-01-27T10:18:21Z</time>
      </trkpt>
      <trkpt lat="42.99629" lon="0.23345">
        <ele>1271.96</ele>
        <time>2022-01-27T10:18:35Z</time>
      </trkpt>
      <trkpt lat="42.99631" lon="0.23354">
        <ele>1273.4</ele>
        <time>2022-01-27T10:18:49Z</time>
      </trkpt>
      <trkpt lat="42.99633" lon="0.23365">
        <ele>1274.36</ele>
        <time>2022-01-27T10:19:03Z</time>
      </trkpt>
      <trkpt lat="42.99633" lon="0.23373">
        <ele>1275.81</ele>
        <time>2022-01-27T10:19:14Z</time>
      </trkpt>
      <trkpt lat="42.99632" lon="0.23385">
        <ele>1276.77</ele>
        <time>2022-01-27T10:19:28Z</time>
      </trkpt>
      <trkpt lat="42.9963" lon="0.23394">
        <ele>1278.69</ele>
        <time>2022-01-27T10:19:42Z</time>
      </trkpt>
      <trkpt lat="42.9963" lon="0.23402">
        <ele>1280.13</ele>
        <time>2022-01-27T10:19:59Z</time>
      </trkpt>
      <trkpt lat="42.99627" lon="0.23409">
        <ele>1282.54</ele>
        <time>2022-01-27T10:20:16Z</time>
      </trkpt>
      <trkpt lat="42.99625" lon="0.23417">
        <ele>1282.06</ele>
        <time>2022-01-27T10:20:29Z</time>
      </trkpt>
      <trkpt lat="42.99624" lon="0.23426">
        <ele>1283.5</ele>
        <time>2022-01-27T10:20:46Z</time>
      </trkpt>
      <trkpt lat="42.99623" lon="0.23429">
        <ele>1283.98</ele>
        <time>2022-01-27T10:20:59Z</time>
      </trkpt>
      <trkpt lat="42.9962" lon="0.23436">
        <ele>1285.42</ele>
        <time>2022-01-27T10:21:17Z</time>
      </trkpt>
      <trkpt lat="42.99618" lon="0.23442">
        <ele>1287.34</ele>
        <time>2022-01-27T10:21:34Z</time>
      </trkpt>
      <trkpt lat="42.99616" lon="0.23449">
        <ele>1287.82</ele>
        <time>2022-01-27T10:21:51Z</time>
      </trkpt>
      <trkpt lat="42.99616" lon="0.23455">
        <ele>1288.3</ele>
        <time>2022-01-27T10:22:01Z</time>
      </trkpt>
      <trkpt lat="42.99613" lon="0.23458">
        <ele>1289.75</ele>
        <time>2022-01-27T10:22:13Z</time>
      </trkpt>
      <trkpt lat="42.9961" lon="0.23461">
        <ele>1291.19</ele>
        <time>2022-01-27T10:22:26Z</time>
      </trkpt>
      <trkpt lat="42.99608" lon="0.23468">
        <ele>1292.63</ele>
        <time>2022-01-27T10:22:42Z</time>
      </trkpt>
      <trkpt lat="42.99602" lon="0.23474">
        <ele>1293.11</ele>
        <time>2022-01-27T10:22:57Z</time>
      </trkpt>
      <trkpt lat="42.99599" lon="0.23484">
        <ele>1295.03</ele>
        <time>2022-01-27T10:23:12Z</time>
      </trkpt>
      <trkpt lat="42.99597" lon="0.23488">
        <ele>1295.99</ele>
        <time>2022-01-27T10:23:26Z</time>
      </trkpt>
      <trkpt lat="42.99592" lon="0.23496">
        <ele>1298.4</ele>
        <time>2022-01-27T10:23:44Z</time>
      </trkpt>
      <trkpt lat="42.99589" lon="0.23503">
        <ele>1299.36</ele>
        <time>2022-01-27T10:23:58Z</time>
      </trkpt>
      <trkpt lat="42.99587" lon="0.23511">
        <ele>1299.84</ele>
        <time>2022-01-27T10:24:11Z</time>
      </trkpt>
      <trkpt lat="42.99584" lon="0.23517">
        <ele>1301.76</ele>
        <time>2022-01-27T10:24:23Z</time>
      </trkpt>
      <trkpt lat="42.99582" lon="0.23521">
        <ele>1302.72</ele>
        <time>2022-01-27T10:24:40Z</time>
      </trkpt>
      <trkpt lat="42.99583" lon="0.23522">
        <ele>1302.72</ele>
        <time>2022-01-27T10:25:00Z</time>
      </trkpt>
      <trkpt lat="42.99578" lon="0.23529">
        <ele>1304.17</ele>
        <time>2022-01-27T10:25:19Z</time>
      </trkpt>
      <trkpt lat="42.99575" lon="0.23535">
        <ele>1305.61</ele>
        <time>2022-01-27T10:25:32Z</time>
      </trkpt>
      <trkpt lat="42.99572" lon="0.23542">
        <ele>1307.53</ele>
        <time>2022-01-27T10:25:46Z</time>
      </trkpt>
      <trkpt lat="42.9957" lon="0.23545">
        <ele>1308.01</ele>
        <time>2022-01-27T10:25:58Z</time>
      </trkpt>
      <trkpt lat="42.99566" lon="0.23551">
        <ele>1309.45</ele>
        <time>2022-01-27T10:26:12Z</time>
      </trkpt>
      <trkpt lat="42.99565" lon="0.23554">
        <ele>1310.41</ele>
        <time>2022-01-27T10:26:24Z</time>
      </trkpt>
      <trkpt lat="42.99559" lon="0.23563">
        <ele>1312.34</ele>
        <time>2022-01-27T10:26:39Z</time>
      </trkpt>
      <trkpt lat="42.99558" lon="0.2357">
        <ele>1313.3</ele>
        <time>2022-01-27T10:26:56Z</time>
      </trkpt>
      <trkpt lat="42.99554" lon="0.23578">
        <ele>1314.74</ele>
        <time>2022-01-27T10:27:10Z</time>
      </trkpt>
      <trkpt lat="42.99552" lon="0.23585">
        <ele>1315.7</ele>
        <time>2022-01-27T10:27:23Z</time>
      </trkpt>
      <trkpt lat="42.99551" lon="0.23589">
        <ele>1317.62</ele>
        <time>2022-01-27T10:27:36Z</time>
      </trkpt>
      <trkpt lat="42.9955" lon="0.23592">
        <ele>1318.1</ele>
        <time>2022-01-27T10:27:48Z</time>
      </trkpt>
      <trkpt lat="42.99549" lon="0.23597">
        <ele>1319.55</ele>
        <time>2022-01-27T10:28:02Z</time>
      </trkpt>
      <trkpt lat="42.99547" lon="0.23603">
        <ele>1320.99</ele>
        <time>2022-01-27T10:28:15Z</time>
      </trkpt>
      <trkpt lat="42.99546" lon="0.23613">
        <ele>1321.95</ele>
        <time>2022-01-27T10:28:29Z</time>
      </trkpt>
      <trkpt lat="42.99546" lon="0.23629">
        <ele>1323.87</ele>
        <time>2022-01-27T10:28:46Z</time>
      </trkpt>
      <trkpt lat="42.99548" lon="0.2364">
        <ele>1325.8</ele>
        <time>2022-01-27T10:29:01Z</time>
      </trkpt>
      <trkpt lat="42.99546" lon="0.23648">
        <ele>1326.28</ele>
        <time>2022-01-27T10:29:12Z</time>
      </trkpt>
      <trkpt lat="42.99544" lon="0.23651">
        <ele>1326.76</ele>
        <time>2022-01-27T10:29:23Z</time>
      </trkpt>
      <trkpt lat="42.99545" lon="0.23646">
        <ele>1326.76</ele>
        <time>2022-01-27T10:29:35Z</time>
      </trkpt>
      <trkpt lat="42.99546" lon="0.23644">
        <ele>1325.8</ele>
        <time>2022-01-27T10:29:51Z</time>
      </trkpt>
      <trkpt lat="42.99547" lon="0.23645">
        <ele>1326.28</ele>
        <time>2022-01-27T10:30:11Z</time>
      </trkpt>
      <trkpt lat="42.99546" lon="0.23645">
        <ele>1326.76</ele>
        <time>2022-01-27T10:30:26Z</time>
      </trkpt>
      <trkpt lat="42.99547" lon="0.23645">
        <ele>1326.28</ele>
        <time>2022-01-27T10:30:54Z</time>
      </trkpt>
      <trkpt lat="42.99547" lon="0.23643">
        <ele>1326.28</ele>
        <time>2022-01-27T10:31:11Z</time>
      </trkpt>
      <trkpt lat="42.99547" lon="0.23643">
        <ele>1326.28</ele>
        <time>2022-01-27T10:31:28Z</time>
      </trkpt>
      <trkpt lat="42.99547" lon="0.23646">
        <ele>1327.72</ele>
        <time>2022-01-27T10:31:49Z</time>
      </trkpt>
      <trkpt lat="42.99547" lon="0.23644">
        <ele>1327.24</ele>
        <time>2022-01-27T10:32:08Z</time>
      </trkpt>
      <trkpt lat="42.99547" lon="0.23645">
        <ele>1326.28</ele>
        <time>2022-01-27T10:32:21Z</time>
      </trkpt>
      <trkpt lat="42.99548" lon="0.23646">
        <ele>1326.76</ele>
        <time>2022-01-27T10:32:50Z</time>
      </trkpt>
      <trkpt lat="42.99548" lon="0.23647">
        <ele>1325.31</ele>
        <time>2022-01-27T10:33:28Z</time>
      </trkpt>
      <trkpt lat="42.99549" lon="0.23648">
        <ele>1326.28</ele>
        <time>2022-01-27T10:34:01Z</time>
      </trkpt>
      <trkpt lat="42.99548" lon="0.23647">
        <ele>1325.8</ele>
        <time>2022-01-27T10:34:35Z</time>
      </trkpt>
      <trkpt lat="42.99549" lon="0.23647">
        <ele>1325.8</ele>
        <time>2022-01-27T10:35:05Z</time>
      </trkpt>
      <trkpt lat="42.99548" lon="0.23647">
        <ele>1325.8</ele>
        <time>2022-01-27T10:35:48Z</time>
      </trkpt>
      <trkpt lat="42.99548" lon="0.23646">
        <ele>1325.8</ele>
        <time>2022-01-27T10:36:24Z</time>
      </trkpt>
      <trkpt lat="42.99546" lon="0.23645">
        <ele>1325.8</ele>
        <time>2022-01-27T10:37:06Z</time>
      </trkpt>
      <trkpt lat="42.99548" lon="0.23645">
        <ele>1326.28</ele>
        <time>2022-01-27T10:37:38Z</time>
      </trkpt>
      <trkpt lat="42.99547" lon="0.23645">
        <ele>1325.8</ele>
        <time>2022-01-27T10:38:13Z</time>
      </trkpt>
      <trkpt lat="42.99547" lon="0.23645">
        <ele>1325.31</ele>
        <time>2022-01-27T10:38:50Z</time>
      </trkpt>
      <trkpt lat="42.99547" lon="0.23644">
        <ele>1325.8</ele>
        <time>2022-01-27T10:39:18Z</time>
      </trkpt>
      <trkpt lat="42.99547" lon="0.23644">
        <ele>1327.72</ele>
        <time>2022-01-27T10:39:28Z</time>
      </trkpt>
      <trkpt lat="42.99546" lon="0.23644">
        <ele>1325.31</ele>
        <time>2022-01-27T10:39:36Z</time>
      </trkpt>
      <trkpt lat="42.99546" lon="0.23644">
        <ele>1326.76</ele>
        <time>2022-01-27T10:39:38Z</time>
      </trkpt>
      <trkpt lat="42.99546" lon="0.23647">
        <ele>1326.76</ele>
        <time>2022-01-27T10:39:59Z</time>
      </trkpt>
      <trkpt lat="42.99547" lon="0.23646">
        <ele>1326.28</ele>
        <time>2022-01-27T10:40:18Z</time>
      </trkpt>
      <trkpt lat="42.99547" lon="0.23643">
        <ele>1327.24</ele>
        <time>2022-01-27T10:40:36Z</time>
      </trkpt>
      <trkpt lat="42.99554" lon="0.23644">
        <ele>1328.2</ele>
        <time>2022-01-27T10:40:51Z</time>
      </trkpt>
      <trkpt lat="42.99558" lon="0.23653">
        <ele>1330.6</ele>
        <time>2022-01-27T10:41:05Z</time>
      </trkpt>
      <trkpt lat="42.99567" lon="0.23656">
        <ele>1331.56</ele>
        <time>2022-01-27T10:41:19Z</time>
      </trkpt>
      <trkpt lat="42.99567" lon="0.23667">
        <ele>1333.01</ele>
        <time>2022-01-27T10:41:31Z</time>
      </trkpt>
      <trkpt lat="42.99569" lon="0.23676">
        <ele>1334.93</ele>
        <time>2022-01-27T10:41:44Z</time>
      </trkpt>
      <trkpt lat="42.99568" lon="0.23687">
        <ele>1336.37</ele>
        <time>2022-01-27T10:41:59Z</time>
      </trkpt>
      <trkpt lat="42.99568" lon="0.23696">
        <ele>1338.29</ele>
        <time>2022-01-27T10:42:13Z</time>
      </trkpt>
      <trkpt lat="42.9957" lon="0.23705">
        <ele>1339.25</ele>
        <time>2022-01-27T10:42:27Z</time>
      </trkpt>
      <trkpt lat="42.99572" lon="0.23715">
        <ele>1341.66</ele>
        <time>2022-01-27T10:42:42Z</time>
      </trkpt>
      <trkpt lat="42.99573" lon="0.23719">
        <ele>1341.66</ele>
        <time>2022-01-27T10:42:57Z</time>
      </trkpt>
      <trkpt lat="42.99574" lon="0.23721">
        <ele>1342.62</ele>
        <time>2022-01-27T10:43:11Z</time>
      </trkpt>
      <trkpt lat="42.99578" lon="0.23731">
        <ele>1345.02</ele>
        <time>2022-01-27T10:43:29Z</time>
      </trkpt>
      <trkpt lat="42.99583" lon="0.23739">
        <ele>1346.94</ele>
        <time>2022-01-27T10:43:45Z</time>
      </trkpt>
      <trkpt lat="42.99588" lon="0.23746">
        <ele>1348.87</ele>
        <time>2022-01-27T10:43:59Z</time>
      </trkpt>
      <trkpt lat="42.99592" lon="0.23757">
        <ele>1349.35</ele>
        <time>2022-01-27T10:44:14Z</time>
      </trkpt>
      <trkpt lat="42.99593" lon="0.23771">
        <ele>1350.31</ele>
        <time>2022-01-27T10:44:30Z</time>
      </trkpt>
      <trkpt lat="42.99593" lon="0.23771">
        <ele>1350.31</ele>
        <time>2022-01-27T10:44:45Z</time>
      </trkpt>
      <trkpt lat="42.99594" lon="0.23775">
        <ele>1350.79</ele>
        <time>2022-01-27T10:44:59Z</time>
      </trkpt>
      <trkpt lat="42.99596" lon="0.23784">
        <ele>1350.31</ele>
        <time>2022-01-27T10:45:10Z</time>
      </trkpt>
      <trkpt lat="42.99601" lon="0.23798">
        <ele>1349.83</ele>
        <time>2022-01-27T10:45:25Z</time>
      </trkpt>
      <trkpt lat="42.99607" lon="0.23811">
        <ele>1350.79</ele>
        <time>2022-01-27T10:45:39Z</time>
      </trkpt>
      <trkpt lat="42.99608" lon="0.23819">
        <ele>1350.31</ele>
        <time>2022-01-27T10:45:52Z</time>
      </trkpt>
      <trkpt lat="42.99609" lon="0.23821">
        <ele>1351.27</ele>
        <time>2022-01-27T10:46:22Z</time>
      </trkpt>
      <trkpt lat="42.9961" lon="0.23823">
        <ele>1350.79</ele>
        <time>2022-01-27T10:46:37Z</time>
      </trkpt>
      <trkpt lat="42.99614" lon="0.23844">
        <ele>1351.27</ele>
        <time>2022-01-27T10:46:54Z</time>
      </trkpt>
      <trkpt lat="42.99618" lon="0.23864">
        <ele>1352.23</ele>
        <time>2022-01-27T10:47:11Z</time>
      </trkpt>
      <trkpt lat="42.99621" lon="0.23882">
        <ele>1353.67</ele>
        <time>2022-01-27T10:47:26Z</time>
      </trkpt>
      <trkpt lat="42.99622" lon="0.23902">
        <ele>1354.63</ele>
        <time>2022-01-27T10:47:41Z</time>
      </trkpt>
      <trkpt lat="42.99623" lon="0.23921">
        <ele>1355.12</ele>
        <time>2022-01-27T10:47:56Z</time>
      </trkpt>
      <trkpt lat="42.99626" lon="0.23938">
        <ele>1356.08</ele>
        <time>2022-01-27T10:48:11Z</time>
      </trkpt>
      <trkpt lat="42.99628" lon="0.23948">
        <ele>1357.52</ele>
        <time>2022-01-27T10:48:21Z</time>
      </trkpt>
      <trkpt lat="42.99631" lon="0.23957">
        <ele>1357.04</ele>
        <time>2022-01-27T10:48:29Z</time>
      </trkpt>
      <trkpt lat="42.99633" lon="0.2397">
        <ele>1358</ele>
        <time>2022-01-27T10:48:39Z</time>
      </trkpt>
      <trkpt lat="42.99635" lon="0.23993">
        <ele>1358.48</ele>
        <time>2022-01-27T10:48:57Z</time>
      </trkpt>
      <trkpt lat="42.99635" lon="0.24011">
        <ele>1358.96</ele>
        <time>2022-01-27T10:49:12Z</time>
      </trkpt>
      <trkpt lat="42.99635" lon="0.24026">
        <ele>1359.44</ele>
        <time>2022-01-27T10:49:25Z</time>
      </trkpt>
      <trkpt lat="42.99635" lon="0.24037">
        <ele>1360.4</ele>
        <time>2022-01-27T10:49:34Z</time>
      </trkpt>
      <trkpt lat="42.99635" lon="0.24053">
        <ele>1359.92</ele>
        <time>2022-01-27T10:49:48Z</time>
      </trkpt>
      <trkpt lat="42.99634" lon="0.24069">
        <ele>1359.92</ele>
        <time>2022-01-27T10:50:02Z</time>
      </trkpt>
      <trkpt lat="42.99637" lon="0.24087">
        <ele>1361.36</ele>
        <time>2022-01-27T10:50:19Z</time>
      </trkpt>
      <trkpt lat="42.99637" lon="0.24094">
        <ele>1362.81</ele>
        <time>2022-01-27T10:50:26Z</time>
      </trkpt>
      <trkpt lat="42.99637" lon="0.24109">
        <ele>1362.33</ele>
        <time>2022-01-27T10:50:40Z</time>
      </trkpt>
      <trkpt lat="42.99638" lon="0.24119">
        <ele>1363.77</ele>
        <time>2022-01-27T10:50:50Z</time>
      </trkpt>
      <trkpt lat="42.99638" lon="0.24131">
        <ele>1363.29</ele>
        <time>2022-01-27T10:51:04Z</time>
      </trkpt>
      <trkpt lat="42.99638" lon="0.24142">
        <ele>1363.29</ele>
        <time>2022-01-27T10:51:19Z</time>
      </trkpt>
      <trkpt lat="42.99638" lon="0.24155">
        <ele>1364.25</ele>
        <time>2022-01-27T10:51:33Z</time>
      </trkpt>
      <trkpt lat="42.99638" lon="0.24166">
        <ele>1365.69</ele>
        <time>2022-01-27T10:51:46Z</time>
      </trkpt>
      <trkpt lat="42.99638" lon="0.24178">
        <ele>1365.69</ele>
        <time>2022-01-27T10:52:00Z</time>
      </trkpt>
      <trkpt lat="42.99637" lon="0.24188">
        <ele>1365.21</ele>
        <time>2022-01-27T10:52:14Z</time>
      </trkpt>
      <trkpt lat="42.99637" lon="0.24197">
        <ele>1365.21</ele>
        <time>2022-01-27T10:52:26Z</time>
      </trkpt>
      <trkpt lat="42.99636" lon="0.24211">
        <ele>1365.69</ele>
        <time>2022-01-27T10:52:41Z</time>
      </trkpt>
      <trkpt lat="42.99636" lon="0.24224">
        <ele>1366.17</ele>
        <time>2022-01-27T10:52:54Z</time>
      </trkpt>
      <trkpt lat="42.99637" lon="0.24235">
        <ele>1366.65</ele>
        <time>2022-01-27T10:53:07Z</time>
      </trkpt>
      <trkpt lat="42.99635" lon="0.24246">
        <ele>1367.13</ele>
        <time>2022-01-27T10:53:20Z</time>
      </trkpt>
      <trkpt lat="42.99635" lon="0.2425">
        <ele>1367.13</ele>
        <time>2022-01-27T10:53:25Z</time>
      </trkpt>
      <trkpt lat="42.99635" lon="0.24261">
        <ele>1368.09</ele>
        <time>2022-01-27T10:53:37Z</time>
      </trkpt>
      <trkpt lat="42.99635" lon="0.2427">
        <ele>1369.05</ele>
        <time>2022-01-27T10:53:51Z</time>
      </trkpt>
      <trkpt lat="42.99637" lon="0.24283">
        <ele>1370.02</ele>
        <time>2022-01-27T10:54:06Z</time>
      </trkpt>
      <trkpt lat="42.99641" lon="0.24296">
        <ele>1371.46</ele>
        <time>2022-01-27T10:54:22Z</time>
      </trkpt>
      <trkpt lat="42.99645" lon="0.24303">
        <ele>1371.94</ele>
        <time>2022-01-27T10:54:32Z</time>
      </trkpt>
      <trkpt lat="42.99654" lon="0.24311">
        <ele>1373.86</ele>
        <time>2022-01-27T10:54:46Z</time>
      </trkpt>
      <trkpt lat="42.99661" lon="0.24317">
        <ele>1375.3</ele>
        <time>2022-01-27T10:54:58Z</time>
      </trkpt>
      <trkpt lat="42.99661" lon="0.24318">
        <ele>1375.3</ele>
        <time>2022-01-27T10:54:59Z</time>
      </trkpt>
      <trkpt lat="42.99671" lon="0.2432">
        <ele>1375.78</ele>
        <time>2022-01-27T10:55:13Z</time>
      </trkpt>
      <trkpt lat="42.99674" lon="0.2432">
        <ele>1376.26</ele>
        <time>2022-01-27T10:55:18Z</time>
      </trkpt>
      <trkpt lat="42.99684" lon="0.24317">
        <ele>1377.23</ele>
        <time>2022-01-27T10:55:31Z</time>
      </trkpt>
      <trkpt lat="42.99692" lon="0.24313">
        <ele>1378.67</ele>
        <time>2022-01-27T10:55:44Z</time>
      </trkpt>
      <trkpt lat="42.99696" lon="0.24315">
        <ele>1378.19</ele>
        <time>2022-01-27T10:55:57Z</time>
      </trkpt>
      <trkpt lat="42.99694" lon="0.24313">
        <ele>1378.19</ele>
        <time>2022-01-27T10:56:25Z</time>
      </trkpt>
      <trkpt lat="42.99695" lon="0.24312">
        <ele>1378.67</ele>
        <time>2022-01-27T10:56:50Z</time>
      </trkpt>
      <trkpt lat="42.99697" lon="0.24314">
        <ele>1378.67</ele>
        <time>2022-01-27T10:57:23Z</time>
      </trkpt>
      <trkpt lat="42.99696" lon="0.2431">
        <ele>1378.67</ele>
        <time>2022-01-27T10:57:34Z</time>
      </trkpt>
      <trkpt lat="42.99697" lon="0.24306">
        <ele>1378.19</ele>
        <time>2022-01-27T10:57:37Z</time>
      </trkpt>
      <trkpt lat="42.99697" lon="0.24301">
        <ele>1378.19</ele>
        <time>2022-01-27T10:57:41Z</time>
      </trkpt>
      <trkpt lat="42.997" lon="0.24295">
        <ele>1378.67</ele>
        <time>2022-01-27T10:57:58Z</time>
      </trkpt>
      <trkpt lat="42.99702" lon="0.2429">
        <ele>1378.19</ele>
        <time>2022-01-27T10:58:06Z</time>
      </trkpt>
      <trkpt lat="42.99706" lon="0.24288">
        <ele>1377.71</ele>
        <time>2022-01-27T10:58:24Z</time>
      </trkpt>
      <trkpt lat="42.99706" lon="0.24287">
        <ele>1378.67</ele>
        <time>2022-01-27T10:58:42Z</time>
      </trkpt>
      <trkpt lat="42.99705" lon="0.24287">
        <ele>1378.19</ele>
        <time>2022-01-27T10:59:03Z</time>
      </trkpt>
      <trkpt lat="42.99706" lon="0.24284">
        <ele>1377.71</ele>
        <time>2022-01-27T10:59:08Z</time>
      </trkpt>
      <trkpt lat="42.99703" lon="0.24279">
        <ele>1379.15</ele>
        <time>2022-01-27T10:59:21Z</time>
      </trkpt>
      <trkpt lat="42.99704" lon="0.24285">
        <ele>1377.23</ele>
        <time>2022-01-27T10:59:33Z</time>
      </trkpt>
      <trkpt lat="42.99705" lon="0.24284">
        <ele>1378.19</ele>
        <time>2022-01-27T10:59:49Z</time>
      </trkpt>
      <trkpt lat="42.99704" lon="0.24283">
        <ele>1377.23</ele>
        <time>2022-01-27T11:00:10Z</time>
      </trkpt>
      <trkpt lat="42.99703" lon="0.24282">
        <ele>1377.71</ele>
        <time>2022-01-27T11:00:31Z</time>
      </trkpt>
      <trkpt lat="42.99704" lon="0.24279">
        <ele>1378.19</ele>
        <time>2022-01-27T11:00:46Z</time>
      </trkpt>
      <trkpt lat="42.99704" lon="0.24278">
        <ele>1378.67</ele>
        <time>2022-01-27T11:00:47Z</time>
      </trkpt>
      <trkpt lat="42.99706" lon="0.24269">
        <ele>1378.67</ele>
        <time>2022-01-27T11:01:04Z</time>
      </trkpt>
      <trkpt lat="42.99709" lon="0.24254">
        <ele>1378.67</ele>
        <time>2022-01-27T11:01:18Z</time>
      </trkpt>
      <trkpt lat="42.99711" lon="0.2424">
        <ele>1379.15</ele>
        <time>2022-01-27T11:01:33Z</time>
      </trkpt>
      <trkpt lat="42.99711" lon="0.24242">
        <ele>1379.15</ele>
        <time>2022-01-27T11:01:45Z</time>
      </trkpt>
      <trkpt lat="42.99712" lon="0.24242">
        <ele>1379.15</ele>
        <time>2022-01-27T11:02:04Z</time>
      </trkpt>
      <trkpt lat="42.99712" lon="0.24239">
        <ele>1378.67</ele>
        <time>2022-01-27T11:02:18Z</time>
      </trkpt>
      <trkpt lat="42.99711" lon="0.2424">
        <ele>1378.67</ele>
        <time>2022-01-27T11:02:33Z</time>
      </trkpt>
      <trkpt lat="42.99712" lon="0.24241">
        <ele>1378.67</ele>
        <time>2022-01-27T11:02:45Z</time>
      </trkpt>
      <trkpt lat="42.99712" lon="0.24239">
        <ele>1378.67</ele>
        <time>2022-01-27T11:02:59Z</time>
      </trkpt>
      <trkpt lat="42.99713" lon="0.24237">
        <ele>1378.67</ele>
        <time>2022-01-27T11:03:13Z</time>
      </trkpt>
      <trkpt lat="42.99712" lon="0.24238">
        <ele>1378.67</ele>
        <time>2022-01-27T11:03:29Z</time>
      </trkpt>
      <trkpt lat="42.99709" lon="0.24237">
        <ele>1379.63</ele>
        <time>2022-01-27T11:03:42Z</time>
      </trkpt>
      <trkpt lat="42.99709" lon="0.24238">
        <ele>1379.63</ele>
        <time>2022-01-27T11:03:43Z</time>
      </trkpt>
      <trkpt lat="42.99711" lon="0.24237">
        <ele>1379.15</ele>
        <time>2022-01-27T11:03:54Z</time>
      </trkpt>
      <trkpt lat="42.99716" lon="0.24234">
        <ele>1378.67</ele>
        <time>2022-01-27T11:04:08Z</time>
      </trkpt>
      <trkpt lat="42.99718" lon="0.24231">
        <ele>1378.67</ele>
        <time>2022-01-27T11:04:22Z</time>
      </trkpt>
      <trkpt lat="42.99717" lon="0.24231">
        <ele>1378.67</ele>
        <time>2022-01-27T11:04:34Z</time>
      </trkpt>
      <trkpt lat="42.99719" lon="0.2423">
        <ele>1378.19</ele>
        <time>2022-01-27T11:04:46Z</time>
      </trkpt>
      <trkpt lat="42.99718" lon="0.24231">
        <ele>1378.19</ele>
        <time>2022-01-27T11:04:59Z</time>
      </trkpt>
      <trkpt lat="42.99724" lon="0.24224">
        <ele>1378.19</ele>
        <time>2022-01-27T11:05:12Z</time>
      </trkpt>
      <trkpt lat="42.99724" lon="0.24225">
        <ele>1378.19</ele>
        <time>2022-01-27T11:05:32Z</time>
      </trkpt>
      <trkpt lat="42.99724" lon="0.24224">
        <ele>1378.67</ele>
        <time>2022-01-27T11:05:50Z</time>
      </trkpt>
      <trkpt lat="42.99725" lon="0.24221">
        <ele>1379.15</ele>
        <time>2022-01-27T11:06:03Z</time>
      </trkpt>
      <trkpt lat="42.99733" lon="0.24212">
        <ele>1379.15</ele>
        <time>2022-01-27T11:06:18Z</time>
      </trkpt>
      <trkpt lat="42.99735" lon="0.24207">
        <ele>1380.11</ele>
        <time>2022-01-27T11:06:32Z</time>
      </trkpt>
      <trkpt lat="42.99741" lon="0.24203">
        <ele>1381.07</ele>
        <time>2022-01-27T11:06:45Z</time>
      </trkpt>
      <trkpt lat="42.99749" lon="0.24204">
        <ele>1382.51</ele>
        <time>2022-01-27T11:06:59Z</time>
      </trkpt>
      <trkpt lat="42.99753" lon="0.242">
        <ele>1383.96</ele>
        <time>2022-01-27T11:07:11Z</time>
      </trkpt>
      <trkpt lat="42.9976" lon="0.24202">
        <ele>1385.4</ele>
        <time>2022-01-27T11:07:23Z</time>
      </trkpt>
      <trkpt lat="42.99766" lon="0.24201">
        <ele>1388.28</ele>
        <time>2022-01-27T11:07:37Z</time>
      </trkpt>
      <trkpt lat="42.99767" lon="0.24201">
        <ele>1388.28</ele>
        <time>2022-01-27T11:07:38Z</time>
      </trkpt>
      <trkpt lat="42.99769" lon="0.24199">
        <ele>1389.24</ele>
        <time>2022-01-27T11:07:52Z</time>
      </trkpt>
      <trkpt lat="42.99775" lon="0.24198">
        <ele>1390.68</ele>
        <time>2022-01-27T11:08:09Z</time>
      </trkpt>
      <trkpt lat="42.9978" lon="0.24196">
        <ele>1392.13</ele>
        <time>2022-01-27T11:08:21Z</time>
      </trkpt>
      <trkpt lat="42.99785" lon="0.24194">
        <ele>1394.05</ele>
        <time>2022-01-27T11:08:32Z</time>
      </trkpt>
      <trkpt lat="42.99789" lon="0.24196">
        <ele>1395.01</ele>
        <time>2022-01-27T11:08:46Z</time>
      </trkpt>
      <trkpt lat="42.99788" lon="0.24191">
        <ele>1396.45</ele>
        <time>2022-01-27T11:08:57Z</time>
      </trkpt>
      <trkpt lat="42.9979" lon="0.24186">
        <ele>1397.41</ele>
        <time>2022-01-27T11:09:11Z</time>
      </trkpt>
      <trkpt lat="42.99792" lon="0.2418">
        <ele>1399.34</ele>
        <time>2022-01-27T11:09:25Z</time>
      </trkpt>
      <trkpt lat="42.99793" lon="0.24175">
        <ele>1401.74</ele>
        <time>2022-01-27T11:09:38Z</time>
      </trkpt>
      <trkpt lat="42.99797" lon="0.24169">
        <ele>1403.66</ele>
        <time>2022-01-27T11:09:53Z</time>
      </trkpt>
      <trkpt lat="42.99798" lon="0.24166">
        <ele>1404.14</ele>
        <time>2022-01-27T11:10:08Z</time>
      </trkpt>
      <trkpt lat="42.99795" lon="0.24167">
        <ele>1404.62</ele>
        <time>2022-01-27T11:10:28Z</time>
      </trkpt>
      <trkpt lat="42.99796" lon="0.24161">
        <ele>1405.58</ele>
        <time>2022-01-27T11:10:51Z</time>
      </trkpt>
      <trkpt lat="42.99798" lon="0.2415">
        <ele>1406.55</ele>
        <time>2022-01-27T11:11:06Z</time>
      </trkpt>
      <trkpt lat="42.998" lon="0.24142">
        <ele>1408.47</ele>
        <time>2022-01-27T11:11:20Z</time>
      </trkpt>
      <trkpt lat="42.99803" lon="0.24131">
        <ele>1409.43</ele>
        <time>2022-01-27T11:11:35Z</time>
      </trkpt>
      <trkpt lat="42.99805" lon="0.2412">
        <ele>1411.35</ele>
        <time>2022-01-27T11:11:50Z</time>
      </trkpt>
      <trkpt lat="42.9981" lon="0.24112">
        <ele>1410.87</ele>
        <time>2022-01-27T11:12:03Z</time>
      </trkpt>
      <trkpt lat="42.9981" lon="0.24113">
        <ele>1412.79</ele>
        <time>2022-01-27T11:12:05Z</time>
      </trkpt>
      <trkpt lat="42.99811" lon="0.24112">
        <ele>1411.35</ele>
        <time>2022-01-27T11:12:07Z</time>
      </trkpt>
      <trkpt lat="42.99813" lon="0.24102">
        <ele>1412.79</ele>
        <time>2022-01-27T11:12:21Z</time>
      </trkpt>
      <trkpt lat="42.99812" lon="0.24104">
        <ele>1412.31</ele>
        <time>2022-01-27T11:12:46Z</time>
      </trkpt>
      <trkpt lat="42.99812" lon="0.24101">
        <ele>1412.31</ele>
        <time>2022-01-27T11:13:19Z</time>
      </trkpt>
      <trkpt lat="42.99814" lon="0.24103">
        <ele>1411.83</ele>
        <time>2022-01-27T11:13:36Z</time>
      </trkpt>
      <trkpt lat="42.99812" lon="0.24104">
        <ele>1411.83</ele>
        <time>2022-01-27T11:14:08Z</time>
      </trkpt>
      <trkpt lat="42.99814" lon="0.24106">
        <ele>1411.35</ele>
        <time>2022-01-27T11:14:30Z</time>
      </trkpt>
      <trkpt lat="42.99823" lon="0.24106">
        <ele>1410.39</ele>
        <time>2022-01-27T11:14:45Z</time>
      </trkpt>
      <trkpt lat="42.99833" lon="0.24099">
        <ele>1407.99</ele>
        <time>2022-01-27T11:15:00Z</time>
      </trkpt>
      <trkpt lat="42.9984" lon="0.24092">
        <ele>1407.03</ele>
        <time>2022-01-27T11:15:13Z</time>
      </trkpt>
      <trkpt lat="42.99844" lon="0.24088">
        <ele>1405.58</ele>
        <time>2022-01-27T11:15:27Z</time>
      </trkpt>
      <trkpt lat="42.99848" lon="0.24087">
        <ele>1406.07</ele>
        <time>2022-01-27T11:15:39Z</time>
      </trkpt>
      <trkpt lat="42.99853" lon="0.24083">
        <ele>1406.07</ele>
        <time>2022-01-27T11:15:56Z</time>
      </trkpt>
      <trkpt lat="42.99862" lon="0.24082">
        <ele>1407.51</ele>
        <time>2022-01-27T11:16:11Z</time>
      </trkpt>
      <trkpt lat="42.99869" lon="0.2408">
        <ele>1407.99</ele>
        <time>2022-01-27T11:16:24Z</time>
      </trkpt>
      <trkpt lat="42.99876" lon="0.24076">
        <ele>1409.43</ele>
        <time>2022-01-27T11:16:35Z</time>
      </trkpt>
      <trkpt lat="42.99875" lon="0.2407">
        <ele>1409.91</ele>
        <time>2022-01-27T11:16:48Z</time>
      </trkpt>
      <trkpt lat="42.99876" lon="0.24068">
        <ele>1411.83</ele>
        <time>2022-01-27T11:16:57Z</time>
      </trkpt>
      <trkpt lat="42.99877" lon="0.24065">
        <ele>1412.31</ele>
        <time>2022-01-27T11:17:12Z</time>
      </trkpt>
      <trkpt lat="42.99878" lon="0.2406">
        <ele>1414.72</ele>
        <time>2022-01-27T11:17:24Z</time>
      </trkpt>
      <trkpt lat="42.9988" lon="0.24051">
        <ele>1416.64</ele>
        <time>2022-01-27T11:17:38Z</time>
      </trkpt>
      <trkpt lat="42.99881" lon="0.2404">
        <ele>1417.12</ele>
        <time>2022-01-27T11:17:52Z</time>
      </trkpt>
      <trkpt lat="42.99884" lon="0.24031">
        <ele>1418.08</ele>
        <time>2022-01-27T11:18:06Z</time>
      </trkpt>
      <trkpt lat="42.99887" lon="0.24024">
        <ele>1418.08</ele>
        <time>2022-01-27T11:18:19Z</time>
      </trkpt>
      <trkpt lat="42.99889" lon="0.24013">
        <ele>1417.6</ele>
        <time>2022-01-27T11:18:31Z</time>
      </trkpt>
      <trkpt lat="42.99893" lon="0.24005">
        <ele>1417.12</ele>
        <time>2022-01-27T11:18:45Z</time>
      </trkpt>
      <trkpt lat="42.99896" lon="0.23997">
        <ele>1415.68</ele>
        <time>2022-01-27T11:18:57Z</time>
      </trkpt>
      <trkpt lat="42.99897" lon="0.23991">
        <ele>1416.16</ele>
        <time>2022-01-27T11:19:08Z</time>
      </trkpt>
      <trkpt lat="42.99903" lon="0.23983">
        <ele>1416.64</ele>
        <time>2022-01-27T11:19:19Z</time>
      </trkpt>
      <trkpt lat="42.99911" lon="0.23974">
        <ele>1415.68</ele>
        <time>2022-01-27T11:19:33Z</time>
      </trkpt>
      <trkpt lat="42.99913" lon="0.23969">
        <ele>1415.68</ele>
        <time>2022-01-27T11:19:38Z</time>
      </trkpt>
      <trkpt lat="42.99919" lon="0.2396">
        <ele>1414.72</ele>
        <time>2022-01-27T11:19:50Z</time>
      </trkpt>
      <trkpt lat="42.9992" lon="0.23954">
        <ele>1414.24</ele>
        <time>2022-01-27T11:20:01Z</time>
      </trkpt>
      <trkpt lat="42.99921" lon="0.23951">
        <ele>1414.72</ele>
        <time>2022-01-27T11:20:21Z</time>
      </trkpt>
      <trkpt lat="42.99925" lon="0.23942">
        <ele>1413.76</ele>
        <time>2022-01-27T11:20:36Z</time>
      </trkpt>
      <trkpt lat="42.99932" lon="0.23938">
        <ele>1411.35</ele>
        <time>2022-01-27T11:20:47Z</time>
      </trkpt>
      <trkpt lat="42.99942" lon="0.23932">
        <ele>1408.95</ele>
        <time>2022-01-27T11:21:03Z</time>
      </trkpt>
      <trkpt lat="42.99947" lon="0.23928">
        <ele>1407.03</ele>
        <time>2022-01-27T11:21:18Z</time>
      </trkpt>
      <trkpt lat="42.99949" lon="0.23933">
        <ele>1407.03</ele>
        <time>2022-01-27T11:21:33Z</time>
      </trkpt>
      <trkpt lat="42.99951" lon="0.23935">
        <ele>1406.55</ele>
        <time>2022-01-27T11:21:46Z</time>
      </trkpt>
      <trkpt lat="42.99951" lon="0.23936">
        <ele>1407.51</ele>
        <time>2022-01-27T11:22:05Z</time>
      </trkpt>
      <trkpt lat="42.99953" lon="0.23932">
        <ele>1406.55</ele>
        <time>2022-01-27T11:22:17Z</time>
      </trkpt>
      <trkpt lat="42.99957" lon="0.23927">
        <ele>1406.07</ele>
        <time>2022-01-27T11:22:29Z</time>
      </trkpt>
      <trkpt lat="42.99961" lon="0.2392">
        <ele>1404.14</ele>
        <time>2022-01-27T11:22:43Z</time>
      </trkpt>
      <trkpt lat="42.99969" lon="0.23911">
        <ele>1401.74</ele>
        <time>2022-01-27T11:22:57Z</time>
      </trkpt>
      <trkpt lat="42.99971" lon="0.23909">
        <ele>1400.78</ele>
        <time>2022-01-27T11:23:00Z</time>
      </trkpt>
      <trkpt lat="42.99976" lon="0.23905">
        <ele>1400.3</ele>
        <time>2022-01-27T11:23:17Z</time>
      </trkpt>
      <trkpt lat="42.99976" lon="0.23906">
        <ele>1400.3</ele>
        <time>2022-01-27T11:23:28Z</time>
      </trkpt>
      <trkpt lat="42.99978" lon="0.23903">
        <ele>1399.82</ele>
        <time>2022-01-27T11:23:37Z</time>
      </trkpt>
      <trkpt lat="42.99977" lon="0.23902">
        <ele>1400.3</ele>
        <time>2022-01-27T11:23:51Z</time>
      </trkpt>
      <trkpt lat="42.99983" lon="0.23897">
        <ele>1398.86</ele>
        <time>2022-01-27T11:24:09Z</time>
      </trkpt>
      <trkpt lat="42.99997" lon="0.23886">
        <ele>1395.97</ele>
        <time>2022-01-27T11:24:26Z</time>
      </trkpt>
      <trkpt lat="43.00009" lon="0.23876">
        <ele>1394.05</ele>
        <time>2022-01-27T11:24:38Z</time>
      </trkpt>
      <trkpt lat="43.00006" lon="0.23879">
        <ele>1394.53</ele>
        <time>2022-01-27T11:24:46Z</time>
      </trkpt>
      <trkpt lat="43.00004" lon="0.23884">
        <ele>1395.49</ele>
        <time>2022-01-27T11:25:02Z</time>
      </trkpt>
      <trkpt lat="43.00005" lon="0.23884">
        <ele>1395.49</ele>
        <time>2022-01-27T11:25:21Z</time>
      </trkpt>
      <trkpt lat="43.0001" lon="0.2388">
        <ele>1394.05</ele>
        <time>2022-01-27T11:25:30Z</time>
      </trkpt>
      <trkpt lat="43.00022" lon="0.23873">
        <ele>1392.61</ele>
        <time>2022-01-27T11:25:45Z</time>
      </trkpt>
      <trkpt lat="43.00034" lon="0.23865">
        <ele>1392.61</ele>
        <time>2022-01-27T11:25:57Z</time>
      </trkpt>
      <trkpt lat="43.00035" lon="0.23863">
        <ele>1392.61</ele>
        <time>2022-01-27T11:25:59Z</time>
      </trkpt>
      <trkpt lat="43.00046" lon="0.23857">
        <ele>1395.97</ele>
        <time>2022-01-27T11:26:13Z</time>
      </trkpt>
      <trkpt lat="43.00048" lon="0.23852">
        <ele>1397.41</ele>
        <time>2022-01-27T11:26:26Z</time>
      </trkpt>
      <trkpt lat="43.00049" lon="0.23852">
        <ele>1397.41</ele>
        <time>2022-01-27T11:26:37Z</time>
      </trkpt>
      <trkpt lat="43.00052" lon="0.2385">
        <ele>1396.93</ele>
        <time>2022-01-27T11:26:52Z</time>
      </trkpt>
      <trkpt lat="43.00057" lon="0.23843">
        <ele>1396.45</ele>
        <time>2022-01-27T11:27:01Z</time>
      </trkpt>
      <trkpt lat="43.00058" lon="0.23841">
        <ele>1396.93</ele>
        <time>2022-01-27T11:27:20Z</time>
      </trkpt>
      <trkpt lat="43.00056" lon="0.2384">
        <ele>1396.93</ele>
        <time>2022-01-27T11:27:35Z</time>
      </trkpt>
      <trkpt lat="43.00056" lon="0.23843">
        <ele>1397.41</ele>
        <time>2022-01-27T11:27:58Z</time>
      </trkpt>
      <trkpt lat="43.00058" lon="0.23841">
        <ele>1397.41</ele>
        <time>2022-01-27T11:28:27Z</time>
      </trkpt>
      <trkpt lat="43.00057" lon="0.23843">
        <ele>1396.93</ele>
        <time>2022-01-27T11:28:30Z</time>
      </trkpt>
      <trkpt lat="43.00051" lon="0.23847">
        <ele>1397.41</ele>
        <time>2022-01-27T11:28:37Z</time>
      </trkpt>
      <trkpt lat="43.00046" lon="0.23861">
        <ele>1396.45</ele>
        <time>2022-01-27T11:28:50Z</time>
      </trkpt>
      <trkpt lat="43.00047" lon="0.23858">
        <ele>1396.93</ele>
        <time>2022-01-27T11:29:03Z</time>
      </trkpt>
      <trkpt lat="43.00046" lon="0.23858">
        <ele>1395.97</ele>
        <time>2022-01-27T11:29:19Z</time>
      </trkpt>
      <trkpt lat="43.00046" lon="0.23858">
        <ele>1392.61</ele>
        <time>2022-01-27T11:29:31Z</time>
      </trkpt>
      <trkpt lat="43.00046" lon="0.23858">
        <ele>1395.49</ele>
        <time>2022-01-27T11:29:32Z</time>
      </trkpt>
      <trkpt lat="43.00047" lon="0.23857">
        <ele>1394.53</ele>
        <time>2022-01-27T11:30:00Z</time>
      </trkpt>
      <trkpt lat="43.00047" lon="0.23858">
        <ele>1391.65</ele>
        <time>2022-01-27T11:30:21Z</time>
      </trkpt>
      <trkpt lat="43.00047" lon="0.23858">
        <ele>1391.65</ele>
        <time>2022-01-27T11:30:22Z</time>
      </trkpt>
      <trkpt lat="43.00047" lon="0.23858">
        <ele>1395.01</ele>
        <time>2022-01-27T11:30:23Z</time>
      </trkpt>
      <trkpt lat="43.00047" lon="0.23858">
        <ele>1395.01</ele>
        <time>2022-01-27T11:30:24Z</time>
      </trkpt>
      <trkpt lat="43.00047" lon="0.23857">
        <ele>1395.01</ele>
        <time>2022-01-27T11:30:50Z</time>
      </trkpt>
      <trkpt lat="43.00046" lon="0.23858">
        <ele>1395.49</ele>
        <time>2022-01-27T11:31:26Z</time>
      </trkpt>
      <trkpt lat="43.00048" lon="0.23858">
        <ele>1395.01</ele>
        <time>2022-01-27T11:31:52Z</time>
      </trkpt>
      <trkpt lat="43.00046" lon="0.2386">
        <ele>1395.01</ele>
        <time>2022-01-27T11:32:20Z</time>
      </trkpt>
      <trkpt lat="43.00043" lon="0.23859">
        <ele>1394.53</ele>
        <time>2022-01-27T11:32:49Z</time>
      </trkpt>
      <trkpt lat="43.00044" lon="0.23859">
        <ele>1395.01</ele>
        <time>2022-01-27T11:33:14Z</time>
      </trkpt>
      <trkpt lat="43.00046" lon="0.23857">
        <ele>1395.01</ele>
        <time>2022-01-27T11:33:42Z</time>
      </trkpt>
      <trkpt lat="43.00046" lon="0.2386">
        <ele>1395.49</ele>
        <time>2022-01-27T11:34:06Z</time>
      </trkpt>
      <trkpt lat="43.00047" lon="0.23859">
        <ele>1395.49</ele>
        <time>2022-01-27T11:34:39Z</time>
      </trkpt>
      <trkpt lat="43.00047" lon="0.23855">
        <ele>1394.53</ele>
        <time>2022-01-27T11:35:13Z</time>
      </trkpt>
      <trkpt lat="43.00045" lon="0.2386">
        <ele>1395.01</ele>
        <time>2022-01-27T11:35:48Z</time>
      </trkpt>
      <trkpt lat="43.00049" lon="0.23857">
        <ele>1395.49</ele>
        <time>2022-01-27T11:36:20Z</time>
      </trkpt>
      <trkpt lat="43.00047" lon="0.23856">
        <ele>1395.49</ele>
        <time>2022-01-27T11:36:44Z</time>
      </trkpt>
      <trkpt lat="43.00047" lon="0.23857">
        <ele>1395.49</ele>
        <time>2022-01-27T11:37:13Z</time>
      </trkpt>
      <trkpt lat="43.00045" lon="0.23859">
        <ele>1395.49</ele>
        <time>2022-01-27T11:37:51Z</time>
      </trkpt>
      <trkpt lat="43.00047" lon="0.23859">
        <ele>1395.49</ele>
        <time>2022-01-27T11:38:22Z</time>
      </trkpt>
      <trkpt lat="43.00046" lon="0.23858">
        <ele>1396.45</ele>
        <time>2022-01-27T11:38:46Z</time>
      </trkpt>
      <trkpt lat="43.00045" lon="0.23858">
        <ele>1395.97</ele>
        <time>2022-01-27T11:39:16Z</time>
      </trkpt>
      <trkpt lat="43.00044" lon="0.23856">
        <ele>1396.45</ele>
        <time>2022-01-27T11:39:43Z</time>
      </trkpt>
      <trkpt lat="43.0004" lon="0.23861">
        <ele>1395.97</ele>
        <time>2022-01-27T11:40:12Z</time>
      </trkpt>
      <trkpt lat="43.00046" lon="0.23857">
        <ele>1395.97</ele>
        <time>2022-01-27T11:40:40Z</time>
      </trkpt>
      <trkpt lat="43.00047" lon="0.23856">
        <ele>1395.97</ele>
        <time>2022-01-27T11:41:06Z</time>
      </trkpt>
      <trkpt lat="43.00049" lon="0.23852">
        <ele>1395.49</ele>
        <time>2022-01-27T11:41:36Z</time>
      </trkpt>
      <trkpt lat="43.00047" lon="0.23856">
        <ele>1396.45</ele>
        <time>2022-01-27T11:42:20Z</time>
      </trkpt>
      <trkpt lat="43.0005" lon="0.23854">
        <ele>1396.45</ele>
        <time>2022-01-27T11:42:56Z</time>
      </trkpt>
      <trkpt lat="43.00047" lon="0.23857">
        <ele>1396.45</ele>
        <time>2022-01-27T11:43:21Z</time>
      </trkpt>
      <trkpt lat="43.00045" lon="0.23859">
        <ele>1395.97</ele>
        <time>2022-01-27T11:43:42Z</time>
      </trkpt>
      <trkpt lat="43.00044" lon="0.23857">
        <ele>1396.45</ele>
        <time>2022-01-27T11:44:10Z</time>
      </trkpt>
      <trkpt lat="43.00046" lon="0.23856">
        <ele>1396.45</ele>
        <time>2022-01-27T11:44:29Z</time>
      </trkpt>
      <trkpt lat="43.00044" lon="0.23857">
        <ele>1396.45</ele>
        <time>2022-01-27T11:44:58Z</time>
      </trkpt>
      <trkpt lat="43.00043" lon="0.23858">
        <ele>1396.45</ele>
        <time>2022-01-27T11:45:32Z</time>
      </trkpt>
      <trkpt lat="43.00044" lon="0.23859">
        <ele>1396.45</ele>
        <time>2022-01-27T11:46:05Z</time>
      </trkpt>
      <trkpt lat="43.00042" lon="0.23858">
        <ele>1396.93</ele>
        <time>2022-01-27T11:46:29Z</time>
      </trkpt>
      <trkpt lat="43.00046" lon="0.23857">
        <ele>1396.93</ele>
        <time>2022-01-27T11:46:55Z</time>
      </trkpt>
      <trkpt lat="43.00047" lon="0.23858">
        <ele>1396.45</ele>
        <time>2022-01-27T11:47:22Z</time>
      </trkpt>
      <trkpt lat="43.00042" lon="0.23858">
        <ele>1396.93</ele>
        <time>2022-01-27T11:47:43Z</time>
      </trkpt>
      <trkpt lat="43.00042" lon="0.23859">
        <ele>1397.41</ele>
        <time>2022-01-27T11:48:13Z</time>
      </trkpt>
      <trkpt lat="43.00045" lon="0.23858">
        <ele>1397.41</ele>
        <time>2022-01-27T11:48:41Z</time>
      </trkpt>
      <trkpt lat="43.00046" lon="0.23859">
        <ele>1396.93</ele>
        <time>2022-01-27T11:49:04Z</time>
      </trkpt>
      <trkpt lat="43.00046" lon="0.23858">
        <ele>1397.89</ele>
        <time>2022-01-27T11:49:33Z</time>
      </trkpt>
      <trkpt lat="43.00047" lon="0.23857">
        <ele>1397.41</ele>
        <time>2022-01-27T11:49:56Z</time>
      </trkpt>
      <trkpt lat="43.00044" lon="0.2386">
        <ele>1397.41</ele>
        <time>2022-01-27T11:50:35Z</time>
      </trkpt>
      <trkpt lat="43.00045" lon="0.23858">
        <ele>1397.89</ele>
        <time>2022-01-27T11:51:05Z</time>
      </trkpt>
      <trkpt lat="43.00043" lon="0.23859">
        <ele>1398.37</ele>
        <time>2022-01-27T11:51:33Z</time>
      </trkpt>
      <trkpt lat="43.00044" lon="0.23859">
        <ele>1397.89</ele>
        <time>2022-01-27T11:52:04Z</time>
      </trkpt>
      <trkpt lat="43.00042" lon="0.23859">
        <ele>1397.41</ele>
        <time>2022-01-27T11:52:37Z</time>
      </trkpt>
      <trkpt lat="43.00045" lon="0.23859">
        <ele>1397.89</ele>
        <time>2022-01-27T11:53:08Z</time>
      </trkpt>
      <trkpt lat="43.00044" lon="0.23858">
        <ele>1398.37</ele>
        <time>2022-01-27T11:53:37Z</time>
      </trkpt>
      <trkpt lat="43.00045" lon="0.23858">
        <ele>1397.89</ele>
        <time>2022-01-27T11:54:05Z</time>
      </trkpt>
      <trkpt lat="43.00045" lon="0.23859">
        <ele>1397.89</ele>
        <time>2022-01-27T11:54:40Z</time>
      </trkpt>
      <trkpt lat="43.00045" lon="0.23858">
        <ele>1397.89</ele>
        <time>2022-01-27T11:55:07Z</time>
      </trkpt>
      <trkpt lat="43.00048" lon="0.23856">
        <ele>1397.89</ele>
        <time>2022-01-27T11:55:48Z</time>
      </trkpt>
      <trkpt lat="43.00046" lon="0.23857">
        <ele>1397.41</ele>
        <time>2022-01-27T11:56:15Z</time>
      </trkpt>
      <trkpt lat="43.00045" lon="0.23858">
        <ele>1397.41</ele>
        <time>2022-01-27T11:56:42Z</time>
      </trkpt>
      <trkpt lat="43.00044" lon="0.23857">
        <ele>1397.89</ele>
        <time>2022-01-27T11:57:04Z</time>
      </trkpt>
      <trkpt lat="43.00046" lon="0.23858">
        <ele>1397.89</ele>
        <time>2022-01-27T11:57:32Z</time>
      </trkpt>
      <trkpt lat="43.00046" lon="0.23857">
        <ele>1397.89</ele>
        <time>2022-01-27T11:58:08Z</time>
      </trkpt>
      <trkpt lat="43.00046" lon="0.23855">
        <ele>1397.41</ele>
        <time>2022-01-27T11:58:45Z</time>
      </trkpt>
      <trkpt lat="43.00046" lon="0.23858">
        <ele>1397.41</ele>
        <time>2022-01-27T11:59:21Z</time>
      </trkpt>
      <trkpt lat="43.00043" lon="0.23856">
        <ele>1396.93</ele>
        <time>2022-01-27T11:59:52Z</time>
      </trkpt>
      <trkpt lat="43.00041" lon="0.23862">
        <ele>1397.41</ele>
        <time>2022-01-27T12:00:17Z</time>
      </trkpt>
      <trkpt lat="43.00044" lon="0.23859">
        <ele>1397.41</ele>
        <time>2022-01-27T12:00:48Z</time>
      </trkpt>
      <trkpt lat="43.00048" lon="0.2386">
        <ele>1397.41</ele>
        <time>2022-01-27T12:01:19Z</time>
      </trkpt>
      <trkpt lat="43.00047" lon="0.23858">
        <ele>1397.41</ele>
        <time>2022-01-27T12:01:50Z</time>
      </trkpt>
      <trkpt lat="43.00048" lon="0.2386">
        <ele>1395.49</ele>
        <time>2022-01-27T12:02:24Z</time>
      </trkpt>
      <trkpt lat="43.00049" lon="0.2386">
        <ele>1396.45</ele>
        <time>2022-01-27T12:03:03Z</time>
      </trkpt>
      <trkpt lat="43.00047" lon="0.23858">
        <ele>1396.93</ele>
        <time>2022-01-27T12:03:09Z</time>
      </trkpt>
      <trkpt lat="43.00047" lon="0.23861">
        <ele>1395.97</ele>
        <time>2022-01-27T12:03:25Z</time>
      </trkpt>
      <trkpt lat="43.00049" lon="0.23863">
        <ele>1396.45</ele>
        <time>2022-01-27T12:03:59Z</time>
      </trkpt>
      <trkpt lat="43.00048" lon="0.23863">
        <ele>1396.45</ele>
        <time>2022-01-27T12:04:39Z</time>
      </trkpt>
      <trkpt lat="43.00048" lon="0.23861">
        <ele>1395.97</ele>
        <time>2022-01-27T12:05:09Z</time>
      </trkpt>
      <trkpt lat="43.00048" lon="0.2386">
        <ele>1395.97</ele>
        <time>2022-01-27T12:05:50Z</time>
      </trkpt>
      <trkpt lat="43.00048" lon="0.23863">
        <ele>1396.45</ele>
        <time>2022-01-27T12:06:32Z</time>
      </trkpt>
      <trkpt lat="43.00048" lon="0.23863">
        <ele>1395.97</ele>
        <time>2022-01-27T12:07:10Z</time>
      </trkpt>
      <trkpt lat="43.00046" lon="0.23866">
        <ele>1395.97</ele>
        <time>2022-01-27T12:07:47Z</time>
      </trkpt>
      <trkpt lat="43.00051" lon="0.23861">
        <ele>1395.97</ele>
        <time>2022-01-27T12:08:27Z</time>
      </trkpt>
      <trkpt lat="43.00048" lon="0.23859">
        <ele>1395.97</ele>
        <time>2022-01-27T12:09:12Z</time>
      </trkpt>
      <trkpt lat="43.00044" lon="0.23863">
        <ele>1395.01</ele>
        <time>2022-01-27T12:09:53Z</time>
      </trkpt>
      <trkpt lat="43.00047" lon="0.23865">
        <ele>1395.01</ele>
        <time>2022-01-27T12:10:24Z</time>
      </trkpt>
      <trkpt lat="43.00046" lon="0.23861">
        <ele>1395.97</ele>
        <time>2022-01-27T12:10:58Z</time>
      </trkpt>
      <trkpt lat="43.00048" lon="0.2386">
        <ele>1395.01</ele>
        <time>2022-01-27T12:11:43Z</time>
      </trkpt>
      <trkpt lat="43.00045" lon="0.23862">
        <ele>1395.49</ele>
        <time>2022-01-27T12:12:13Z</time>
      </trkpt>
      <trkpt lat="43.00045" lon="0.23865">
        <ele>1395.49</ele>
        <time>2022-01-27T12:12:47Z</time>
      </trkpt>
      <trkpt lat="43.00044" lon="0.23865">
        <ele>1395.01</ele>
        <time>2022-01-27T12:13:15Z</time>
      </trkpt>
      <trkpt lat="43.00047" lon="0.23863">
        <ele>1395.49</ele>
        <time>2022-01-27T12:13:45Z</time>
      </trkpt>
      <trkpt lat="43.00045" lon="0.2386">
        <ele>1394.53</ele>
        <time>2022-01-27T12:14:19Z</time>
      </trkpt>
      <trkpt lat="43.00046" lon="0.23861">
        <ele>1394.53</ele>
        <time>2022-01-27T12:14:50Z</time>
      </trkpt>
      <trkpt lat="43.00046" lon="0.23863">
        <ele>1395.01</ele>
        <time>2022-01-27T12:15:21Z</time>
      </trkpt>
      <trkpt lat="43.00046" lon="0.23861">
        <ele>1395.01</ele>
        <time>2022-01-27T12:15:51Z</time>
      </trkpt>
      <trkpt lat="43.00043" lon="0.2386">
        <ele>1395.01</ele>
        <time>2022-01-27T12:16:29Z</time>
      </trkpt>
      <trkpt lat="43.00048" lon="0.23861">
        <ele>1395.01</ele>
        <time>2022-01-27T12:17:00Z</time>
      </trkpt>
      <trkpt lat="43.00051" lon="0.23857">
        <ele>1394.53</ele>
        <time>2022-01-27T12:17:37Z</time>
      </trkpt>
      <trkpt lat="43.00052" lon="0.2386">
        <ele>1395.01</ele>
        <time>2022-01-27T12:18:06Z</time>
      </trkpt>
      <trkpt lat="43.00052" lon="0.23857">
        <ele>1394.53</ele>
        <time>2022-01-27T12:18:39Z</time>
      </trkpt>
      <trkpt lat="43.0005" lon="0.23858">
        <ele>1394.05</ele>
        <time>2022-01-27T12:19:16Z</time>
      </trkpt>
      <trkpt lat="43.00049" lon="0.23857">
        <ele>1395.49</ele>
        <time>2022-01-27T12:19:52Z</time>
      </trkpt>
      <trkpt lat="43.00048" lon="0.23859">
        <ele>1395.01</ele>
        <time>2022-01-27T12:20:24Z</time>
      </trkpt>
      <trkpt lat="43.00051" lon="0.2386">
        <ele>1395.01</ele>
        <time>2022-01-27T12:20:56Z</time>
      </trkpt>
      <trkpt lat="43.0005" lon="0.23856">
        <ele>1394.05</ele>
        <time>2022-01-27T12:21:32Z</time>
      </trkpt>
      <trkpt lat="43.0005" lon="0.23859">
        <ele>1395.49</ele>
        <time>2022-01-27T12:22:04Z</time>
      </trkpt>
      <trkpt lat="43.00051" lon="0.23858">
        <ele>1394.53</ele>
        <time>2022-01-27T12:22:43Z</time>
      </trkpt>
      <trkpt lat="43.00052" lon="0.23858">
        <ele>1394.05</ele>
        <time>2022-01-27T12:23:11Z</time>
      </trkpt>
      <trkpt lat="43.00049" lon="0.23862">
        <ele>1395.01</ele>
        <time>2022-01-27T12:23:30Z</time>
      </trkpt>
      <trkpt lat="43.00046" lon="0.2386">
        <ele>1395.01</ele>
        <time>2022-01-27T12:23:43Z</time>
      </trkpt>
      <trkpt lat="43.00039" lon="0.23856">
        <ele>1394.53</ele>
        <time>2022-01-27T12:23:57Z</time>
      </trkpt>
      <trkpt lat="43.00038" lon="0.23856">
        <ele>1394.53</ele>
        <time>2022-01-27T12:23:58Z</time>
      </trkpt>
      <trkpt lat="43.00023" lon="0.23857">
        <ele>1392.61</ele>
        <time>2022-01-27T12:24:14Z</time>
      </trkpt>
      <trkpt lat="43.00008" lon="0.23856">
        <ele>1393.57</ele>
        <time>2022-01-27T12:24:31Z</time>
      </trkpt>
      <trkpt lat="42.99997" lon="0.23852">
        <ele>1395.01</ele>
        <time>2022-01-27T12:24:45Z</time>
      </trkpt>
      <trkpt lat="42.99989" lon="0.23855">
        <ele>1396.45</ele>
        <time>2022-01-27T12:24:58Z</time>
      </trkpt>
      <trkpt lat="42.9998" lon="0.2385">
        <ele>1396.93</ele>
        <time>2022-01-27T12:25:13Z</time>
      </trkpt>
      <trkpt lat="42.99973" lon="0.23847">
        <ele>1398.86</ele>
        <time>2022-01-27T12:25:25Z</time>
      </trkpt>
      <trkpt lat="42.99969" lon="0.23841">
        <ele>1399.82</ele>
        <time>2022-01-27T12:25:39Z</time>
      </trkpt>
      <trkpt lat="42.99961" lon="0.23832">
        <ele>1401.26</ele>
        <time>2022-01-27T12:25:53Z</time>
      </trkpt>
      <trkpt lat="42.99953" lon="0.23822">
        <ele>1401.74</ele>
        <time>2022-01-27T12:26:07Z</time>
      </trkpt>
      <trkpt lat="42.99951" lon="0.23821">
        <ele>1401.26</ele>
        <time>2022-01-27T12:26:10Z</time>
      </trkpt>
      <trkpt lat="42.99949" lon="0.23818">
        <ele>1401.74</ele>
        <time>2022-01-27T12:26:13Z</time>
      </trkpt>
      <trkpt lat="42.99941" lon="0.2381">
        <ele>1401.74</ele>
        <time>2022-01-27T12:26:25Z</time>
      </trkpt>
      <trkpt lat="42.99939" lon="0.23808">
        <ele>1401.74</ele>
        <time>2022-01-27T12:26:27Z</time>
      </trkpt>
      <trkpt lat="42.99931" lon="0.23797">
        <ele>1402.7</ele>
        <time>2022-01-27T12:26:41Z</time>
      </trkpt>
      <trkpt lat="42.99922" lon="0.23787">
        <ele>1403.66</ele>
        <time>2022-01-27T12:26:55Z</time>
      </trkpt>
      <trkpt lat="42.99913" lon="0.23771">
        <ele>1404.62</ele>
        <time>2022-01-27T12:27:10Z</time>
      </trkpt>
      <trkpt lat="42.99911" lon="0.23767">
        <ele>1404.62</ele>
        <time>2022-01-27T12:27:14Z</time>
      </trkpt>
      <trkpt lat="42.99896" lon="0.23761">
        <ele>1404.62</ele>
        <time>2022-01-27T12:27:30Z</time>
      </trkpt>
      <trkpt lat="42.99895" lon="0.2376">
        <ele>1404.62</ele>
        <time>2022-01-27T12:27:31Z</time>
      </trkpt>
      <trkpt lat="42.99887" lon="0.23753">
        <ele>1405.1</ele>
        <time>2022-01-27T12:27:43Z</time>
      </trkpt>
      <trkpt lat="42.99876" lon="0.23746">
        <ele>1405.1</ele>
        <time>2022-01-27T12:27:56Z</time>
      </trkpt>
      <trkpt lat="42.99874" lon="0.23745">
        <ele>1405.1</ele>
        <time>2022-01-27T12:27:58Z</time>
      </trkpt>
      <trkpt lat="42.99871" lon="0.23743">
        <ele>1405.1</ele>
        <time>2022-01-27T12:28:01Z</time>
      </trkpt>
      <trkpt lat="42.99859" lon="0.23735">
        <ele>1404.14</ele>
        <time>2022-01-27T12:28:18Z</time>
      </trkpt>
      <trkpt lat="42.99848" lon="0.23727">
        <ele>1403.66</ele>
        <time>2022-01-27T12:28:32Z</time>
      </trkpt>
      <trkpt lat="42.99836" lon="0.23722">
        <ele>1401.74</ele>
        <time>2022-01-27T12:28:47Z</time>
      </trkpt>
      <trkpt lat="42.9983" lon="0.23714">
        <ele>1399.82</ele>
        <time>2022-01-27T12:28:59Z</time>
      </trkpt>
      <trkpt lat="42.99817" lon="0.23707">
        <ele>1397.41</ele>
        <time>2022-01-27T12:29:14Z</time>
      </trkpt>
      <trkpt lat="42.99813" lon="0.23708">
        <ele>1397.41</ele>
        <time>2022-01-27T12:29:28Z</time>
      </trkpt>
      <trkpt lat="42.99812" lon="0.23706">
        <ele>1396.93</ele>
        <time>2022-01-27T12:29:37Z</time>
      </trkpt>
      <trkpt lat="42.99805" lon="0.23705">
        <ele>1395.49</ele>
        <time>2022-01-27T12:29:54Z</time>
      </trkpt>
      <trkpt lat="42.99803" lon="0.23705">
        <ele>1395.01</ele>
        <time>2022-01-27T12:30:14Z</time>
      </trkpt>
      <trkpt lat="42.99792" lon="0.23701">
        <ele>1393.57</ele>
        <time>2022-01-27T12:30:26Z</time>
      </trkpt>
      <trkpt lat="42.9979" lon="0.23702">
        <ele>1392.61</ele>
        <time>2022-01-27T12:30:28Z</time>
      </trkpt>
      <trkpt lat="42.99774" lon="0.23706">
        <ele>1391.65</ele>
        <time>2022-01-27T12:30:43Z</time>
      </trkpt>
      <trkpt lat="42.9976" lon="0.23709">
        <ele>1389.72</ele>
        <time>2022-01-27T12:30:58Z</time>
      </trkpt>
      <trkpt lat="42.99752" lon="0.23713">
        <ele>1389.72</ele>
        <time>2022-01-27T12:31:05Z</time>
      </trkpt>
      <trkpt lat="42.99743" lon="0.23715">
        <ele>1389.24</ele>
        <time>2022-01-27T12:31:14Z</time>
      </trkpt>
      <trkpt lat="42.99732" lon="0.23718">
        <ele>1387.8</ele>
        <time>2022-01-27T12:31:29Z</time>
      </trkpt>
      <trkpt lat="42.99721" lon="0.23724">
        <ele>1386.36</ele>
        <time>2022-01-27T12:31:43Z</time>
      </trkpt>
      <trkpt lat="42.9972" lon="0.23723">
        <ele>1386.36</ele>
        <time>2022-01-27T12:32:00Z</time>
      </trkpt>
      <trkpt lat="42.99718" lon="0.2373">
        <ele>1386.36</ele>
        <time>2022-01-27T12:32:14Z</time>
      </trkpt>
      <trkpt lat="42.99717" lon="0.23731">
        <ele>1386.84</ele>
        <time>2022-01-27T12:32:16Z</time>
      </trkpt>
      <trkpt lat="42.99709" lon="0.2374">
        <ele>1386.84</ele>
        <time>2022-01-27T12:32:30Z</time>
      </trkpt>
      <trkpt lat="42.99708" lon="0.23741">
        <ele>1385.88</ele>
        <time>2022-01-27T12:32:41Z</time>
      </trkpt>
      <trkpt lat="42.99708" lon="0.2374">
        <ele>1380.59</ele>
        <time>2022-01-27T12:32:53Z</time>
      </trkpt>
      <trkpt lat="42.99708" lon="0.23739">
        <ele>1386.36</ele>
        <time>2022-01-27T12:32:54Z</time>
      </trkpt>
      <trkpt lat="42.99708" lon="0.23743">
        <ele>1387.32</ele>
        <time>2022-01-27T12:33:17Z</time>
      </trkpt>
      <trkpt lat="42.99708" lon="0.23744">
        <ele>1387.32</ele>
        <time>2022-01-27T12:33:28Z</time>
      </trkpt>
      <trkpt lat="42.99705" lon="0.23741">
        <ele>1385.88</ele>
        <time>2022-01-27T12:33:42Z</time>
      </trkpt>
      <trkpt lat="42.99706" lon="0.23738">
        <ele>1385.88</ele>
        <time>2022-01-27T12:34:02Z</time>
      </trkpt>
      <trkpt lat="42.99698" lon="0.23734">
        <ele>1382.99</ele>
        <time>2022-01-27T12:34:15Z</time>
      </trkpt>
      <trkpt lat="42.9969" lon="0.23732">
        <ele>1380.59</ele>
        <time>2022-01-27T12:34:28Z</time>
      </trkpt>
      <trkpt lat="42.99677" lon="0.23731">
        <ele>1377.71</ele>
        <time>2022-01-27T12:34:44Z</time>
      </trkpt>
      <trkpt lat="42.99667" lon="0.23728">
        <ele>1374.34</ele>
        <time>2022-01-27T12:34:58Z</time>
      </trkpt>
      <trkpt lat="42.99661" lon="0.23725">
        <ele>1370.98</ele>
        <time>2022-01-27T12:35:11Z</time>
      </trkpt>
      <trkpt lat="42.99649" lon="0.23721">
        <ele>1367.13</ele>
        <time>2022-01-27T12:35:26Z</time>
      </trkpt>
      <trkpt lat="42.99643" lon="0.23716">
        <ele>1364.73</ele>
        <time>2022-01-27T12:35:37Z</time>
      </trkpt>
      <trkpt lat="42.99638" lon="0.23714">
        <ele>1363.29</ele>
        <time>2022-01-27T12:35:43Z</time>
      </trkpt>
      <trkpt lat="42.99629" lon="0.23713">
        <ele>1360.4</ele>
        <time>2022-01-27T12:35:54Z</time>
      </trkpt>
      <trkpt lat="42.99618" lon="0.23712">
        <ele>1358</ele>
        <time>2022-01-27T12:36:08Z</time>
      </trkpt>
      <trkpt lat="42.99616" lon="0.23711">
        <ele>1358</ele>
        <time>2022-01-27T12:36:23Z</time>
      </trkpt>
      <trkpt lat="42.99613" lon="0.23711">
        <ele>1357.04</ele>
        <time>2022-01-27T12:36:42Z</time>
      </trkpt>
      <trkpt lat="42.99604" lon="0.23708">
        <ele>1354.63</ele>
        <time>2022-01-27T12:36:55Z</time>
      </trkpt>
      <trkpt lat="42.99605" lon="0.23705">
        <ele>1354.63</ele>
        <time>2022-01-27T12:37:09Z</time>
      </trkpt>
      <trkpt lat="42.99601" lon="0.2371">
        <ele>1353.19</ele>
        <time>2022-01-27T12:37:19Z</time>
      </trkpt>
      <trkpt lat="42.99597" lon="0.23711">
        <ele>1350.31</ele>
        <time>2022-01-27T12:37:26Z</time>
      </trkpt>
      <trkpt lat="42.99591" lon="0.2371">
        <ele>1349.35</ele>
        <time>2022-01-27T12:37:32Z</time>
      </trkpt>
      <trkpt lat="42.99584" lon="0.23697">
        <ele>1345.98</ele>
        <time>2022-01-27T12:37:46Z</time>
      </trkpt>
      <trkpt lat="42.99582" lon="0.23692">
        <ele>1344.54</ele>
        <time>2022-01-27T12:37:51Z</time>
      </trkpt>
      <trkpt lat="42.99578" lon="0.23685">
        <ele>1341.66</ele>
        <time>2022-01-27T12:37:59Z</time>
      </trkpt>
      <trkpt lat="42.99573" lon="0.2368">
        <ele>1338.77</ele>
        <time>2022-01-27T12:38:11Z</time>
      </trkpt>
      <trkpt lat="42.99572" lon="0.23666">
        <ele>1336.85</ele>
        <time>2022-01-27T12:38:24Z</time>
      </trkpt>
      <trkpt lat="42.9957" lon="0.23665">
        <ele>1336.85</ele>
        <time>2022-01-27T12:38:39Z</time>
      </trkpt>
      <trkpt lat="42.99564" lon="0.23664">
        <ele>1334.93</ele>
        <time>2022-01-27T12:38:56Z</time>
      </trkpt>
      <trkpt lat="42.9956" lon="0.23652">
        <ele>1332.04</ele>
        <time>2022-01-27T12:39:09Z</time>
      </trkpt>
      <trkpt lat="42.99557" lon="0.23649">
        <ele>1331.08</ele>
        <time>2022-01-27T12:39:13Z</time>
      </trkpt>
      <trkpt lat="42.9955" lon="0.23643">
        <ele>1328.68</ele>
        <time>2022-01-27T12:39:25Z</time>
      </trkpt>
      <trkpt lat="42.99546" lon="0.23643">
        <ele>1329.16</ele>
        <time>2022-01-27T12:39:38Z</time>
      </trkpt>
      <trkpt lat="42.99544" lon="0.23645">
        <ele>1328.68</ele>
        <time>2022-01-27T12:39:55Z</time>
      </trkpt>
      <trkpt lat="42.99541" lon="0.23647">
        <ele>1328.68</ele>
        <time>2022-01-27T12:40:09Z</time>
      </trkpt>
      <trkpt lat="42.9954" lon="0.23651">
        <ele>1328.68</ele>
        <time>2022-01-27T12:40:20Z</time>
      </trkpt>
      <trkpt lat="42.9954" lon="0.2365">
        <ele>1328.68</ele>
        <time>2022-01-27T12:40:41Z</time>
      </trkpt>
      <trkpt lat="42.99542" lon="0.23653">
        <ele>1328.2</ele>
        <time>2022-01-27T12:40:53Z</time>
      </trkpt>
      <trkpt lat="42.99544" lon="0.23653">
        <ele>1327.72</ele>
        <time>2022-01-27T12:41:15Z</time>
      </trkpt>
      <trkpt lat="42.99544" lon="0.23653">
        <ele>1327.72</ele>
        <time>2022-01-27T12:41:48Z</time>
      </trkpt>
      <trkpt lat="42.99544" lon="0.23653">
        <ele>1327.72</ele>
        <time>2022-01-27T12:42:20Z</time>
      </trkpt>
      <trkpt lat="42.99543" lon="0.23653">
        <ele>1327.72</ele>
        <time>2022-01-27T12:42:51Z</time>
      </trkpt>
      <trkpt lat="42.99544" lon="0.23654">
        <ele>1327.72</ele>
        <time>2022-01-27T12:43:12Z</time>
      </trkpt>
      <trkpt lat="42.99544" lon="0.23654">
        <ele>1327.72</ele>
        <time>2022-01-27T12:43:40Z</time>
      </trkpt>
      <trkpt lat="42.99544" lon="0.23654">
        <ele>1327.72</ele>
        <time>2022-01-27T12:44:13Z</time>
      </trkpt>
      <trkpt lat="42.99544" lon="0.23654">
        <ele>1327.72</ele>
        <time>2022-01-27T12:44:39Z</time>
      </trkpt>
      <trkpt lat="42.99543" lon="0.23653">
        <ele>1328.2</ele>
        <time>2022-01-27T12:45:02Z</time>
      </trkpt>
      <trkpt lat="42.99544" lon="0.23654">
        <ele>1327.72</ele>
        <time>2022-01-27T12:45:38Z</time>
      </trkpt>
      <trkpt lat="42.99543" lon="0.23654">
        <ele>1327.72</ele>
        <time>2022-01-27T12:46:14Z</time>
      </trkpt>
      <trkpt lat="42.99545" lon="0.23654">
        <ele>1328.2</ele>
        <time>2022-01-27T12:46:47Z</time>
      </trkpt>
      <trkpt lat="42.99545" lon="0.23654">
        <ele>1328.2</ele>
        <time>2022-01-27T12:46:58Z</time>
      </trkpt>
      <trkpt lat="42.99545" lon="0.23654">
        <ele>1327.24</ele>
        <time>2022-01-27T12:47:40Z</time>
      </trkpt>
      <trkpt lat="42.99544" lon="0.23654">
        <ele>1328.2</ele>
        <time>2022-01-27T12:47:56Z</time>
      </trkpt>
      <trkpt lat="42.99544" lon="0.23654">
        <ele>1327.72</ele>
        <time>2022-01-27T12:48:27Z</time>
      </trkpt>
      <trkpt lat="42.99544" lon="0.23654">
        <ele>1327.72</ele>
        <time>2022-01-27T12:48:57Z</time>
      </trkpt>
      <trkpt lat="42.99544" lon="0.23654">
        <ele>1327.72</ele>
        <time>2022-01-27T12:49:41Z</time>
      </trkpt>
      <trkpt lat="42.99545" lon="0.23654">
        <ele>1327.24</ele>
        <time>2022-01-27T12:50:19Z</time>
      </trkpt>
      <trkpt lat="42.99545" lon="0.23654">
        <ele>1328.2</ele>
        <time>2022-01-27T12:50:52Z</time>
      </trkpt>
      <trkpt lat="42.99545" lon="0.23654">
        <ele>1328.2</ele>
        <time>2022-01-27T12:51:34Z</time>
      </trkpt>
      <trkpt lat="42.99545" lon="0.23655">
        <ele>1327.24</ele>
        <time>2022-01-27T12:52:11Z</time>
      </trkpt>
      <trkpt lat="42.99544" lon="0.23654">
        <ele>1327.24</ele>
        <time>2022-01-27T12:52:48Z</time>
      </trkpt>
      <trkpt lat="42.99544" lon="0.23654">
        <ele>1327.72</ele>
        <time>2022-01-27T12:53:27Z</time>
      </trkpt>
      <trkpt lat="42.99544" lon="0.23654">
        <ele>1327.72</ele>
        <time>2022-01-27T12:53:54Z</time>
      </trkpt>
      <trkpt lat="42.99544" lon="0.23655">
        <ele>1327.72</ele>
        <time>2022-01-27T12:54:27Z</time>
      </trkpt>
      <trkpt lat="42.99544" lon="0.23654">
        <ele>1327.24</ele>
        <time>2022-01-27T12:55:03Z</time>
      </trkpt>
      <trkpt lat="42.99545" lon="0.23654">
        <ele>1327.72</ele>
        <time>2022-01-27T12:55:32Z</time>
      </trkpt>
      <trkpt lat="42.99545" lon="0.23654">
        <ele>1327.72</ele>
        <time>2022-01-27T12:56:06Z</time>
      </trkpt>
      <trkpt lat="42.99544" lon="0.23654">
        <ele>1327.24</ele>
        <time>2022-01-27T12:56:50Z</time>
      </trkpt>
      <trkpt lat="42.99544" lon="0.23654">
        <ele>1327.24</ele>
        <time>2022-01-27T12:57:22Z</time>
      </trkpt>
      <trkpt lat="42.99544" lon="0.23655">
        <ele>1328.2</ele>
        <time>2022-01-27T12:58:02Z</time>
      </trkpt>
      <trkpt lat="42.99544" lon="0.23655">
        <ele>1326.76</ele>
        <time>2022-01-27T12:58:40Z</time>
      </trkpt>
      <trkpt lat="42.99544" lon="0.23655">
        <ele>1326.76</ele>
        <time>2022-01-27T12:59:13Z</time>
      </trkpt>
      <trkpt lat="42.99544" lon="0.23655">
        <ele>1326.76</ele>
        <time>2022-01-27T12:59:39Z</time>
      </trkpt>
      <trkpt lat="42.99544" lon="0.23655">
        <ele>1327.24</ele>
        <time>2022-01-27T13:00:08Z</time>
      </trkpt>
      <trkpt lat="42.99544" lon="0.23655">
        <ele>1327.72</ele>
        <time>2022-01-27T13:00:38Z</time>
      </trkpt>
      <trkpt lat="42.99544" lon="0.23656">
        <ele>1326.76</ele>
        <time>2022-01-27T13:01:12Z</time>
      </trkpt>
      <trkpt lat="42.99544" lon="0.23655">
        <ele>1326.28</ele>
        <time>2022-01-27T13:01:40Z</time>
      </trkpt>
      <trkpt lat="42.99544" lon="0.23656">
        <ele>1326.76</ele>
        <time>2022-01-27T13:02:11Z</time>
      </trkpt>
      <trkpt lat="42.99544" lon="0.23656">
        <ele>1326.28</ele>
        <time>2022-01-27T13:02:53Z</time>
      </trkpt>
      <trkpt lat="42.99544" lon="0.23656">
        <ele>1326.28</ele>
        <time>2022-01-27T13:03:20Z</time>
      </trkpt>
      <trkpt lat="42.99544" lon="0.23656">
        <ele>1326.28</ele>
        <time>2022-01-27T13:03:52Z</time>
      </trkpt>
      <trkpt lat="42.99544" lon="0.23656">
        <ele>1326.76</ele>
        <time>2022-01-27T13:04:22Z</time>
      </trkpt>
      <trkpt lat="42.99544" lon="0.23657">
        <ele>1326.28</ele>
        <time>2022-01-27T13:04:49Z</time>
      </trkpt>
      <trkpt lat="42.99543" lon="0.23657">
        <ele>1326.28</ele>
        <time>2022-01-27T13:05:15Z</time>
      </trkpt>
      <trkpt lat="42.99544" lon="0.23657">
        <ele>1326.28</ele>
        <time>2022-01-27T13:05:45Z</time>
      </trkpt>
      <trkpt lat="42.99544" lon="0.23657">
        <ele>1325.31</ele>
        <time>2022-01-27T13:06:21Z</time>
      </trkpt>
      <trkpt lat="42.99544" lon="0.23656">
        <ele>1325.8</ele>
        <time>2022-01-27T13:06:51Z</time>
      </trkpt>
      <trkpt lat="42.99544" lon="0.23657">
        <ele>1325.8</ele>
        <time>2022-01-27T13:07:18Z</time>
      </trkpt>
      <trkpt lat="42.99544" lon="0.23657">
        <ele>1325.8</ele>
        <time>2022-01-27T13:07:45Z</time>
      </trkpt>
      <trkpt lat="42.99544" lon="0.23657">
        <ele>1325.31</ele>
        <time>2022-01-27T13:08:18Z</time>
      </trkpt>
      <trkpt lat="42.99545" lon="0.23657">
        <ele>1325.8</ele>
        <time>2022-01-27T13:08:47Z</time>
      </trkpt>
      <trkpt lat="42.99545" lon="0.23657">
        <ele>1325.8</ele>
        <time>2022-01-27T13:09:14Z</time>
      </trkpt>
      <trkpt lat="42.99544" lon="0.23656">
        <ele>1325.31</ele>
        <time>2022-01-27T13:09:47Z</time>
      </trkpt>
      <trkpt lat="42.99544" lon="0.23656">
        <ele>1325.8</ele>
        <time>2022-01-27T13:10:15Z</time>
      </trkpt>
      <trkpt lat="42.99544" lon="0.23657">
        <ele>1326.28</ele>
        <time>2022-01-27T13:10:31Z</time>
      </trkpt>
      <trkpt lat="42.99543" lon="0.23651">
        <ele>1326.28</ele>
        <time>2022-01-27T13:10:43Z</time>
      </trkpt>
      <trkpt lat="42.99543" lon="0.2365">
        <ele>1326.28</ele>
        <time>2022-01-27T13:11:08Z</time>
      </trkpt>
      <trkpt lat="42.99543" lon="0.23651">
        <ele>1326.28</ele>
        <time>2022-01-27T13:11:22Z</time>
      </trkpt>
      <trkpt lat="42.99542" lon="0.23645">
        <ele>1325.8</ele>
        <time>2022-01-27T13:11:36Z</time>
      </trkpt>
      <trkpt lat="42.99539" lon="0.23638">
        <ele>1324.35</ele>
        <time>2022-01-27T13:11:44Z</time>
      </trkpt>
      <trkpt lat="42.99539" lon="0.23634">
        <ele>1323.87</ele>
        <time>2022-01-27T13:11:47Z</time>
      </trkpt>
      <trkpt lat="42.99539" lon="0.23627">
        <ele>1322.43</ele>
        <time>2022-01-27T13:12:02Z</time>
      </trkpt>
      <trkpt lat="42.99538" lon="0.23625">
        <ele>1322.43</ele>
        <time>2022-01-27T13:12:03Z</time>
      </trkpt>
      <trkpt lat="42.99533" lon="0.23624">
        <ele>1320.99</ele>
        <time>2022-01-27T13:12:08Z</time>
      </trkpt>
      <trkpt lat="42.99523" lon="0.23622">
        <ele>1319.55</ele>
        <time>2022-01-27T13:12:20Z</time>
      </trkpt>
      <trkpt lat="42.99516" lon="0.23628">
        <ele>1316.66</ele>
        <time>2022-01-27T13:12:32Z</time>
      </trkpt>
      <trkpt lat="42.9951" lon="0.23637">
        <ele>1313.3</ele>
        <time>2022-01-27T13:12:43Z</time>
      </trkpt>
      <trkpt lat="42.99506" lon="0.23645">
        <ele>1310.41</ele>
        <time>2022-01-27T13:12:53Z</time>
      </trkpt>
      <trkpt lat="42.99505" lon="0.23655">
        <ele>1307.53</ele>
        <time>2022-01-27T13:13:05Z</time>
      </trkpt>
      <trkpt lat="42.99505" lon="0.23666">
        <ele>1304.65</ele>
        <time>2022-01-27T13:13:18Z</time>
      </trkpt>
      <trkpt lat="42.99505" lon="0.23676">
        <ele>1302.24</ele>
        <time>2022-01-27T13:13:28Z</time>
      </trkpt>
      <trkpt lat="42.99503" lon="0.23692">
        <ele>1300.32</ele>
        <time>2022-01-27T13:13:42Z</time>
      </trkpt>
      <trkpt lat="42.99499" lon="0.23707">
        <ele>1298.88</ele>
        <time>2022-01-27T13:13:55Z</time>
      </trkpt>
      <trkpt lat="42.99495" lon="0.23723">
        <ele>1297.92</ele>
        <time>2022-01-27T13:14:11Z</time>
      </trkpt>
      <trkpt lat="42.99491" lon="0.23739">
        <ele>1296.96</ele>
        <time>2022-01-27T13:14:25Z</time>
      </trkpt>
      <trkpt lat="42.99488" lon="0.23751">
        <ele>1295.51</ele>
        <time>2022-01-27T13:14:37Z</time>
      </trkpt>
      <trkpt lat="42.99484" lon="0.23764">
        <ele>1293.11</ele>
        <time>2022-01-27T13:14:51Z</time>
      </trkpt>
      <trkpt lat="42.99485" lon="0.23771">
        <ele>1294.07</ele>
        <time>2022-01-27T13:14:56Z</time>
      </trkpt>
      <trkpt lat="42.9948" lon="0.23786">
        <ele>1290.71</ele>
        <time>2022-01-27T13:15:11Z</time>
      </trkpt>
      <trkpt lat="42.99478" lon="0.23797">
        <ele>1289.27</ele>
        <time>2022-01-27T13:15:21Z</time>
      </trkpt>
      <trkpt lat="42.99484" lon="0.23806">
        <ele>1288.3</ele>
        <time>2022-01-27T13:15:35Z</time>
      </trkpt>
      <trkpt lat="42.99486" lon="0.23815">
        <ele>1287.34</ele>
        <time>2022-01-27T13:15:49Z</time>
      </trkpt>
      <trkpt lat="42.9949" lon="0.23825">
        <ele>1283.98</ele>
        <time>2022-01-27T13:16:01Z</time>
      </trkpt>
      <trkpt lat="42.99491" lon="0.2384">
        <ele>1283.5</ele>
        <time>2022-01-27T13:16:14Z</time>
      </trkpt>
      <trkpt lat="42.99492" lon="0.23854">
        <ele>1282.54</ele>
        <time>2022-01-27T13:16:28Z</time>
      </trkpt>
      <trkpt lat="42.99493" lon="0.2386">
        <ele>1282.06</ele>
        <time>2022-01-27T13:16:33Z</time>
      </trkpt>
      <trkpt lat="42.99492" lon="0.23877">
        <ele>1279.65</ele>
        <time>2022-01-27T13:16:49Z</time>
      </trkpt>
      <trkpt lat="42.99492" lon="0.23891">
        <ele>1278.21</ele>
        <time>2022-01-27T13:17:03Z</time>
      </trkpt>
      <trkpt lat="42.99493" lon="0.23901">
        <ele>1277.73</ele>
        <time>2022-01-27T13:17:18Z</time>
      </trkpt>
      <trkpt lat="42.99493" lon="0.23916">
        <ele>1277.25</ele>
        <time>2022-01-27T13:17:31Z</time>
      </trkpt>
      <trkpt lat="42.99495" lon="0.23933">
        <ele>1275.81</ele>
        <time>2022-01-27T13:17:47Z</time>
      </trkpt>
      <trkpt lat="42.99495" lon="0.23934">
        <ele>1275.81</ele>
        <time>2022-01-27T13:17:48Z</time>
      </trkpt>
      <trkpt lat="42.99498" lon="0.23939">
        <ele>1275.81</ele>
        <time>2022-01-27T13:17:53Z</time>
      </trkpt>
      <trkpt lat="42.99498" lon="0.23951">
        <ele>1273.88</ele>
        <time>2022-01-27T13:18:04Z</time>
      </trkpt>
      <trkpt lat="42.99497" lon="0.23971">
        <ele>1272.44</ele>
        <time>2022-01-27T13:18:19Z</time>
      </trkpt>
      <trkpt lat="42.99494" lon="0.23989">
        <ele>1271.48</ele>
        <time>2022-01-27T13:18:34Z</time>
      </trkpt>
      <trkpt lat="42.99493" lon="0.2401">
        <ele>1270.04</ele>
        <time>2022-01-27T13:18:51Z</time>
      </trkpt>
      <trkpt lat="42.99494" lon="0.24018">
        <ele>1269.56</ele>
        <time>2022-01-27T13:18:59Z</time>
      </trkpt>
      <trkpt lat="42.99496" lon="0.24038">
        <ele>1267.16</ele>
        <time>2022-01-27T13:19:15Z</time>
      </trkpt>
      <trkpt lat="42.99498" lon="0.24057">
        <ele>1266.19</ele>
        <time>2022-01-27T13:19:31Z</time>
      </trkpt>
      <trkpt lat="42.99492" lon="0.2408">
        <ele>1265.23</ele>
        <time>2022-01-27T13:19:49Z</time>
      </trkpt>
      <trkpt lat="42.99489" lon="0.24097">
        <ele>1265.23</ele>
        <time>2022-01-27T13:20:04Z</time>
      </trkpt>
      <trkpt lat="42.99485" lon="0.2411">
        <ele>1264.27</ele>
        <time>2022-01-27T13:20:17Z</time>
      </trkpt>
      <trkpt lat="42.99484" lon="0.24115">
        <ele>1263.31</ele>
        <time>2022-01-27T13:20:21Z</time>
      </trkpt>
      <trkpt lat="42.99484" lon="0.24119">
        <ele>1262.83</ele>
        <time>2022-01-27T13:20:24Z</time>
      </trkpt>
      <trkpt lat="42.9948" lon="0.24135">
        <ele>1263.31</ele>
        <time>2022-01-27T13:20:38Z</time>
      </trkpt>
      <trkpt lat="42.99478" lon="0.24146">
        <ele>1264.27</ele>
        <time>2022-01-27T13:20:47Z</time>
      </trkpt>
      <trkpt lat="42.99474" lon="0.24159">
        <ele>1263.31</ele>
        <time>2022-01-27T13:21:00Z</time>
      </trkpt>
      <trkpt lat="42.99471" lon="0.24163">
        <ele>1262.83</ele>
        <time>2022-01-27T13:21:04Z</time>
      </trkpt>
      <trkpt lat="42.99468" lon="0.24176">
        <ele>1262.83</ele>
        <time>2022-01-27T13:21:14Z</time>
      </trkpt>
      <trkpt lat="42.99459" lon="0.24193">
        <ele>1263.31</ele>
        <time>2022-01-27T13:21:29Z</time>
      </trkpt>
      <trkpt lat="42.9945" lon="0.2421">
        <ele>1261.87</ele>
        <time>2022-01-27T13:21:44Z</time>
      </trkpt>
      <trkpt lat="42.99449" lon="0.24213">
        <ele>1262.35</ele>
        <time>2022-01-27T13:21:46Z</time>
      </trkpt>
      <trkpt lat="42.99442" lon="0.24223">
        <ele>1260.91</ele>
        <time>2022-01-27T13:22:00Z</time>
      </trkpt>
      <trkpt lat="42.99435" lon="0.2423">
        <ele>1259.46</ele>
        <time>2022-01-27T13:22:14Z</time>
      </trkpt>
      <trkpt lat="42.9943" lon="0.24234">
        <ele>1257.54</ele>
        <time>2022-01-27T13:22:26Z</time>
      </trkpt>
      <trkpt lat="42.99425" lon="0.24233">
        <ele>1255.62</ele>
        <time>2022-01-27T13:22:40Z</time>
      </trkpt>
      <trkpt lat="42.99423" lon="0.2423">
        <ele>1254.18</ele>
        <time>2022-01-27T13:22:51Z</time>
      </trkpt>
      <trkpt lat="42.9942" lon="0.24225">
        <ele>1250.81</ele>
        <time>2022-01-27T13:23:00Z</time>
      </trkpt>
      <trkpt lat="42.99418" lon="0.24222">
        <ele>1248.89</ele>
        <time>2022-01-27T13:23:06Z</time>
      </trkpt>
      <trkpt lat="42.99413" lon="0.24215">
        <ele>1246.01</ele>
        <time>2022-01-27T13:23:17Z</time>
      </trkpt>
      <trkpt lat="42.99411" lon="0.24212">
        <ele>1243.6</ele>
        <time>2022-01-27T13:23:28Z</time>
      </trkpt>
      <trkpt lat="42.9941" lon="0.24207">
        <ele>1240.72</ele>
        <time>2022-01-27T13:23:37Z</time>
      </trkpt>
      <trkpt lat="42.99407" lon="0.24206">
        <ele>1240.24</ele>
        <time>2022-01-27T13:23:41Z</time>
      </trkpt>
      <trkpt lat="42.99404" lon="0.24203">
        <ele>1238.8</ele>
        <time>2022-01-27T13:23:54Z</time>
      </trkpt>
      <trkpt lat="42.99404" lon="0.24195">
        <ele>1236.39</ele>
        <time>2022-01-27T13:24:04Z</time>
      </trkpt>
      <trkpt lat="42.99403" lon="0.24192">
        <ele>1233.99</ele>
        <time>2022-01-27T13:24:18Z</time>
      </trkpt>
      <trkpt lat="42.99402" lon="0.24187">
        <ele>1232.07</ele>
        <time>2022-01-27T13:24:30Z</time>
      </trkpt>
      <trkpt lat="42.99403" lon="0.24176">
        <ele>1228.7</ele>
        <time>2022-01-27T13:24:41Z</time>
      </trkpt>
      <trkpt lat="42.99402" lon="0.24173">
        <ele>1227.26</ele>
        <time>2022-01-27T13:24:54Z</time>
      </trkpt>
      <trkpt lat="42.994" lon="0.24162">
        <ele>1225.34</ele>
        <time>2022-01-27T13:25:08Z</time>
      </trkpt>
      <trkpt lat="42.99403" lon="0.24151">
        <ele>1221.97</ele>
        <time>2022-01-27T13:25:22Z</time>
      </trkpt>
      <trkpt lat="42.99405" lon="0.24139">
        <ele>1218.61</ele>
        <time>2022-01-27T13:25:34Z</time>
      </trkpt>
      <trkpt lat="42.99404" lon="0.24128">
        <ele>1215.72</ele>
        <time>2022-01-27T13:25:47Z</time>
      </trkpt>
      <trkpt lat="42.99401" lon="0.24116">
        <ele>1212.36</ele>
        <time>2022-01-27T13:26:00Z</time>
      </trkpt>
      <trkpt lat="42.994" lon="0.24109">
        <ele>1210.44</ele>
        <time>2022-01-27T13:26:17Z</time>
      </trkpt>
      <trkpt lat="42.99401" lon="0.241">
        <ele>1207.55</ele>
        <time>2022-01-27T13:26:28Z</time>
      </trkpt>
      <trkpt lat="42.99401" lon="0.24091">
        <ele>1205.63</ele>
        <time>2022-01-27T13:26:44Z</time>
      </trkpt>
      <trkpt lat="42.994" lon="0.24084">
        <ele>1203.23</ele>
        <time>2022-01-27T13:26:59Z</time>
      </trkpt>
      <trkpt lat="42.99396" lon="0.24075">
        <ele>1200.82</ele>
        <time>2022-01-27T13:27:13Z</time>
      </trkpt>
      <trkpt lat="42.99395" lon="0.2407">
        <ele>1199.38</ele>
        <time>2022-01-27T13:27:25Z</time>
      </trkpt>
      <trkpt lat="42.99392" lon="0.24064">
        <ele>1196.98</ele>
        <time>2022-01-27T13:27:38Z</time>
      </trkpt>
      <trkpt lat="42.99392" lon="0.2406">
        <ele>1196.98</ele>
        <time>2022-01-27T13:27:55Z</time>
      </trkpt>
      <trkpt lat="42.99393" lon="0.24059">
        <ele>1196.02</ele>
        <time>2022-01-27T13:28:12Z</time>
      </trkpt>
      <trkpt lat="42.9939" lon="0.24058">
        <ele>1194.58</ele>
        <time>2022-01-27T13:28:25Z</time>
      </trkpt>
      <trkpt lat="42.99386" lon="0.24055">
        <ele>1192.17</ele>
        <time>2022-01-27T13:28:39Z</time>
      </trkpt>
      <trkpt lat="42.99385" lon="0.24054">
        <ele>1191.69</ele>
        <time>2022-01-27T13:28:40Z</time>
      </trkpt>
      <trkpt lat="42.99382" lon="0.24049">
        <ele>1190.25</ele>
        <time>2022-01-27T13:28:50Z</time>
      </trkpt>
      <trkpt lat="42.99378" lon="0.24046">
        <ele>1187.85</ele>
        <time>2022-01-27T13:29:00Z</time>
      </trkpt>
      <trkpt lat="42.99373" lon="0.24044">
        <ele>1185.44</ele>
        <time>2022-01-27T13:29:11Z</time>
      </trkpt>
      <trkpt lat="42.99368" lon="0.24041">
        <ele>1183.52</ele>
        <time>2022-01-27T13:29:20Z</time>
      </trkpt>
      <trkpt lat="42.99359" lon="0.24034">
        <ele>1180.16</ele>
        <time>2022-01-27T13:29:30Z</time>
      </trkpt>
      <trkpt lat="42.9935" lon="0.24031">
        <ele>1178.23</ele>
        <time>2022-01-27T13:29:42Z</time>
      </trkpt>
      <trkpt lat="42.99348" lon="0.24032">
        <ele>1176.79</ele>
        <time>2022-01-27T13:29:46Z</time>
      </trkpt>
      <trkpt lat="42.99339" lon="0.24028">
        <ele>1175.35</ele>
        <time>2022-01-27T13:29:59Z</time>
      </trkpt>
      <trkpt lat="42.99329" lon="0.24022">
        <ele>1174.39</ele>
        <time>2022-01-27T13:30:12Z</time>
      </trkpt>
      <trkpt lat="42.99321" lon="0.24018">
        <ele>1174.39</ele>
        <time>2022-01-27T13:30:29Z</time>
      </trkpt>
      <trkpt lat="42.99317" lon="0.24015">
        <ele>1173.43</ele>
        <time>2022-01-27T13:30:34Z</time>
      </trkpt>
      <trkpt lat="42.99313" lon="0.24009">
        <ele>1172.47</ele>
        <time>2022-01-27T13:30:46Z</time>
      </trkpt>
      <trkpt lat="42.99304" lon="0.24006">
        <ele>1171.98</ele>
        <time>2022-01-27T13:30:58Z</time>
      </trkpt>
      <trkpt lat="42.99301" lon="0.24005">
        <ele>1171.5</ele>
        <time>2022-01-27T13:31:00Z</time>
      </trkpt>
      <trkpt lat="42.99293" lon="0.23996">
        <ele>1171.02</ele>
        <time>2022-01-27T13:31:11Z</time>
      </trkpt>
      <trkpt lat="42.99283" lon="0.23988">
        <ele>1169.58</ele>
        <time>2022-01-27T13:31:23Z</time>
      </trkpt>
      <trkpt lat="42.99272" lon="0.23984">
        <ele>1168.62</ele>
        <time>2022-01-27T13:31:35Z</time>
      </trkpt>
      <trkpt lat="42.99262" lon="0.23982">
        <ele>1167.18</ele>
        <time>2022-01-27T13:31:47Z</time>
      </trkpt>
      <trkpt lat="42.99259" lon="0.23982">
        <ele>1167.18</ele>
        <time>2022-01-27T13:31:50Z</time>
      </trkpt>
      <trkpt lat="42.99249" lon="0.23981">
        <ele>1166.7</ele>
        <time>2022-01-27T13:32:06Z</time>
      </trkpt>
      <trkpt lat="42.99245" lon="0.23979">
        <ele>1166.22</ele>
        <time>2022-01-27T13:32:21Z</time>
      </trkpt>
      <trkpt lat="42.99236" lon="0.23977">
        <ele>1165.26</ele>
        <time>2022-01-27T13:32:33Z</time>
      </trkpt>
      <trkpt lat="42.99235" lon="0.23976">
        <ele>1164.77</ele>
        <time>2022-01-27T13:32:35Z</time>
      </trkpt>
      <trkpt lat="42.99233" lon="0.23976">
        <ele>1163.33</ele>
        <time>2022-01-27T13:32:37Z</time>
      </trkpt>
      <trkpt lat="42.99223" lon="0.23977">
        <ele>1162.85</ele>
        <time>2022-01-27T13:32:54Z</time>
      </trkpt>
      <trkpt lat="42.99219" lon="0.23983">
        <ele>1161.41</ele>
        <time>2022-01-27T13:33:06Z</time>
      </trkpt>
      <trkpt lat="42.99212" lon="0.23991">
        <ele>1159.01</ele>
        <time>2022-01-27T13:33:20Z</time>
      </trkpt>
      <trkpt lat="42.99209" lon="0.23995">
        <ele>1157.08</ele>
        <time>2022-01-27T13:33:27Z</time>
      </trkpt>
      <trkpt lat="42.99199" lon="0.23996">
        <ele>1155.16</ele>
        <time>2022-01-27T13:33:40Z</time>
      </trkpt>
      <trkpt lat="42.99189" lon="0.23996">
        <ele>1152.28</ele>
        <time>2022-01-27T13:33:53Z</time>
      </trkpt>
      <trkpt lat="42.99193" lon="0.23988">
        <ele>1149.87</ele>
        <time>2022-01-27T13:34:06Z</time>
      </trkpt>
      <trkpt lat="42.99196" lon="0.23984">
        <ele>1148.43</ele>
        <time>2022-01-27T13:34:18Z</time>
      </trkpt>
      <trkpt lat="42.99198" lon="0.2398">
        <ele>1146.51</ele>
        <time>2022-01-27T13:34:27Z</time>
      </trkpt>
      <trkpt lat="42.99203" lon="0.23974">
        <ele>1143.14</ele>
        <time>2022-01-27T13:34:40Z</time>
      </trkpt>
      <trkpt lat="42.99209" lon="0.23966">
        <ele>1141.22</ele>
        <time>2022-01-27T13:34:54Z</time>
      </trkpt>
      <trkpt lat="42.99206" lon="0.23961">
        <ele>1137.86</ele>
        <time>2022-01-27T13:35:06Z</time>
      </trkpt>
      <trkpt lat="42.99209" lon="0.23953">
        <ele>1135.94</ele>
        <time>2022-01-27T13:35:19Z</time>
      </trkpt>
      <trkpt lat="42.99203" lon="0.23954">
        <ele>1133.53</ele>
        <time>2022-01-27T13:35:27Z</time>
      </trkpt>
      <trkpt lat="42.99194" lon="0.23954">
        <ele>1132.09</ele>
        <time>2022-01-27T13:35:40Z</time>
      </trkpt>
      <trkpt lat="42.99187" lon="0.23955">
        <ele>1130.17</ele>
        <time>2022-01-27T13:35:53Z</time>
      </trkpt>
      <trkpt lat="42.99186" lon="0.23953">
        <ele>1128.73</ele>
        <time>2022-01-27T13:35:57Z</time>
      </trkpt>
      <trkpt lat="42.99192" lon="0.23946">
        <ele>1126.32</ele>
        <time>2022-01-27T13:36:13Z</time>
      </trkpt>
      <trkpt lat="42.99199" lon="0.2394">
        <ele>1123.44</ele>
        <time>2022-01-27T13:36:26Z</time>
      </trkpt>
      <trkpt lat="42.99203" lon="0.23938">
        <ele>1121.52</ele>
        <time>2022-01-27T13:36:39Z</time>
      </trkpt>
      <trkpt lat="42.99206" lon="0.23937">
        <ele>1120.55</ele>
        <time>2022-01-27T13:36:45Z</time>
      </trkpt>
      <trkpt lat="42.99207" lon="0.2393">
        <ele>1119.11</ele>
        <time>2022-01-27T13:36:59Z</time>
      </trkpt>
      <trkpt lat="42.9921" lon="0.23924">
        <ele>1115.75</ele>
        <time>2022-01-27T13:37:14Z</time>
      </trkpt>
      <trkpt lat="42.9921" lon="0.23918">
        <ele>1113.34</ele>
        <time>2022-01-27T13:37:27Z</time>
      </trkpt>
      <trkpt lat="42.99203" lon="0.23912">
        <ele>1109.98</ele>
        <time>2022-01-27T13:37:39Z</time>
      </trkpt>
      <trkpt lat="42.99198" lon="0.23909">
        <ele>1108.54</ele>
        <time>2022-01-27T13:37:49Z</time>
      </trkpt>
      <trkpt lat="42.99194" lon="0.23908">
        <ele>1107.58</ele>
        <time>2022-01-27T13:38:03Z</time>
      </trkpt>
      <trkpt lat="42.99189" lon="0.23906">
        <ele>1106.13</ele>
        <time>2022-01-27T13:38:16Z</time>
      </trkpt>
      <trkpt lat="42.99188" lon="0.23906">
        <ele>1105.17</ele>
        <time>2022-01-27T13:38:18Z</time>
      </trkpt>
      <trkpt lat="42.99187" lon="0.23904">
        <ele>1103.73</ele>
        <time>2022-01-27T13:38:33Z</time>
      </trkpt>
      <trkpt lat="42.99183" lon="0.23899">
        <ele>1101.33</ele>
        <time>2022-01-27T13:38:44Z</time>
      </trkpt>
      <trkpt lat="42.99178" lon="0.23894">
        <ele>1098.44</ele>
        <time>2022-01-27T13:38:58Z</time>
      </trkpt>
      <trkpt lat="42.99177" lon="0.23889">
        <ele>1097</ele>
        <time>2022-01-27T13:39:13Z</time>
      </trkpt>
      <trkpt lat="42.99179" lon="0.23884">
        <ele>1095.56</ele>
        <time>2022-01-27T13:39:25Z</time>
      </trkpt>
      <trkpt lat="42.99179" lon="0.2388">
        <ele>1093.64</ele>
        <time>2022-01-27T13:39:39Z</time>
      </trkpt>
      <trkpt lat="42.99182" lon="0.23873">
        <ele>1092.2</ele>
        <time>2022-01-27T13:39:52Z</time>
      </trkpt>
      <trkpt lat="42.99185" lon="0.23864">
        <ele>1089.31</ele>
        <time>2022-01-27T13:40:04Z</time>
      </trkpt>
      <trkpt lat="42.99191" lon="0.23855">
        <ele>1085.95</ele>
        <time>2022-01-27T13:40:19Z</time>
      </trkpt>
      <trkpt lat="42.99193" lon="0.2385">
        <ele>1083.54</ele>
        <time>2022-01-27T13:40:28Z</time>
      </trkpt>
      <trkpt lat="42.99193" lon="0.23841">
        <ele>1080.66</ele>
        <time>2022-01-27T13:40:41Z</time>
      </trkpt>
      <trkpt lat="42.99198" lon="0.23831">
        <ele>1078.26</ele>
        <time>2022-01-27T13:40:53Z</time>
      </trkpt>
      <trkpt lat="42.99199" lon="0.23821">
        <ele>1075.37</ele>
        <time>2022-01-27T13:41:02Z</time>
      </trkpt>
      <trkpt lat="42.992" lon="0.23809">
        <ele>1072.01</ele>
        <time>2022-01-27T13:41:14Z</time>
      </trkpt>
      <trkpt lat="42.992" lon="0.23796">
        <ele>1070.08</ele>
        <time>2022-01-27T13:41:26Z</time>
      </trkpt>
      <trkpt lat="42.99196" lon="0.23781">
        <ele>1066.72</ele>
        <time>2022-01-27T13:41:40Z</time>
      </trkpt>
      <trkpt lat="42.99197" lon="0.23774">
        <ele>1065.76</ele>
        <time>2022-01-27T13:41:48Z</time>
      </trkpt>
      <trkpt lat="42.99197" lon="0.2377">
        <ele>1064.8</ele>
        <time>2022-01-27T13:41:58Z</time>
      </trkpt>
      <trkpt lat="42.99197" lon="0.23761">
        <ele>1060.95</ele>
        <time>2022-01-27T13:42:07Z</time>
      </trkpt>
      <trkpt lat="42.99193" lon="0.23755">
        <ele>1060.47</ele>
        <time>2022-01-27T13:42:18Z</time>
      </trkpt>
      <trkpt lat="42.99188" lon="0.23747">
        <ele>1058.55</ele>
        <time>2022-01-27T13:42:30Z</time>
      </trkpt>
      <trkpt lat="42.99185" lon="0.23746">
        <ele>1057.11</ele>
        <time>2022-01-27T13:42:33Z</time>
      </trkpt>
      <trkpt lat="42.99178" lon="0.23738">
        <ele>1055.18</ele>
        <time>2022-01-27T13:42:46Z</time>
      </trkpt>
      <trkpt lat="42.99175" lon="0.23737">
        <ele>1052.3</ele>
        <time>2022-01-27T13:42:52Z</time>
      </trkpt>
      <trkpt lat="42.99169" lon="0.23736">
        <ele>1049.42</ele>
        <time>2022-01-27T13:43:06Z</time>
      </trkpt>
      <trkpt lat="42.99163" lon="0.23731">
        <ele>1046.05</ele>
        <time>2022-01-27T13:43:19Z</time>
      </trkpt>
      <trkpt lat="42.99162" lon="0.23725">
        <ele>1043.65</ele>
        <time>2022-01-27T13:43:31Z</time>
      </trkpt>
      <trkpt lat="42.99156" lon="0.23716">
        <ele>1040.76</ele>
        <time>2022-01-27T13:43:42Z</time>
      </trkpt>
      <trkpt lat="42.99154" lon="0.2371">
        <ele>1039.32</ele>
        <time>2022-01-27T13:43:49Z</time>
      </trkpt>
      <trkpt lat="42.99152" lon="0.23695">
        <ele>1035.96</ele>
        <time>2022-01-27T13:44:03Z</time>
      </trkpt>
      <trkpt lat="42.99151" lon="0.2369">
        <ele>1035</ele>
        <time>2022-01-27T13:44:07Z</time>
      </trkpt>
      <trkpt lat="42.99145" lon="0.23674">
        <ele>1031.63</ele>
        <time>2022-01-27T13:44:21Z</time>
      </trkpt>
      <trkpt lat="42.99138" lon="0.23664">
        <ele>1029.23</ele>
        <time>2022-01-27T13:44:33Z</time>
      </trkpt>
      <trkpt lat="42.99134" lon="0.23664">
        <ele>1028.27</ele>
        <time>2022-01-27T13:44:46Z</time>
      </trkpt>
      <trkpt lat="42.99133" lon="0.23661">
        <ele>1025.86</ele>
        <time>2022-01-27T13:44:57Z</time>
      </trkpt>
      <trkpt lat="42.99129" lon="0.23662">
        <ele>1025.38</ele>
        <time>2022-01-27T13:45:12Z</time>
      </trkpt>
      <trkpt lat="42.99127" lon="0.2366">
        <ele>1025.38</ele>
        <time>2022-01-27T13:45:15Z</time>
      </trkpt>
      <trkpt lat="42.99125" lon="0.23659">
        <ele>1023.46</ele>
        <time>2022-01-27T13:45:26Z</time>
      </trkpt>
      <trkpt lat="42.99123" lon="0.23662">
        <ele>1024.42</ele>
        <time>2022-01-27T13:45:43Z</time>
      </trkpt>
      <trkpt lat="42.99127" lon="0.23662">
        <ele>1024.42</ele>
        <time>2022-01-27T13:46:03Z</time>
      </trkpt>
      <trkpt lat="42.99139" lon="0.23657">
        <ele>1023.94</ele>
        <time>2022-01-27T13:46:15Z</time>
      </trkpt>
      <trkpt lat="42.99146" lon="0.23656">
        <ele>1023.46</ele>
        <time>2022-01-27T13:46:29Z</time>
      </trkpt>
      <trkpt lat="42.99141" lon="0.23657">
        <ele>1023.46</ele>
        <time>2022-01-27T13:46:35Z</time>
      </trkpt>
      <trkpt lat="42.99132" lon="0.23662">
        <ele>1023.94</ele>
        <time>2022-01-27T13:46:48Z</time>
      </trkpt>
      <trkpt lat="42.99129" lon="0.23663">
        <ele>1024.9</ele>
        <time>2022-01-27T13:47:01Z</time>
      </trkpt>
      <trkpt lat="42.99129" lon="0.23664">
        <ele>1023.94</ele>
        <time>2022-01-27T13:47:20Z</time>
      </trkpt>
      <trkpt lat="42.99128" lon="0.23667">
        <ele>1023.94</ele>
        <time>2022-01-27T13:47:36Z</time>
      </trkpt>
      <trkpt lat="42.99126" lon="0.23668">
        <ele>1023.46</ele>
        <time>2022-01-27T13:48:01Z</time>
      </trkpt>
      <trkpt lat="42.99135" lon="0.23669">
        <ele>1023.46</ele>
        <time>2022-01-27T13:48:32Z</time>
      </trkpt>
      <trkpt lat="42.99118" lon="0.23666">
        <ele>1023.94</ele>
        <time>2022-01-27T13:48:57Z</time>
      </trkpt>
      <trkpt lat="42.9912" lon="0.23663">
        <ele>1023.46</ele>
        <time>2022-01-27T13:49:18Z</time>
      </trkpt>
      <trkpt lat="42.99119" lon="0.23665">
        <ele>1023.46</ele>
        <time>2022-01-27T13:49:43Z</time>
      </trkpt>
      <trkpt lat="42.99116" lon="0.23667">
        <ele>1022.98</ele>
        <time>2022-01-27T13:50:18Z</time>
      </trkpt>
      <trkpt lat="42.99121" lon="0.2367">
        <ele>1022.98</ele>
        <time>2022-01-27T13:50:39Z</time>
      </trkpt>
      <trkpt lat="42.9912" lon="0.23663">
        <ele>1022.5</ele>
        <time>2022-01-27T13:51:05Z</time>
      </trkpt>
      <trkpt lat="42.99117" lon="0.23656">
        <ele>1022.98</ele>
        <time>2022-01-27T13:51:40Z</time>
      </trkpt>
      <trkpt lat="42.99121" lon="0.23662">
        <ele>1023.94</ele>
        <time>2022-01-27T13:52:01Z</time>
      </trkpt>
      <trkpt lat="42.99124" lon="0.23664">
        <ele>1023.46</ele>
        <time>2022-01-27T13:52:21Z</time>
      </trkpt>
      <trkpt lat="42.99121" lon="0.23661">
        <ele>1023.94</ele>
        <time>2022-01-27T13:52:38Z</time>
      </trkpt>
      <trkpt lat="42.99124" lon="0.23663">
        <ele>1022.98</ele>
        <time>2022-01-27T13:53:04Z</time>
      </trkpt>
      <trkpt lat="42.99126" lon="0.23664">
        <ele>1023.46</ele>
        <time>2022-01-27T13:53:29Z</time>
      </trkpt>
      <trkpt lat="42.99122" lon="0.23663">
        <ele>1023.94</ele>
        <time>2022-01-27T13:54:03Z</time>
      </trkpt>
      <trkpt lat="42.99117" lon="0.23659">
        <ele>1023.46</ele>
        <time>2022-01-27T13:54:22Z</time>
      </trkpt>
      <trkpt lat="42.99112" lon="0.23657">
        <ele>1022.98</ele>
        <time>2022-01-27T13:54:28Z</time>
      </trkpt>
      <trkpt lat="42.99108" lon="0.23657">
        <ele>1023.94</ele>
        <time>2022-01-27T13:54:34Z</time>
      </trkpt>
      <trkpt lat="42.99096" lon="0.2365">
        <ele>1023.94</ele>
        <time>2022-01-27T13:54:45Z</time>
      </trkpt>
      <trkpt lat="42.9909" lon="0.23647">
        <ele>1023.46</ele>
        <time>2022-01-27T13:54:50Z</time>
      </trkpt>
      <trkpt lat="42.99084" lon="0.23647">
        <ele>1023.46</ele>
        <time>2022-01-27T13:54:55Z</time>
      </trkpt>
      <trkpt lat="42.99071" lon="0.23637">
        <ele>1022.02</ele>
        <time>2022-01-27T13:55:08Z</time>
      </trkpt>
      <trkpt lat="42.9906" lon="0.23625">
        <ele>1020.1</ele>
        <time>2022-01-27T13:55:21Z</time>
      </trkpt>
      <trkpt lat="42.99057" lon="0.23622">
        <ele>1020.58</ele>
        <time>2022-01-27T13:55:24Z</time>
      </trkpt>
      <trkpt lat="42.99051" lon="0.23617">
        <ele>1019.62</ele>
        <time>2022-01-27T13:55:31Z</time>
      </trkpt>
      <trkpt lat="42.99048" lon="0.23614">
        <ele>1018.17</ele>
        <time>2022-01-27T13:55:34Z</time>
      </trkpt>
      <trkpt lat="42.99035" lon="0.23605">
        <ele>1017.21</ele>
        <time>2022-01-27T13:55:47Z</time>
      </trkpt>
      <trkpt lat="42.99026" lon="0.23594">
        <ele>1015.77</ele>
        <time>2022-01-27T13:55:59Z</time>
      </trkpt>
      <trkpt lat="42.99018" lon="0.23584">
        <ele>1014.33</ele>
        <time>2022-01-27T13:56:09Z</time>
      </trkpt>
      <trkpt lat="42.99016" lon="0.23581">
        <ele>1015.29</ele>
        <time>2022-01-27T13:56:11Z</time>
      </trkpt>
      <trkpt lat="42.99005" lon="0.23572">
        <ele>1013.85</ele>
        <time>2022-01-27T13:56:23Z</time>
      </trkpt>
      <trkpt lat="42.98999" lon="0.23569">
        <ele>1013.37</ele>
        <time>2022-01-27T13:56:29Z</time>
      </trkpt>
      <trkpt lat="42.98977" lon="0.23564">
        <ele>1011.44</ele>
        <time>2022-01-27T13:56:45Z</time>
      </trkpt>
      <trkpt lat="42.98972" lon="0.23565">
        <ele>1011.44</ele>
        <time>2022-01-27T13:56:49Z</time>
      </trkpt>
      <trkpt lat="42.98956" lon="0.23582">
        <ele>1009.04</ele>
        <time>2022-01-27T13:57:09Z</time>
      </trkpt>
      <trkpt lat="42.98941" lon="0.23587">
        <ele>1007.6</ele>
        <time>2022-01-27T13:57:24Z</time>
      </trkpt>
      <trkpt lat="42.9893" lon="0.23588">
        <ele>1005.68</ele>
        <time>2022-01-27T13:57:36Z</time>
      </trkpt>
      <trkpt lat="42.98914" lon="0.23594">
        <ele>1003.75</ele>
        <time>2022-01-27T13:57:51Z</time>
      </trkpt>
      <trkpt lat="42.98902" lon="0.23605">
        <ele>1002.31</ele>
        <time>2022-01-27T13:58:05Z</time>
      </trkpt>
      <trkpt lat="42.9889" lon="0.23615">
        <ele>1000.39</ele>
        <time>2022-01-27T13:58:17Z</time>
      </trkpt>
      <trkpt lat="42.98876" lon="0.23625">
        <ele>997.02</ele>
        <time>2022-01-27T13:58:33Z</time>
      </trkpt>
      <trkpt lat="42.98875" lon="0.23625">
        <ele>997.02</ele>
        <time>2022-01-27T13:58:34Z</time>
      </trkpt>
      <trkpt lat="42.98865" lon="0.23627">
        <ele>997.02</ele>
        <time>2022-01-27T13:58:44Z</time>
      </trkpt>
      <trkpt lat="42.98864" lon="0.23629">
        <ele>996.54</ele>
        <time>2022-01-27T13:58:46Z</time>
      </trkpt>
      <trkpt lat="42.98862" lon="0.23631">
        <ele>995.1</ele>
        <time>2022-01-27T13:58:48Z</time>
      </trkpt>
      <trkpt lat="42.98849" lon="0.23637">
        <ele>993.18</ele>
        <time>2022-01-27T13:59:01Z</time>
      </trkpt>
      <trkpt lat="42.98833" lon="0.23643">
        <ele>990.3</ele>
        <time>2022-01-27T13:59:16Z</time>
      </trkpt>
      <trkpt lat="42.98828" lon="0.23645">
        <ele>989.33</ele>
        <time>2022-01-27T13:59:21Z</time>
      </trkpt>
      <trkpt lat="42.98817" lon="0.23653">
        <ele>986.45</ele>
        <time>2022-01-27T13:59:35Z</time>
      </trkpt>
      <trkpt lat="42.98805" lon="0.23658">
        <ele>983.09</ele>
        <time>2022-01-27T13:59:50Z</time>
      </trkpt>
      <trkpt lat="42.98791" lon="0.23659">
        <ele>980.2</ele>
        <time>2022-01-27T14:00:05Z</time>
      </trkpt>
      <trkpt lat="42.98788" lon="0.23659">
        <ele>979.72</ele>
        <time>2022-01-27T14:00:08Z</time>
      </trkpt>
      <trkpt lat="42.98775" lon="0.2366">
        <ele>976.36</ele>
        <time>2022-01-27T14:00:22Z</time>
      </trkpt>
      <trkpt lat="42.98763" lon="0.23664">
        <ele>973.47</ele>
        <time>2022-01-27T14:00:36Z</time>
      </trkpt>
      <trkpt lat="42.98758" lon="0.23666">
        <ele>972.51</ele>
        <time>2022-01-27T14:00:42Z</time>
      </trkpt>
      <trkpt lat="42.98741" lon="0.23668">
        <ele>970.11</ele>
        <time>2022-01-27T14:00:57Z</time>
      </trkpt>
      <trkpt lat="42.98726" lon="0.23668">
        <ele>967.22</ele>
        <time>2022-01-27T14:01:11Z</time>
      </trkpt>
      <trkpt lat="42.98713" lon="0.23679">
        <ele>965.78</ele>
        <time>2022-01-27T14:01:24Z</time>
      </trkpt>
      <trkpt lat="42.98699" lon="0.23689">
        <ele>964.34</ele>
        <time>2022-01-27T14:01:37Z</time>
      </trkpt>
      <trkpt lat="42.98687" lon="0.23699">
        <ele>963.38</ele>
        <time>2022-01-27T14:01:49Z</time>
      </trkpt>
      <trkpt lat="42.98673" lon="0.23709">
        <ele>960.98</ele>
        <time>2022-01-27T14:02:04Z</time>
      </trkpt>
      <trkpt lat="42.98658" lon="0.23719">
        <ele>958.57</ele>
        <time>2022-01-27T14:02:20Z</time>
      </trkpt>
      <trkpt lat="42.98643" lon="0.2373">
        <ele>956.17</ele>
        <time>2022-01-27T14:02:34Z</time>
      </trkpt>
      <trkpt lat="42.98629" lon="0.23741">
        <ele>954.25</ele>
        <time>2022-01-27T14:02:47Z</time>
      </trkpt>
      <trkpt lat="42.98612" lon="0.23759">
        <ele>953.77</ele>
        <time>2022-01-27T14:03:06Z</time>
      </trkpt>
      <trkpt lat="42.98603" lon="0.23768">
        <ele>953.28</ele>
        <time>2022-01-27T14:03:17Z</time>
      </trkpt>
      <trkpt lat="42.98598" lon="0.23779">
        <ele>952.8</ele>
        <time>2022-01-27T14:03:25Z</time>
      </trkpt>
      <trkpt lat="42.98594" lon="0.23792">
        <ele>951.84</ele>
        <time>2022-01-27T14:03:33Z</time>
      </trkpt>
      <trkpt lat="42.98589" lon="0.23806">
        <ele>951.84</ele>
        <time>2022-01-27T14:03:43Z</time>
      </trkpt>
      <trkpt lat="42.98581" lon="0.23816">
        <ele>950.4</ele>
        <time>2022-01-27T14:03:54Z</time>
      </trkpt>
      <trkpt lat="42.98571" lon="0.23824">
        <ele>948.96</ele>
        <time>2022-01-27T14:04:03Z</time>
      </trkpt>
      <trkpt lat="42.98559" lon="0.23836">
        <ele>947.04</ele>
        <time>2022-01-27T14:04:18Z</time>
      </trkpt>
      <trkpt lat="42.98551" lon="0.23842">
        <ele>947.52</ele>
        <time>2022-01-27T14:04:25Z</time>
      </trkpt>
      <trkpt lat="42.98545" lon="0.23842">
        <ele>947.04</ele>
        <time>2022-01-27T14:04:29Z</time>
      </trkpt>
      <trkpt lat="42.98536" lon="0.23846">
        <ele>947.52</ele>
        <time>2022-01-27T14:04:37Z</time>
      </trkpt>
      <trkpt lat="42.9853" lon="0.23849">
        <ele>946.56</ele>
        <time>2022-01-27T14:04:46Z</time>
      </trkpt>
      <trkpt lat="42.98519" lon="0.23862">
        <ele>947.04</ele>
        <time>2022-01-27T14:05:00Z</time>
      </trkpt>
      <trkpt lat="42.98504" lon="0.23869">
        <ele>946.56</ele>
        <time>2022-01-27T14:05:12Z</time>
      </trkpt>
      <trkpt lat="42.98493" lon="0.23877">
        <ele>946.07</ele>
        <time>2022-01-27T14:05:24Z</time>
      </trkpt>
      <trkpt lat="42.9847" lon="0.23886">
        <ele>946.07</ele>
        <time>2022-01-27T14:05:40Z</time>
      </trkpt>
      <trkpt lat="42.98455" lon="0.23894">
        <ele>944.63</ele>
        <time>2022-01-27T14:05:54Z</time>
      </trkpt>
      <trkpt lat="42.98443" lon="0.23903">
        <ele>942.71</ele>
        <time>2022-01-27T14:06:08Z</time>
      </trkpt>
      <trkpt lat="42.98431" lon="0.23916">
        <ele>941.75</ele>
        <time>2022-01-27T14:06:20Z</time>
      </trkpt>
      <trkpt lat="42.98417" lon="0.23928">
        <ele>940.79</ele>
        <time>2022-01-27T14:06:34Z</time>
      </trkpt>
      <trkpt lat="42.98408" lon="0.23932">
        <ele>940.79</ele>
        <time>2022-01-27T14:06:41Z</time>
      </trkpt>
      <trkpt lat="42.98407" lon="0.23932">
        <ele>940.79</ele>
        <time>2022-01-27T14:06:42Z</time>
      </trkpt>
      <trkpt lat="42.98395" lon="0.2394">
        <ele>940.31</ele>
        <time>2022-01-27T14:06:55Z</time>
      </trkpt>
      <trkpt lat="42.98387" lon="0.23944">
        <ele>939.83</ele>
        <time>2022-01-27T14:07:03Z</time>
      </trkpt>
      <trkpt lat="42.98372" lon="0.23955">
        <ele>939.35</ele>
        <time>2022-01-27T14:07:18Z</time>
      </trkpt>
      <trkpt lat="42.98362" lon="0.23963">
        <ele>938.86</ele>
        <time>2022-01-27T14:07:29Z</time>
      </trkpt>
      <trkpt lat="42.98351" lon="0.2397">
        <ele>938.86</ele>
        <time>2022-01-27T14:07:40Z</time>
      </trkpt>
      <trkpt lat="42.98348" lon="0.23974">
        <ele>938.86</ele>
        <time>2022-01-27T14:07:44Z</time>
      </trkpt>
      <trkpt lat="42.98338" lon="0.23983">
        <ele>937.42</ele>
        <time>2022-01-27T14:07:56Z</time>
      </trkpt>
      <trkpt lat="42.98333" lon="0.23986">
        <ele>936.46</ele>
        <time>2022-01-27T14:08:02Z</time>
      </trkpt>
      <trkpt lat="42.9833" lon="0.23991">
        <ele>936.46</ele>
        <time>2022-01-27T14:08:06Z</time>
      </trkpt>
      <trkpt lat="42.98316" lon="0.2401">
        <ele>934.54</ele>
        <time>2022-01-27T14:08:20Z</time>
      </trkpt>
      <trkpt lat="42.98303" lon="0.24025">
        <ele>932.62</ele>
        <time>2022-01-27T14:08:32Z</time>
      </trkpt>
      <trkpt lat="42.98301" lon="0.24028">
        <ele>932.14</ele>
        <time>2022-01-27T14:08:35Z</time>
      </trkpt>
      <trkpt lat="42.98291" lon="0.24044">
        <ele>930.69</ele>
        <time>2022-01-27T14:08:47Z</time>
      </trkpt>
      <trkpt lat="42.98291" lon="0.24044">
        <ele>930.21</ele>
        <time>2022-01-27T14:08:48Z</time>
      </trkpt>
      <trkpt lat="42.98289" lon="0.24046">
        <ele>929.73</ele>
        <time>2022-01-27T14:08:50Z</time>
      </trkpt>
      <trkpt lat="42.98284" lon="0.24046">
        <ele>928.29</ele>
        <time>2022-01-27T14:09:00Z</time>
      </trkpt>
      <trkpt lat="42.98283" lon="0.24045">
        <ele>927.81</ele>
        <time>2022-01-27T14:09:02Z</time>
      </trkpt>
      <trkpt lat="42.9828" lon="0.24041">
        <ele>926.85</ele>
        <time>2022-01-27T14:09:07Z</time>
      </trkpt>
      <trkpt lat="42.98277" lon="0.24036">
        <ele>926.85</ele>
        <time>2022-01-27T14:09:11Z</time>
      </trkpt>
      <trkpt lat="42.98273" lon="0.24032">
        <ele>926.85</ele>
        <time>2022-01-27T14:09:15Z</time>
      </trkpt>
      <trkpt lat="42.9826" lon="0.24023">
        <ele>925.41</ele>
        <time>2022-01-27T14:09:27Z</time>
      </trkpt>
      <trkpt lat="42.98252" lon="0.24021">
        <ele>925.41</ele>
        <time>2022-01-27T14:09:34Z</time>
      </trkpt>
      <trkpt lat="42.9825" lon="0.2402">
        <ele>924.93</ele>
        <time>2022-01-27T14:09:35Z</time>
      </trkpt>
      <trkpt lat="42.98236" lon="0.2402">
        <ele>924.93</ele>
        <time>2022-01-27T14:09:46Z</time>
      </trkpt>
      <trkpt lat="42.98233" lon="0.24021">
        <ele>924.93</ele>
        <time>2022-01-27T14:09:47Z</time>
      </trkpt>
      <trkpt lat="42.98222" lon="0.24021">
        <ele>925.41</ele>
        <time>2022-01-27T14:09:57Z</time>
      </trkpt>
      <trkpt lat="42.98201" lon="0.24021">
        <ele>923.96</ele>
        <time>2022-01-27T14:10:11Z</time>
      </trkpt>
      <trkpt lat="42.98192" lon="0.24017">
        <ele>923</ele>
        <time>2022-01-27T14:10:19Z</time>
      </trkpt>
      <trkpt lat="42.98178" lon="0.24023">
        <ele>920.6</ele>
        <time>2022-01-27T14:10:32Z</time>
      </trkpt>
      <trkpt lat="42.98168" lon="0.24018">
        <ele>917.72</ele>
        <time>2022-01-27T14:10:45Z</time>
      </trkpt>
      <trkpt lat="42.98165" lon="0.24015">
        <ele>916.75</ele>
        <time>2022-01-27T14:10:50Z</time>
      </trkpt>
      <trkpt lat="42.98154" lon="0.24009">
        <ele>912.91</ele>
        <time>2022-01-27T14:11:02Z</time>
      </trkpt>
      <trkpt lat="42.98145" lon="0.24009">
        <ele>910.51</ele>
        <time>2022-01-27T14:11:10Z</time>
      </trkpt>
      <trkpt lat="42.98133" lon="0.24005">
        <ele>908.1</ele>
        <time>2022-01-27T14:11:23Z</time>
      </trkpt>
      <trkpt lat="42.98121" lon="0.24">
        <ele>905.22</ele>
        <time>2022-01-27T14:11:34Z</time>
      </trkpt>
      <trkpt lat="42.98112" lon="0.23999">
        <ele>902.82</ele>
        <time>2022-01-27T14:11:45Z</time>
      </trkpt>
      <trkpt lat="42.98099" lon="0.23994">
        <ele>899.93</ele>
        <time>2022-01-27T14:11:57Z</time>
      </trkpt>
      <trkpt lat="42.98083" lon="0.23991">
        <ele>897.53</ele>
        <time>2022-01-27T14:12:10Z</time>
      </trkpt>
      <trkpt lat="42.98077" lon="0.23987">
        <ele>895.12</ele>
        <time>2022-01-27T14:12:21Z</time>
      </trkpt>
      <trkpt lat="42.98073" lon="0.23982">
        <ele>894.16</ele>
        <time>2022-01-27T14:12:25Z</time>
      </trkpt>
      <trkpt lat="42.9806" lon="0.2398">
        <ele>891.76</ele>
        <time>2022-01-27T14:12:35Z</time>
      </trkpt>
      <trkpt lat="42.98049" lon="0.23981">
        <ele>890.32</ele>
        <time>2022-01-27T14:12:45Z</time>
      </trkpt>
      <trkpt lat="42.98043" lon="0.23978">
        <ele>888.4</ele>
        <time>2022-01-27T14:12:52Z</time>
      </trkpt>
      <trkpt lat="42.9803" lon="0.23977">
        <ele>885.03</ele>
        <time>2022-01-27T14:13:05Z</time>
      </trkpt>
      <trkpt lat="42.98015" lon="0.23978">
        <ele>883.11</ele>
        <time>2022-01-27T14:13:18Z</time>
      </trkpt>
      <trkpt lat="42.98011" lon="0.23978">
        <ele>882.63</ele>
        <time>2022-01-27T14:13:21Z</time>
      </trkpt>
      <trkpt lat="42.98" lon="0.23981">
        <ele>879.74</ele>
        <time>2022-01-27T14:13:35Z</time>
      </trkpt>
      <trkpt lat="42.97997" lon="0.23989">
        <ele>877.82</ele>
        <time>2022-01-27T14:13:46Z</time>
      </trkpt>
      <trkpt lat="42.97993" lon="0.23991">
        <ele>877.34</ele>
        <time>2022-01-27T14:13:58Z</time>
      </trkpt>
      <trkpt lat="42.97991" lon="0.23992">
        <ele>877.82</ele>
        <time>2022-01-27T14:14:01Z</time>
      </trkpt>
      <trkpt lat="42.97986" lon="0.23992">
        <ele>876.86</ele>
        <time>2022-01-27T14:14:07Z</time>
      </trkpt>
      <trkpt lat="42.97978" lon="0.23989">
        <ele>876.86</ele>
        <time>2022-01-27T14:14:15Z</time>
      </trkpt>
      <trkpt lat="42.97978" lon="0.23978">
        <ele>876.86</ele>
        <time>2022-01-27T14:14:27Z</time>
      </trkpt>
      <trkpt lat="42.97977" lon="0.2398">
        <ele>875.9</ele>
        <time>2022-01-27T14:14:42Z</time>
      </trkpt>
      <trkpt lat="42.97974" lon="0.23979">
        <ele>876.38</ele>
        <time>2022-01-27T14:14:57Z</time>
      </trkpt>
      <trkpt lat="42.97973" lon="0.23975">
        <ele>875.42</ele>
        <time>2022-01-27T14:15:16Z</time>
      </trkpt>
      <trkpt lat="42.97971" lon="0.23972">
        <ele>875.42</ele>
        <time>2022-01-27T14:15:39Z</time>
      </trkpt>
      <trkpt lat="42.97971" lon="0.23973">
        <ele>875.9</ele>
        <time>2022-01-27T14:15:43Z</time>
      </trkpt>
    </trkseg>
  </trk>
</gpx>